Darstellungsparameter: Aktuell verwendete Einstellungen:
Skalierung der Graphiken ... ?
xyx+y,   Skalierungsfaktor:      Skalierung: Modus: x, Faktor: 1
Darstellungszeitraum ... ?
Vom - - bis: - -   Zeitraum: 09.03.2009 - 05.06.2009
Min/Max/Avg-Anzeige ... ?
Zeige MMA aktuell
Zeige MMA Monat
Zeige MMA alles
Zeige --A aktuell
Zeige --A Monat
Zeige --A alles
Keine MMA-Anzeige
MMA:
Average (ber die Originaldaten)
MMA-Basis: 09.03.2009 - 05.06.2009
Quicknavigation für Darstellung... ?
Tage:      1T, 2T, 3T, 5T -1T -2T -3T -5T +1T +2T +3T +5T
Wochen: 1W, 2W, 3W -1W -2W -3W +1W +2W +3W
Monate: 1M, 3M, 6M -1M -3M -6M +1M +3M +6M
Jahre:    1J, 3J, 5J, 10J -1J -3J -5J -10J +1J +3J +5J +10J
Nutze für die Darstellung ... ?
Originaldaten oder Mittelwerte auf ...
Stundenbasis Tagesbasis Wochenbasis
Monatsbasis Jahresbasis      Datenbasis: Original-Daten
Darstellen als:
Statistik (Auto) Statistik J:M      Darstellung:
Zur Graphik,    zurück zur Übersicht aller Sensoren.
 
Tabellarische Datenbersicht: ?
 
Sensor: Nr:Datum:Temp:Abs-Feuchte:Windchill:Wind:
Aussen-T/F 1 09-03-2009 00:11:43 4.4 C 4.83 g/m*3 4.4 C 0 km/h
2 09-03-2009 00:23:43 4.8 C 4.96 g/m*3 4.8 C 0 km/h
3 09-03-2009 00:35:43 5.1 C 4.79 g/m*3 5.1 C 0 km/h
4 09-03-2009 00:47:43 5 C 4.69 g/m*3 5 C 0 km/h
5 09-03-2009 00:59:43 5 C 4.69 g/m*3 5 C 0 km/h
6 09-03-2009 01:11:43 4.7 C 4.73 g/m*3 4.7 C 0 km/h
7 09-03-2009 01:23:43 4.7 C 4.2 g/m*3 4.7 C 0 km/h
8 09-03-2009 01:35:43 4.7 C 4.46 g/m*3 4.7 C 0 km/h
9 09-03-2009 01:47:43 4.7 C 4.46 g/m*3 4.7 C 0 km/h
10 09-03-2009 01:59:44 4.7 C 4.06 g/m*3 4.7 C 0 km/h
11 09-03-2009 02:11:44 4.7 C 3.73 g/m*3 4.7 C 0 km/h
12 09-03-2009 02:23:44 4.7 C 3.66 g/m*3 4.7 C 0 km/h
13 09-03-2009 02:35:44 4.3 C 3.63 g/m*3 4.3 C 0 km/h
14 09-03-2009 02:47:44 3.9 C 3.79 g/m*3 3.9 C 0 km/h
15 09-03-2009 02:59:44 3.7 C 3.74 g/m*3 3.7 C 0 km/h
16 09-03-2009 03:11:44 3.6 C 3.71 g/m*3 3.6 C 0 km/h
17 09-03-2009 03:23:44 3.5 C 3.75 g/m*3 3.5 C 0 km/h
18 09-03-2009 03:35:44 3.3 C 3.76 g/m*3 3.3 C 0 km/h
19 09-03-2009 03:47:44 3.3 C 3.94 g/m*3 3.3 C 0 km/h
20 09-03-2009 03:59:44 3.4 C 4.03 g/m*3 3.4 C 0 km/h
21 09-03-2009 04:11:44 3.4 C 4.09 g/m*3 3.4 C 0 km/h
22 09-03-2009 04:23:44 3.6 C 4.15 g/m*3 3.6 C 0 km/h
23 09-03-2009 04:35:44 3.7 C 4.3 g/m*3 3.7 C 0 km/h
24 09-03-2009 04:47:44 3.3 C 4.49 g/m*3 3.3 C 0 km/h
25 09-03-2009 04:59:44 3.2 C 4.64 g/m*3 3.2 C 0 km/h
Sensor: Nr:Datum:Temp:Abs-Feuchte:Windchill:Wind:
Aussen-T/F 26 09-03-2009 05:11:44 3.1 C 4.67 g/m*3 3.1 C 0 km/h
27 09-03-2009 05:23:44 3.1 C 4.73 g/m*3 3.1 C 0 km/h
28 09-03-2009 05:35:44 3 C 4.64 g/m*3 3 C 0 km/h
29 09-03-2009 05:47:45 3.2 C 4.64 g/m*3 3.2 C 0 km/h
30 09-03-2009 05:59:45 3.3 C 4.61 g/m*3 3.3 C 0 km/h
31 09-03-2009 06:11:45 3.1 C 4.67 g/m*3 3.1 C 0 km/h
32 09-03-2009 06:23:45 2.5 C 4.66 g/m*3 2.5 C 0 km/h
33 09-03-2009 06:35:45 2.3 C 4.71 g/m*3 2.3 C 0 km/h
34 09-03-2009 06:47:45 2.1 C 4.7 g/m*3 2.1 C 0 km/h
35 09-03-2009 06:59:42 2.2 C 4.79 g/m*3 2.2 C 0 km/h
36 09-03-2009 07:11:42 2.2 C 4.73 g/m*3 2.2 C 0 km/h
37 09-03-2009 07:23:42 2.1 C 4.42 g/m*3 2.1 C 0 km/h
38 09-03-2009 07:35:41 2.1 C 4.2 g/m*3 2.1 C 0 km/h
39 09-03-2009 07:47:42 2 C 3.95 g/m*3 2 C 0 km/h
40 09-03-2009 07:59:41 2.1 C 3.92 g/m*3 2.1 C 0 km/h
41 09-03-2009 08:11:41 2.2 C 3.89 g/m*3 2.2 C 0 km/h
42 09-03-2009 08:23:41 2.6 C 3.82 g/m*3 2.6 C 0 km/h
43 09-03-2009 08:35:42 2.5 C 3.91 g/m*3 2.5 C 0 km/h
44 09-03-2009 08:47:41 3 C 3.92 g/m*3 3 C 0 km/h
45 09-03-2009 08:59:41 3.4 C 3.97 g/m*3 3.4 C 0 km/h
46 09-03-2009 09:11:41 3.5 C 4 g/m*3 3.5 C 0 km/h
47 09-03-2009 09:23:40 3.3 C 4 g/m*3 3.3 C 0 km/h
48 09-03-2009 09:35:41 3.7 C 4.11 g/m*3 3.7 C 0 km/h
49 09-03-2009 09:47:40 4.2 C 3.99 g/m*3 4.2 C 0 km/h
50 09-03-2009 09:59:40 4.5 C 4.01 g/m*3 4.5 C 0 km/h
Sensor: Nr:Datum:Temp:Abs-Feuchte:Windchill:Wind:
Aussen-T/F 51 09-03-2009 10:11:41 4.7 C 4.13 g/m*3 4.7 C 0 km/h
52 09-03-2009 10:23:40 5.1 C 3.97 g/m*3 5.1 C 0 km/h
53 09-03-2009 10:35:40 5.3 C 4.02 g/m*3 5.3 C 0 km/h
54 09-03-2009 10:47:39 5.6 C 4.03 g/m*3 5.6 C 0 km/h
55 09-03-2009 10:59:40 5.6 C 3.96 g/m*3 5.6 C 0 km/h
56 09-03-2009 11:11:40 6 C 3.92 g/m*3 6 C 0 km/h
57 09-03-2009 11:23:40 5.8 C 3.94 g/m*3 5.8 C 0 km/h
58 09-03-2009 11:35:39 6.4 C 3.95 g/m*3 6.4 C 0 km/h
59 09-03-2009 11:47:40 6.1 C 3.8 g/m*3 6.1 C 0 km/h
60 09-03-2009 11:59:39 6.5 C 3.97 g/m*3 6.5 C 0 km/h
61 09-03-2009 12:11:39 7.2 C 3.92 g/m*3 7.2 C 0 km/h
62 09-03-2009 12:23:39 7 C 3.56 g/m*3 7 C 0 km/h
63 09-03-2009 12:35:38 7 C 3.64 g/m*3 7 C 0 km/h
64 09-03-2009 12:47:39 7.2 C 3.69 g/m*3 7.2 C 0 km/h
65 09-03-2009 12:59:39 7.7 C 3.49 g/m*3 7.7 C 0 km/h
66 09-03-2009 13:11:39 7.7 C 3.49 g/m*3 7.7 C 0 km/h
67 09-03-2009 13:23:38 7.4 C 3.42 g/m*3 7.4 C 0 km/h
68 09-03-2009 13:35:39 7.5 C 3.52 g/m*3 7.5 C 0 km/h
69 09-03-2009 13:47:38 7.7 C 3.24 g/m*3 7.7 C 0 km/h
70 09-03-2009 13:59:38 8 C 3.22 g/m*3 8 C 0 km/h
71 09-03-2009 14:11:38 7.7 C 3.24 g/m*3 7.7 C 0 km/h
72 09-03-2009 14:23:38 8.2 C 3.35 g/m*3 8.2 C 0 km/h
73 09-03-2009 14:35:38 8.4 C 3.48 g/m*3 8.4 C 0 km/h
74 09-03-2009 14:47:37 8.3 C 3.46 g/m*3 8.3 C 0 km/h
75 09-03-2009 14:59:38 7.2 C 3.69 g/m*3 7.2 C 0 km/h
Sensor: Nr:Datum:Temp:Abs-Feuchte:Windchill:Wind:
Aussen-T/F 76 09-03-2009 15:11:38 6.3 C 4 g/m*3 6.3 C 0 km/h
77 09-03-2009 15:23:37 6.9 C 4.16 g/m*3 6.9 C 0 km/h
78 09-03-2009 15:35:37 8.1 C 3.83 g/m*3 8.1 C 0 km/h
79 09-03-2009 15:47:38 8.7 C 3.63 g/m*3 8.7 C 0 km/h
80 09-03-2009 15:59:37 8.6 C 3.52 g/m*3 8.6 C 0 km/h
81 09-03-2009 16:11:37 9.5 C 3.55 g/m*3 9.5 C 0 km/h
82 09-03-2009 16:23:37 8.7 C 3.55 g/m*3 8.7 C 0 km/h
83 09-03-2009 16:35:36 8.7 C 3.72 g/m*3 8.7 C 0 km/h
84 09-03-2009 16:47:37 8.8 C 3.74 g/m*3 8.8 C 0 km/h
85 09-03-2009 16:59:36 9.1 C 3.37 g/m*3 9.1 C 0 km/h
86 09-03-2009 17:11:36 8.3 C 3.37 g/m*3 8.3 C 0 km/h
87 09-03-2009 17:23:36 8 C 3.47 g/m*3 8 C 0 km/h
88 09-03-2009 17:35:37 7.9 C 3.61 g/m*3 7.9 C 0 km/h
89 09-03-2009 17:47:36 7.5 C 3.68 g/m*3 7.5 C 0 km/h
90 09-03-2009 17:59:36 7.4 C 3.66 g/m*3 7.4 C 0 km/h
91 09-03-2009 18:11:36 7.4 C 3.74 g/m*3 7.4 C 0 km/h
92 09-03-2009 18:23:36 7.3 C 3.71 g/m*3 7.3 C 0 km/h
93 09-03-2009 18:35:36 7 C 3.87 g/m*3 7 C 0 km/h
94 09-03-2009 18:47:35 6.7 C 4.1 g/m*3 6.7 C 0 km/h
95 09-03-2009 18:59:35 6.4 C 4.17 g/m*3 6.4 C 0 km/h
96 09-03-2009 19:11:35 6.4 C 4.1 g/m*3 6.4 C 0 km/h
97 09-03-2009 19:23:35 6.2 C 3.82 g/m*3 6.2 C 0 km/h
98 09-03-2009 19:35:35 6 C 3.85 g/m*3 6 C 0 km/h
99 09-03-2009 19:47:34 5.8 C 4.01 g/m*3 5.8 C 0 km/h
100 09-03-2009 19:59:35 5.8 C 4.08 g/m*3 5.8 C 0 km/h
Sensor: Nr:Datum:Temp:Abs-Feuchte:Windchill:Wind:
Aussen-T/F 101 09-03-2009 20:11:35 5.8 C 4.23 g/m*3 5.8 C 0 km/h
102 09-03-2009 20:23:35 5.5 C 4.28 g/m*3 5.5 C 0 km/h
103 09-03-2009 20:35:34 5.2 C 4.34 g/m*3 5.2 C 0 km/h
104 09-03-2009 20:47:35 4.9 C 4.46 g/m*3 4.9 C 0 km/h
105 09-03-2009 20:59:34 4.8 C 4.56 g/m*3 4.8 C 0 km/h
106 09-03-2009 21:11:34 4.6 C 4.57 g/m*3 4.6 C 0 km/h
107 09-03-2009 21:23:34 4.4 C 4.64 g/m*3 4.4 C 0 km/h
108 09-03-2009 21:35:34 4 C 4.77 g/m*3 4 C 0 km/h
109 09-03-2009 21:48:35 3.8 C 4.89 g/m*3 3.8 C 0 km/h
110 09-03-2009 22:00:35 3.8 C 4.89 g/m*3 3.8 C 0 km/h
111 09-03-2009 22:12:35 4.1 C 4.86 g/m*3 4.1 C 0 km/h
112 09-03-2009 22:24:35 3.7 C 4.8 g/m*3 3.7 C 0 km/h
113 09-03-2009 22:36:35 4 C 4.58 g/m*3 4 C 0 km/h
114 09-03-2009 22:48:35 3.9 C 4.61 g/m*3 3.9 C 0 km/h
115 09-03-2009 23:00:35 3.7 C 4.61 g/m*3 3.7 C 0 km/h
116 09-03-2009 23:12:35 3.5 C 4.61 g/m*3 3.5 C 0 km/h
117 09-03-2009 23:24:35 3.3 C 4.67 g/m*3 3.3 C 0 km/h
118 09-03-2009 23:36:35 3.2 C 4.7 g/m*3 3.2 C 0 km/h
119 09-03-2009 23:48:35 3.4 C 4.83 g/m*3 3.4 C 0 km/h
120 10-03-2009 00:00:35 3.4 C 4.83 g/m*3 3.4 C 0 km/h
121 10-03-2009 00:12:35 3.3 C 4.79 g/m*3 3.3 C 0 km/h
122 10-03-2009 00:24:35 3.4 C 4.89 g/m*3 3.4 C 0 km/h
123 10-03-2009 00:36:35 3.7 C 4.92 g/m*3 3.7 C 0 km/h
124 10-03-2009 00:48:35 3.9 C 4.86 g/m*3 3.9 C 0 km/h
125 10-03-2009 01:00:35 4.1 C 4.8 g/m*3 4.1 C 0 km/h
Sensor: Nr:Datum:Temp:Abs-Feuchte:Windchill:Wind:
Aussen-T/F 126 10-03-2009 01:12:35 4.2 C 4.77 g/m*3 4.2 C 0 km/h
127 10-03-2009 01:24:36 4.3 C 4.67 g/m*3 4.3 C 0 km/h
128 10-03-2009 01:36:36 4.3 C 4.67 g/m*3 4.3 C 0 km/h
129 10-03-2009 01:48:36 4.4 C 4.64 g/m*3 4.4 C 0 km/h
130 10-03-2009 02:00:36 4.5 C 4.6 g/m*3 4.5 C 0 km/h
131 10-03-2009 02:12:36 4.4 C 4.64 g/m*3 4.4 C 0 km/h
132 10-03-2009 02:24:36 4.6 C 4.57 g/m*3 4.6 C 0 km/h
133 10-03-2009 02:36:36 4.7 C 4.46 g/m*3 4.7 C 0 km/h
134 10-03-2009 02:48:36 4.7 C 4.4 g/m*3 4.7 C 0 km/h
135 10-03-2009 03:00:36 4.7 C 4.4 g/m*3 4.7 C 0 km/h
136 10-03-2009 03:12:36 4.5 C 4.4 g/m*3 4.5 C 0 km/h
137 10-03-2009 03:24:36 4.5 C 4.4 g/m*3 4.5 C 0 km/h
138 10-03-2009 03:36:36 4.5 C 4.4 g/m*3 4.5 C 0 km/h
139 10-03-2009 03:48:36 4.5 C 4.47 g/m*3 4.5 C 0 km/h
140 10-03-2009 04:00:36 4.6 C 4.43 g/m*3 4.6 C 0 km/h
141 10-03-2009 04:12:36 4.5 C 4.4 g/m*3 4.5 C 0 km/h
142 10-03-2009 04:24:36 4.6 C 4.43 g/m*3 4.6 C 0 km/h
143 10-03-2009 04:36:36 4.5 C 4.4 g/m*3 4.5 C 0 km/h
144 10-03-2009 04:48:36 4.4 C 4.44 g/m*3 4.4 C 0 km/h
145 10-03-2009 05:00:36 4.4 C 4.37 g/m*3 4.4 C 0 km/h
146 10-03-2009 05:12:37 4.4 C 4.44 g/m*3 4.4 C 0 km/h
147 10-03-2009 05:24:37 4.4 C 4.44 g/m*3 4.4 C 0 km/h
148 10-03-2009 05:36:37 4.3 C 4.48 g/m*3 4.3 C 0 km/h
149 10-03-2009 05:48:37 4.3 C 4.54 g/m*3 4.3 C 0 km/h
150 10-03-2009 06:00:37 4.3 C 4.61 g/m*3 4.3 C 0 km/h
Sensor: Nr:Datum:Temp:Abs-Feuchte:Windchill:Wind:
Aussen-T/F 151 10-03-2009 06:12:37 4.1 C 4.61 g/m*3 4.1 C 0 km/h
152 10-03-2009 06:24:37 4.2 C 4.64 g/m*3 4.2 C 0 km/h
153 10-03-2009 06:36:37 4.2 C 4.64 g/m*3 4.2 C 0 km/h
154 10-03-2009 06:48:37 4.3 C 4.67 g/m*3 4.3 C 0 km/h
155 10-03-2009 07:00:35 4.3 C 4.61 g/m*3 4.3 C 0 km/h
156 10-03-2009 07:12:35 4.3 C 4.61 g/m*3 4.3 C 0 km/h
157 10-03-2009 07:24:34 4.2 C 4.64 g/m*3 4.2 C 0 km/h
158 10-03-2009 07:36:35 4.2 C 4.64 g/m*3 4.2 C 0 km/h
159 10-03-2009 07:48:34 4.3 C 4.74 g/m*3 4.3 C 0 km/h
160 10-03-2009 08:00:34 4.5 C 4.73 g/m*3 4.5 C 0 km/h
161 10-03-2009 08:12:34 4.7 C 4.73 g/m*3 4.7 C 0 km/h
162 10-03-2009 08:24:35 4.8 C 4.76 g/m*3 4.8 C 0 km/h
163 10-03-2009 08:36:34 4.9 C 4.73 g/m*3 4.9 C 0 km/h
164 10-03-2009 08:48:34 5 C 4.69 g/m*3 5 C 0 km/h
165 10-03-2009 09:00:33 5 C 4.69 g/m*3 5 C 0 km/h
166 10-03-2009 09:12:33 5.2 C 4.75 g/m*3 5.2 C 0 km/h
167 10-03-2009 09:24:34 5.2 C 4.68 g/m*3 5.2 C 0 km/h
168 10-03-2009 09:36:34 5.3 C 4.64 g/m*3 5.3 C 0 km/h
169 10-03-2009 09:48:33 5.3 C 4.64 g/m*3 5.3 C 0 km/h
170 10-03-2009 10:00:34 5.4 C 4.6 g/m*3 5.4 C 0 km/h
171 10-03-2009 10:12:34 5.5 C 4.64 g/m*3 5.5 C 0 km/h
172 10-03-2009 10:24:33 5.6 C 4.67 g/m*3 5.6 C 0 km/h
173 10-03-2009 10:36:33 5.7 C 4.63 g/m*3 5.7 C 0 km/h
174 10-03-2009 10:48:33 5.9 C 4.69 g/m*3 5.9 C 0 km/h
175 10-03-2009 11:00:33 6.1 C 4.6 g/m*3 6.1 C 0 km/h
Sensor: Nr:Datum:Temp:Abs-Feuchte:Windchill:Wind:
Aussen-T/F 176 10-03-2009 11:12:33 6.3 C 4.59 g/m*3 6.3 C 0 km/h
177 10-03-2009 11:24:32 6.4 C 4.62 g/m*3 6.4 C 0 km/h
178 10-03-2009 11:36:33 6.3 C 4.66 g/m*3 6.3 C 0 km/h
179 10-03-2009 11:48:32 6.3 C 4.66 g/m*3 6.3 C 0 km/h
180 10-03-2009 12:00:32 6.4 C 4.69 g/m*3 6.4 C 0 km/h
181 10-03-2009 12:12:32 6.5 C 4.65 g/m*3 6.5 C 0 km/h
182 10-03-2009 12:24:32 6.6 C 4.6 g/m*3 6.6 C 0 km/h
183 10-03-2009 12:36:32 6.5 C 4.57 g/m*3 6.5 C 0 km/h
184 10-03-2009 12:48:32 6.5 C 4.57 g/m*3 6.5 C 0 km/h
185 10-03-2009 13:00:31 6.6 C 4.6 g/m*3 6.6 C 0 km/h
186 10-03-2009 13:12:31 6.7 C 4.64 g/m*3 6.7 C 0 km/h
187 10-03-2009 13:24:32 6.8 C 4.67 g/m*3 6.8 C 0 km/h
188 10-03-2009 13:36:31 6.8 C 4.67 g/m*3 6.8 C 0 km/h
189 10-03-2009 13:48:31 7 C 4.65 g/m*3 7 C 0 km/h
190 10-03-2009 14:00:31 7.1 C 4.6 g/m*3 7.1 C 0 km/h
191 10-03-2009 14:12:31 7.1 C 4.52 g/m*3 7.1 C 0 km/h
192 10-03-2009 14:24:31 7.1 C 4.6 g/m*3 7.1 C 0 km/h
193 10-03-2009 14:36:31 6.9 C 4.7 g/m*3 6.9 C 0 km/h
194 10-03-2009 14:48:31 6.8 C 4.74 g/m*3 6.8 C 0 km/h
195 10-03-2009 15:00:31 6.8 C 4.67 g/m*3 6.8 C 0 km/h
196 10-03-2009 15:12:31 6.8 C 4.67 g/m*3 6.8 C 0 km/h
197 10-03-2009 15:24:30 6.6 C 4.6 g/m*3 6.6 C 0 km/h
198 10-03-2009 15:36:30 6.4 C 4.62 g/m*3 6.4 C 0 km/h
199 10-03-2009 15:48:30 6.4 C 4.55 g/m*3 6.4 C 0 km/h
200 10-03-2009 16:00:30 6.4 C 4.32 g/m*3 6.4 C 0 km/h
Sensor: Nr:Datum:Temp:Abs-Feuchte:Windchill:Wind:
Aussen-T/F 201 10-03-2009 16:12:30 6.4 C 4.47 g/m*3 6.4 C 0 km/h
202 10-03-2009 16:24:29 5.9 C 4.47 g/m*3 5.9 C 0 km/h
203 10-03-2009 16:36:30 5.7 C 4.7 g/m*3 5.7 C 0 km/h
204 10-03-2009 16:48:30 5.4 C 4.74 g/m*3 5.4 C 0 km/h
205 10-03-2009 17:00:29 5.6 C 4.88 g/m*3 5.6 C 0 km/h
206 10-03-2009 17:12:29 5.6 C 4.81 g/m*3 5.6 C 0 km/h
207 10-03-2009 17:24:30 5.8 C 4.87 g/m*3 5.8 C 0 km/h
208 10-03-2009 17:36:29 5.7 C 4.91 g/m*3 5.7 C 0 km/h
209 10-03-2009 17:48:29 5.7 C 4.91 g/m*3 5.7 C 0 km/h
210 10-03-2009 18:00:28 5.8 C 5.01 g/m*3 5.8 C 0 km/h
211 10-03-2009 18:12:28 5.7 C 5.05 g/m*3 5.7 C 0 km/h
212 10-03-2009 18:24:29 5.8 C 5.09 g/m*3 5.8 C 0 km/h
213 10-03-2009 18:36:29 5.8 C 5.09 g/m*3 5.8 C 0 km/h
214 10-03-2009 18:48:28 5.9 C 5.19 g/m*3 5.9 C 0 km/h
215 10-03-2009 19:00:29 6 C 5.15 g/m*3 6 C 0 km/h
216 10-03-2009 19:12:29 6 C 5.23 g/m*3 6 C 0 km/h
217 10-03-2009 19:24:28 6 C 5.3 g/m*3 6 C 0 km/h
218 10-03-2009 19:36:28 6 C 5.37 g/m*3 6 C 0 km/h
219 10-03-2009 19:48:28 5.8 C 5.73 g/m*3 5.8 C 0 km/h
220 10-03-2009 20:00:28 5.8 C 5.87 g/m*3 5.8 C 0 km/h
221 10-03-2009 20:12:28 5.8 C 5.95 g/m*3 5.8 C 0 km/h
222 10-03-2009 20:24:27 5.9 C 5.98 g/m*3 5.9 C 0 km/h
223 10-03-2009 20:36:27 6.5 C 5.92 g/m*3 6.5 C 0 km/h
224 10-03-2009 20:48:27 6.9 C 5.62 g/m*3 6.9 C 0 km/h
225 10-03-2009 21:00:27 7.2 C 5.34 g/m*3 7.2 C 0 km/h
Sensor: Nr:Datum:Temp:Abs-Feuchte:Windchill:Wind:
Aussen-T/F 226 10-03-2009 21:12:27 7.3 C 5.21 g/m*3 7.3 C 0 km/h
227 10-03-2009 21:24:27 7.3 C 5.21 g/m*3 7.3 C 0 km/h
228 10-03-2009 21:36:27 6.8 C 5.51 g/m*3 6.8 C 0 km/h
229 10-03-2009 21:49:28 6.2 C 5.44 g/m*3 6.2 C 0 km/h
230 10-03-2009 22:01:28 5.7 C 5.34 g/m*3 5.7 C 0 km/h
231 10-03-2009 22:13:28 5.6 C 5.3 g/m*3 5.6 C 0 km/h
232 10-03-2009 22:25:28 5.4 C 5.37 g/m*3 5.4 C 0 km/h
233 10-03-2009 22:37:28 5.3 C 5.34 g/m*3 5.3 C 0 km/h
234 10-03-2009 22:49:28 5.2 C 5.51 g/m*3 5.2 C 0 km/h
235 10-03-2009 23:01:28 5.1 C 5.47 g/m*3 5.1 C 0 km/h
236 10-03-2009 23:13:28 5.1 C 5.47 g/m*3 5.1 C 0 km/h
237 10-03-2009 23:25:28 5.2 C 5.37 g/m*3 5.2 C 0 km/h
238 10-03-2009 23:37:28 5.4 C 5.02 g/m*3 5.4 C 0 km/h
239 10-03-2009 23:49:28 5.4 C 4.81 g/m*3 5.4 C 0 km/h
240 11-03-2009 00:01:28 5.5 C 4.64 g/m*3 5.5 C 0 km/h
241 11-03-2009 00:13:28 5.5 C 4.78 g/m*3 5.5 C 0 km/h
242 11-03-2009 00:25:28 5.3 C 4.78 g/m*3 5.3 C 0 km/h
243 11-03-2009 00:37:28 5.1 C 4.72 g/m*3 5.1 C 0 km/h
244 11-03-2009 00:49:28 5 C 4.69 g/m*3 5 C 0 km/h
245 11-03-2009 01:01:28 4.8 C 4.69 g/m*3 4.8 C 0 km/h
246 11-03-2009 01:13:29 4.8 C 4.69 g/m*3 4.8 C 0 km/h
247 11-03-2009 01:25:29 4.9 C 4.66 g/m*3 4.9 C 0 km/h
248 11-03-2009 01:37:29 4.9 C 4.66 g/m*3 4.9 C 0 km/h
249 11-03-2009 01:49:29 4.8 C 4.63 g/m*3 4.8 C 0 km/h
250 11-03-2009 02:01:29 4.9 C 4.59 g/m*3 4.9 C 0 km/h
Sensor: Nr:Datum:Temp:Abs-Feuchte:Windchill:Wind:
Aussen-T/F 251 11-03-2009 02:13:29 5 C 4.48 g/m*3 5 C 0 km/h
252 11-03-2009 02:25:29 4.9 C 4.52 g/m*3 4.9 C 0 km/h
253 11-03-2009 02:37:29 4.9 C 4.59 g/m*3 4.9 C 0 km/h
254 11-03-2009 02:49:29 4.8 C 4.56 g/m*3 4.8 C 0 km/h
255 11-03-2009 03:01:29 4.6 C 4.5 g/m*3 4.6 C 0 km/h
256 11-03-2009 03:13:29 4.5 C 4.54 g/m*3 4.5 C 0 km/h
257 11-03-2009 03:25:29 4.5 C 4.54 g/m*3 4.5 C 0 km/h
258 11-03-2009 03:37:29 4.6 C 4.57 g/m*3 4.6 C 0 km/h
259 11-03-2009 03:49:29 4.7 C 4.46 g/m*3 4.7 C 0 km/h
260 11-03-2009 04:01:29 4.7 C 4.46 g/m*3 4.7 C 0 km/h
261 11-03-2009 04:13:29 4.7 C 4.4 g/m*3 4.7 C 0 km/h
262 11-03-2009 04:25:29 4.7 C 4.33 g/m*3 4.7 C 0 km/h
263 11-03-2009 04:37:29 4.7 C 4.33 g/m*3 4.7 C 0 km/h
264 11-03-2009 04:49:29 4.7 C 4.33 g/m*3 4.7 C 0 km/h
265 11-03-2009 05:01:30 4.7 C 4.26 g/m*3 4.7 C 0 km/h
266 11-03-2009 05:13:30 4.6 C 4.23 g/m*3 4.6 C 0 km/h
267 11-03-2009 05:25:30 4.6 C 4.23 g/m*3 4.6 C 0 km/h
268 11-03-2009 05:37:30 4.6 C 4.17 g/m*3 4.6 C 0 km/h
269 11-03-2009 05:49:30 4.6 C 4.17 g/m*3 4.6 C 0 km/h
270 11-03-2009 06:01:30 4.6 C 4.1 g/m*3 4.6 C 0 km/h
271 11-03-2009 06:13:30 4.1 C 4.22 g/m*3 4.1 C 0 km/h
272 11-03-2009 06:25:30 3.9 C 4.55 g/m*3 3.9 C 0 km/h
273 11-03-2009 06:37:30 3.6 C 4.7 g/m*3 3.6 C 0 km/h
274 11-03-2009 06:49:30 3.6 C 4.83 g/m*3 3.6 C 0 km/h
275 11-03-2009 07:01:27 3.7 C 4.86 g/m*3 3.7 C 0 km/h
Sensor: Nr:Datum:Temp:Abs-Feuchte:Windchill:Wind:
Aussen-T/F 276 11-03-2009 07:13:28 3.9 C 4.86 g/m*3 3.9 C 0 km/h
277 11-03-2009 07:25:28 3.9 C 4.86 g/m*3 3.9 C 0 km/h
278 11-03-2009 07:37:27 3.8 C 4.89 g/m*3 3.8 C 0 km/h
279 11-03-2009 07:49:27 4 C 4.83 g/m*3 4 C 0 km/h
280 11-03-2009 08:01:27 4.3 C 4.74 g/m*3 4.3 C 0 km/h
281 11-03-2009 08:13:27 4.5 C 4.6 g/m*3 4.5 C 0 km/h
282 11-03-2009 08:25:27 4.5 C 4.6 g/m*3 4.5 C 0 km/h
283 11-03-2009 08:37:26 4.7 C 4.6 g/m*3 4.7 C 0 km/h
284 11-03-2009 08:49:27 4.9 C 4.59 g/m*3 4.9 C 0 km/h
285 11-03-2009 09:01:26 4.8 C 4.69 g/m*3 4.8 C 0 km/h
286 11-03-2009 09:13:26 4.6 C 4.83 g/m*3 4.6 C 0 km/h
287 11-03-2009 09:25:26 4.6 C 4.83 g/m*3 4.6 C 0 km/h
288 11-03-2009 09:37:26 4.8 C 4.9 g/m*3 4.8 C 0 km/h
289 11-03-2009 09:49:26 4.9 C 4.93 g/m*3 4.9 C 0 km/h
290 11-03-2009 10:01:25 4.9 C 4.79 g/m*3 4.9 C 0 km/h
291 11-03-2009 10:13:26 5 C 4.69 g/m*3 5 C 0 km/h
292 11-03-2009 10:25:26 4.8 C 4.69 g/m*3 4.8 C 0 km/h
293 11-03-2009 10:37:25 4.8 C 4.69 g/m*3 4.8 C 0 km/h
294 11-03-2009 10:49:25 4.8 C 4.63 g/m*3 4.8 C 0 km/h
295 11-03-2009 11:01:26 5.2 C 4.54 g/m*3 5.2 C 0 km/h
296 11-03-2009 11:13:25 5.2 C 4.54 g/m*3 5.2 C 0 km/h
297 11-03-2009 11:25:25 5.2 C 4.48 g/m*3 5.2 C 0 km/h
298 11-03-2009 11:37:25 5.4 C 4.47 g/m*3 5.4 C 0 km/h
299 11-03-2009 11:49:25 5.9 C 4.54 g/m*3 5.9 C 0 km/h
300 11-03-2009 12:01:25 6.7 C 4.33 g/m*3 6.7 C 0 km/h
Sensor: Nr:Datum:Temp:Abs-Feuchte:Windchill:Wind:
Aussen-T/F 301 11-03-2009 12:13:24 7.1 C 4.21 g/m*3 7.1 C 0 km/h
302 11-03-2009 12:25:24 7.4 C 4.29 g/m*3 7.4 C 0 km/h
303 11-03-2009 12:37:24 7.3 C 3.95 g/m*3 7.3 C 0 km/h
304 11-03-2009 12:49:24 7.4 C 4.06 g/m*3 7.4 C 0 km/h
305 11-03-2009 13:01:24 7.1 C 4.06 g/m*3 7.1 C 0 km/h
306 11-03-2009 13:13:24 6.2 C 4.63 g/m*3 6.2 C 0 km/h
307 11-03-2009 13:25:24 6.5 C 4.87 g/m*3 6.5 C 0 km/h
308 11-03-2009 13:37:24 7.3 C 4.82 g/m*3 7.3 C 0 km/h
309 11-03-2009 13:49:24 7.9 C 4.19 g/m*3 7.9 C 0 km/h
310 11-03-2009 14:01:23 8 C 3.72 g/m*3 8 C 0 km/h
311 11-03-2009 14:13:24 8.1 C 3.91 g/m*3 8.1 C 0 km/h
312 11-03-2009 14:25:24 7.6 C 3.79 g/m*3 7.6 C 0 km/h
313 11-03-2009 14:37:23 8.5 C 3.5 g/m*3 8.5 C 0 km/h
314 11-03-2009 14:49:23 8.5 C 3.42 g/m*3 8.5 C 0 km/h
315 11-03-2009 15:01:23 8.6 C 3.52 g/m*3 8.6 C 0 km/h
316 11-03-2009 15:13:23 9.3 C 3.5 g/m*3 9.3 C 0 km/h
317 11-03-2009 15:25:23 9.4 C 3.62 g/m*3 9.4 C 0 km/h
318 11-03-2009 15:37:23 9.7 C 3.69 g/m*3 9.7 C 0 km/h
319 11-03-2009 15:49:22 9.1 C 3.64 g/m*3 9.1 C 0 km/h
320 11-03-2009 16:01:23 8.5 C 3.59 g/m*3 8.5 C 0 km/h
321 11-03-2009 16:13:22 8.4 C 3.73 g/m*3 8.4 C 0 km/h
322 11-03-2009 16:25:22 8.5 C 3.84 g/m*3 8.5 C 0 km/h
323 11-03-2009 16:37:22 8.6 C 3.95 g/m*3 8.6 C 0 km/h
324 11-03-2009 16:49:22 8.3 C 3.88 g/m*3 8.3 C 0 km/h
325 11-03-2009 17:01:22 9.1 C 4.08 g/m*3 9.1 C 0 km/h
Sensor: Nr:Datum:Temp:Abs-Feuchte:Windchill:Wind:
Aussen-T/F 326 11-03-2009 17:13:21 8.5 C 3.67 g/m*3 8.5 C 0 km/h
327 11-03-2009 17:25:21 8.4 C 3.82 g/m*3 8.4 C 0 km/h
328 11-03-2009 17:37:22 8.3 C 3.71 g/m*3 8.3 C 0 km/h
329 11-03-2009 17:49:21 8.3 C 3.71 g/m*3 8.3 C 0 km/h
330 11-03-2009 18:01:21 8.1 C 3.66 g/m*3 8.1 C 0 km/h
331 11-03-2009 18:13:22 7.6 C 3.79 g/m*3 7.6 C 0 km/h
332 11-03-2009 18:25:22 7.1 C 3.9 g/m*3 7.1 C 0 km/h
333 11-03-2009 18:37:21 6.8 C 4.13 g/m*3 6.8 C 0 km/h
334 11-03-2009 18:49:21 6.5 C 4.12 g/m*3 6.5 C 0 km/h
335 11-03-2009 19:01:20 6.4 C 4.17 g/m*3 6.4 C 0 km/h
336 11-03-2009 19:13:21 6.3 C 4.22 g/m*3 6.3 C 0 km/h
337 11-03-2009 19:25:21 6.1 C 4.02 g/m*3 6.1 C 0 km/h
338 11-03-2009 19:37:20 5.8 C 4.01 g/m*3 5.8 C 0 km/h
339 11-03-2009 19:49:20 5.6 C 4.03 g/m*3 5.6 C 0 km/h
340 11-03-2009 20:01:20 5.7 C 4.06 g/m*3 5.7 C 0 km/h
341 11-03-2009 20:13:20 5.8 C 4.01 g/m*3 5.8 C 0 km/h
342 11-03-2009 20:25:20 5.5 C 4 g/m*3 5.5 C 0 km/h
343 11-03-2009 20:37:20 5.3 C 4.02 g/m*3 5.3 C 0 km/h
344 11-03-2009 20:49:20 5.1 C 4.04 g/m*3 5.1 C 0 km/h
345 11-03-2009 21:01:20 4.8 C 4.09 g/m*3 4.8 C 0 km/h
346 11-03-2009 21:13:20 4.6 C 4.1 g/m*3 4.6 C 0 km/h
347 11-03-2009 21:25:20 4.3 C 4.15 g/m*3 4.3 C 0 km/h
348 11-03-2009 21:37:19 4.2 C 4.19 g/m*3 4.2 C 0 km/h
349 11-03-2009 21:49:20 4 C 4.13 g/m*3 4 C 0 km/h
350 11-03-2009 22:02:20 4.1 C 4.16 g/m*3 4.1 C 0 km/h
Sensor: Nr:Datum:Temp:Abs-Feuchte:Windchill:Wind:
Aussen-T/F 351 11-03-2009 22:14:20 3.7 C 4.18 g/m*3 3.7 C 0 km/h
352 11-03-2009 22:26:20 3.5 C 4.18 g/m*3 3.5 C 0 km/h
353 11-03-2009 22:38:20 3.4 C 4.15 g/m*3 3.4 C 0 km/h
354 11-03-2009 22:50:21 3.1 C 4.13 g/m*3 3.1 C 0 km/h
355 11-03-2009 23:02:21 3.3 C 4.19 g/m*3 3.3 C 0 km/h
356 11-03-2009 23:14:21 3 C 4.16 g/m*3 3 C 0 km/h
357 11-03-2009 23:26:21 2.8 C 4.22 g/m*3 2.8 C 0 km/h
358 11-03-2009 23:38:21 2.8 C 4.28 g/m*3 2.8 C 0 km/h
359 11-03-2009 23:50:21 3.1 C 4.25 g/m*3 3.1 C 0 km/h
360 12-03-2009 00:02:21 3.4 C 4.28 g/m*3 3.4 C 0 km/h
361 12-03-2009 00:14:21 3.5 C 4.24 g/m*3 3.5 C 0 km/h
362 12-03-2009 00:26:21 3.5 C 4.18 g/m*3 3.5 C 0 km/h
363 12-03-2009 00:38:21 3.5 C 4.18 g/m*3 3.5 C 0 km/h
364 12-03-2009 00:50:21 3.5 C 4.18 g/m*3 3.5 C 0 km/h
365 12-03-2009 01:02:21 3.5 C 4.18 g/m*3 3.5 C 0 km/h
366 12-03-2009 01:14:21 3.4 C 4.15 g/m*3 3.4 C 0 km/h
367 12-03-2009 01:26:21 3.4 C 4.15 g/m*3 3.4 C 0 km/h
368 12-03-2009 01:38:21 3.4 C 4.21 g/m*3 3.4 C 0 km/h
369 12-03-2009 01:50:21 3.4 C 4.15 g/m*3 3.4 C 0 km/h
370 12-03-2009 02:02:21 3.5 C 4.18 g/m*3 3.5 C 0 km/h
371 12-03-2009 02:14:21 3.4 C 4.15 g/m*3 3.4 C 0 km/h
372 12-03-2009 02:26:21 3.5 C 4.18 g/m*3 3.5 C 0 km/h
373 12-03-2009 02:38:22 3.6 C 4.15 g/m*3 3.6 C 0 km/h
374 12-03-2009 02:50:22 3.6 C 4.15 g/m*3 3.6 C 0 km/h
375 12-03-2009 03:02:22 3.8 C 4.08 g/m*3 3.8 C 0 km/h
Sensor: Nr:Datum:Temp:Abs-Feuchte:Windchill:Wind:
Aussen-T/F 376 12-03-2009 03:14:22 3.8 C 4.02 g/m*3 3.8 C 0 km/h
377 12-03-2009 03:26:22 3.8 C 4.02 g/m*3 3.8 C 0 km/h
378 12-03-2009 03:38:22 3.9 C 4.04 g/m*3 3.9 C 0 km/h
379 12-03-2009 03:50:22 4.1 C 3.9 g/m*3 4.1 C 0 km/h
380 12-03-2009 04:02:22 4 C 3.94 g/m*3 4 C 0 km/h
381 12-03-2009 04:14:22 4 C 3.94 g/m*3 4 C 0 km/h
382 12-03-2009 04:26:22 4.1 C 3.97 g/m*3 4.1 C 0 km/h
383 12-03-2009 04:38:22 4.2 C 3.93 g/m*3 4.2 C 0 km/h
384 12-03-2009 04:50:22 4.2 C 3.93 g/m*3 4.2 C 0 km/h
385 12-03-2009 05:02:22 4.4 C 3.92 g/m*3 4.4 C 0 km/h
386 12-03-2009 05:14:22 4.3 C 3.89 g/m*3 4.3 C 0 km/h
387 12-03-2009 05:26:22 4.5 C 3.81 g/m*3 4.5 C 0 km/h
388 12-03-2009 05:38:22 4.6 C 3.9 g/m*3 4.6 C 0 km/h
389 12-03-2009 05:50:22 4.4 C 3.92 g/m*3 4.4 C 0 km/h
390 12-03-2009 06:02:22 4.4 C 3.98 g/m*3 4.4 C 0 km/h
391 12-03-2009 06:14:22 4.5 C 4.01 g/m*3 4.5 C 0 km/h
392 12-03-2009 06:26:23 4.7 C 4 g/m*3 4.7 C 0 km/h
393 12-03-2009 06:38:23 4.8 C 3.96 g/m*3 4.8 C 0 km/h
394 12-03-2009 06:50:23 4.8 C 3.96 g/m*3 4.8 C 0 km/h
395 12-03-2009 07:02:20 4.7 C 3.93 g/m*3 4.7 C 0 km/h
396 12-03-2009 07:14:20 4.7 C 4 g/m*3 4.7 C 0 km/h
397 12-03-2009 07:26:20 4.7 C 4 g/m*3 4.7 C 0 km/h
398 12-03-2009 07:38:20 4.8 C 4.02 g/m*3 4.8 C 0 km/h
399 12-03-2009 07:50:19 4.9 C 3.98 g/m*3 4.9 C 0 km/h
400 12-03-2009 08:02:19 5 C 4.01 g/m*3 5 C 0 km/h
Sensor: Nr:Datum:Temp:Abs-Feuchte:Windchill:Wind:
Aussen-T/F 401 12-03-2009 08:14:20 5.1 C 3.97 g/m*3 5.1 C 0 km/h
402 12-03-2009 08:26:20 5.1 C 3.97 g/m*3 5.1 C 0 km/h
403 12-03-2009 08:38:19 5.2 C 3.99 g/m*3 5.2 C 0 km/h
404 12-03-2009 08:50:19 5.1 C 4.24 g/m*3 5.1 C 0 km/h
405 12-03-2009 09:02:19 5 C 4.42 g/m*3 5 C 0 km/h
406 12-03-2009 09:14:19 4.9 C 4.66 g/m*3 4.9 C 0 km/h
407 12-03-2009 09:26:19 4.8 C 4.76 g/m*3 4.8 C 0 km/h
408 12-03-2009 09:38:18 4.7 C 4.86 g/m*3 4.7 C 0 km/h
409 12-03-2009 09:50:19 4.8 C 4.83 g/m*3 4.8 C 0 km/h
410 12-03-2009 10:02:18 4.6 C 4.83 g/m*3 4.6 C 0 km/h
411 12-03-2009 10:14:18 4.6 C 4.9 g/m*3 4.6 C 0 km/h
412 12-03-2009 10:26:18 4.5 C 4.93 g/m*3 4.5 C 0 km/h
413 12-03-2009 10:38:18 4.7 C 4.93 g/m*3 4.7 C 0 km/h
414 12-03-2009 10:50:18 5.1 C 4.79 g/m*3 5.1 C 0 km/h
415 12-03-2009 11:02:18 5.4 C 4.74 g/m*3 5.4 C 0 km/h
416 12-03-2009 11:14:17 5.5 C 4.64 g/m*3 5.5 C 0 km/h
417 12-03-2009 11:26:17 5.5 C 4.64 g/m*3 5.5 C 0 km/h
418 12-03-2009 11:38:18 5.5 C 4.78 g/m*3 5.5 C 0 km/h
419 12-03-2009 11:50:17 5.7 C 4.7 g/m*3 5.7 C 0 km/h
420 12-03-2009 12:02:17 6.1 C 4.68 g/m*3 6.1 C 0 km/h
421 12-03-2009 12:14:18 6.5 C 4.72 g/m*3 6.5 C 0 km/h
422 12-03-2009 12:26:18 6.5 C 4.72 g/m*3 6.5 C 0 km/h
423 12-03-2009 12:38:17 6.5 C 4.8 g/m*3 6.5 C 0 km/h
424 12-03-2009 12:50:17 6.6 C 4.83 g/m*3 6.6 C 0 km/h
425 12-03-2009 13:02:16 6.7 C 4.86 g/m*3 6.7 C 0 km/h
Sensor: Nr:Datum:Temp:Abs-Feuchte:Windchill:Wind:
Aussen-T/F 426 12-03-2009 13:14:17 6.8 C 4.89 g/m*3 6.8 C 0 km/h
427 12-03-2009 13:26:17 6.8 C 4.89 g/m*3 6.8 C 0 km/h
428 12-03-2009 13:38:16 6.8 C 4.89 g/m*3 6.8 C 0 km/h
429 12-03-2009 13:50:17 6.9 C 4.93 g/m*3 6.9 C 0 km/h
430 12-03-2009 14:02:16 6.9 C 5 g/m*3 6.9 C 0 km/h
431 12-03-2009 14:14:16 6.8 C 5.05 g/m*3 6.8 C 0 km/h
432 12-03-2009 14:26:16 6.9 C 5.16 g/m*3 6.9 C 0 km/h
433 12-03-2009 14:38:16 6.9 C 5.16 g/m*3 6.9 C 0 km/h
434 12-03-2009 14:50:16 7 C 5.35 g/m*3 7 C 0 km/h
435 12-03-2009 15:02:16 6.8 C 5.51 g/m*3 6.8 C 0 km/h
436 12-03-2009 15:14:15 6.5 C 5.55 g/m*3 6.5 C 0 km/h
437 12-03-2009 15:26:15 6.4 C 5.74 g/m*3 6.4 C 0 km/h
438 12-03-2009 15:38:16 6.8 C 6.04 g/m*3 6.8 C 0 km/h
439 12-03-2009 15:50:15 6.9 C 6 g/m*3 6.9 C 0 km/h
440 12-03-2009 16:02:15 7 C 5.81 g/m*3 7 C 0 km/h
441 12-03-2009 16:14:14 7.1 C 5.85 g/m*3 7.1 C 0 km/h
442 12-03-2009 16:26:14 7.1 C 5.85 g/m*3 7.1 C 0 km/h
443 12-03-2009 16:38:15 7.2 C 5.89 g/m*3 7.2 C 0 km/h
444 12-03-2009 16:50:14 7.1 C 5.85 g/m*3 7.1 C 0 km/h
445 12-03-2009 17:02:14 7.1 C 5.85 g/m*3 7.1 C 0 km/h
446 12-03-2009 17:14:15 6.9 C 6 g/m*3 6.9 C 0 km/h
447 12-03-2009 17:26:15 6.9 C 6.16 g/m*3 6.9 C 0 km/h
448 12-03-2009 17:38:14 6.9 C 6.16 g/m*3 6.9 C 0 km/h
449 12-03-2009 17:50:14 6.9 C 6.16 g/m*3 6.9 C 0 km/h
450 12-03-2009 18:02:14 6.8 C 6.19 g/m*3 6.8 C 0 km/h
Sensor: Nr:Datum:Temp:Abs-Feuchte:Windchill:Wind:
Aussen-T/F 451 12-03-2009 18:14:14 6.7 C 6.31 g/m*3 6.7 C 0 km/h
452 12-03-2009 18:26:14 6.7 C 6.38 g/m*3 6.7 C 0 km/h
453 12-03-2009 18:38:14 6.7 C 6.53 g/m*3 6.7 C 0 km/h
454 12-03-2009 18:50:13 6.7 C 6.61 g/m*3 6.7 C 0 km/h
455 12-03-2009 19:02:13 6.7 C 6.69 g/m*3 6.7 C 0 km/h
456 12-03-2009 19:14:13 6.7 C 6.76 g/m*3 6.7 C 0 km/h
457 12-03-2009 19:26:13 6.9 C 6.93 g/m*3 6.9 C 0 km/h
458 12-03-2009 19:38:13 6.9 C 7.01 g/m*3 6.9 C 0 km/h
459 12-03-2009 19:50:13 7.1 C 7.02 g/m*3 7.1 C 0 km/h
460 12-03-2009 20:02:13 7.2 C 7.14 g/m*3 7.2 C 0 km/h
461 12-03-2009 20:14:13 7.1 C 7.1 g/m*3 7.1 C 0 km/h
462 12-03-2009 20:26:13 7.2 C 7.14 g/m*3 7.2 C 0 km/h
463 12-03-2009 20:38:12 7.1 C 7.1 g/m*3 7.1 C 0 km/h
464 12-03-2009 20:50:13 7.2 C 7.14 g/m*3 7.2 C 0 km/h
465 12-03-2009 21:02:13 7.1 C 7.1 g/m*3 7.1 C 0 km/h
466 12-03-2009 21:14:12 7.1 C 7.1 g/m*3 7.1 C 0 km/h
467 12-03-2009 21:26:12 7.1 C 7.1 g/m*3 7.1 C 0 km/h
468 12-03-2009 21:38:12 7.2 C 7.14 g/m*3 7.2 C 0 km/h
469 12-03-2009 21:50:12 7.2 C 7.14 g/m*3 7.2 C 0 km/h
470 12-03-2009 22:03:12 7.2 C 7.06 g/m*3 7.2 C 0 km/h
471 12-03-2009 22:15:12 7.2 C 7.06 g/m*3 7.2 C 0 km/h
472 12-03-2009 22:27:12 7.3 C 7.11 g/m*3 7.3 C 0 km/h
473 12-03-2009 22:39:12 7.4 C 7.08 g/m*3 7.4 C 0 km/h
474 12-03-2009 22:51:12 7.4 C 7 g/m*3 7.4 C 0 km/h
475 12-03-2009 23:03:12 7.5 C 7.04 g/m*3 7.5 C 0 km/h
Sensor: Nr:Datum:Temp:Abs-Feuchte:Windchill:Wind:
Aussen-T/F 476 12-03-2009 23:15:12 7.6 C 7.01 g/m*3 7.6 C 0 km/h
477 12-03-2009 23:27:12 7.7 C 6.97 g/m*3 7.7 C 0 km/h
478 12-03-2009 23:39:12 7.7 C 6.97 g/m*3 7.7 C 0 km/h
479 12-03-2009 23:51:12 7.8 C 7.02 g/m*3 7.8 C 0 km/h
480 13-03-2009 00:03:12 7.8 C 6.94 g/m*3 7.8 C 0 km/h
481 13-03-2009 00:15:12 7.8 C 7.02 g/m*3 7.8 C 0 km/h
482 13-03-2009 00:27:12 7.8 C 7.02 g/m*3 7.8 C 0 km/h
483 13-03-2009 00:39:12 7.8 C 7.02 g/m*3 7.8 C 0 km/h
484 13-03-2009 00:51:12 7.7 C 7.05 g/m*3 7.7 C 0 km/h
485 13-03-2009 01:03:12 7.7 C 7.05 g/m*3 7.7 C 0 km/h
486 13-03-2009 01:15:12 7.7 C 7.14 g/m*3 7.7 C 0 km/h
487 13-03-2009 01:27:12 7.6 C 7.09 g/m*3 7.6 C 0 km/h
488 13-03-2009 01:39:12 7.6 C 7.09 g/m*3 7.6 C 0 km/h
489 13-03-2009 01:51:12 7.5 C 7.12 g/m*3 7.5 C 0 km/h
490 13-03-2009 02:03:13 7.5 C 7.12 g/m*3 7.5 C 0 km/h
491 13-03-2009 02:15:13 7.5 C 7.2 g/m*3 7.5 C 0 km/h
492 13-03-2009 02:27:13 7.5 C 7.2 g/m*3 7.5 C 0 km/h
493 13-03-2009 02:39:13 7.4 C 7.16 g/m*3 7.4 C 0 km/h
494 13-03-2009 02:51:13 7.4 C 7.24 g/m*3 7.4 C 0 km/h
495 13-03-2009 03:03:13 7.3 C 7.19 g/m*3 7.3 C 0 km/h
496 13-03-2009 03:15:13 7.5 C 7.28 g/m*3 7.5 C 0 km/h
497 13-03-2009 03:27:13 7.5 C 7.12 g/m*3 7.5 C 0 km/h
498 13-03-2009 03:39:13 7.4 C 7 g/m*3 7.4 C 0 km/h
499 13-03-2009 03:51:13 7.3 C 6.87 g/m*3 7.3 C 0 km/h
500 13-03-2009 04:03:13 7.3 C 6.79 g/m*3 7.3 C 0 km/h
Sensor: Nr:Datum:Temp:Abs-Feuchte:Windchill:Wind:
Aussen-T/F 501 13-03-2009 04:15:13 7.3 C 6.87 g/m*3 7.3 C 0 km/h
502 13-03-2009 04:27:13 7.3 C 6.87 g/m*3 7.3 C 0 km/h
503 13-03-2009 04:39:13 7.1 C 6.79 g/m*3 7.1 C 0 km/h
504 13-03-2009 04:51:13 7.2 C 6.75 g/m*3 7.2 C 0 km/h
505 13-03-2009 05:03:13 7.3 C 6.72 g/m*3 7.3 C 0 km/h
506 13-03-2009 05:15:13 6.9 C 6.47 g/m*3 6.9 C 0 km/h
507 13-03-2009 05:27:13 6.6 C 6.42 g/m*3 6.6 C 0 km/h
508 13-03-2009 05:39:13 6.3 C 6.29 g/m*3 6.3 C 0 km/h
509 13-03-2009 05:51:14 6.1 C 6.28 g/m*3 6.1 C 0 km/h
510 13-03-2009 06:03:14 5.9 C 6.27 g/m*3 5.9 C 0 km/h
511 13-03-2009 06:15:14 5.7 C 6.19 g/m*3 5.7 C 0 km/h
512 13-03-2009 06:27:14 5.6 C 6.22 g/m*3 5.6 C 0 km/h
513 13-03-2009 06:39:14 5.5 C 6.18 g/m*3 5.5 C 0 km/h
514 13-03-2009 06:51:14 5.4 C 6.14 g/m*3 5.4 C 0 km/h
515 13-03-2009 07:03:12 5.4 C 6.14 g/m*3 5.4 C 0 km/h
516 13-03-2009 07:15:12 5.4 C 6.21 g/m*3 5.4 C 0 km/h
517 13-03-2009 07:27:12 5.4 C 6.21 g/m*3 5.4 C 0 km/h
518 13-03-2009 07:39:12 5.4 C 6.21 g/m*3 5.4 C 0 km/h
519 13-03-2009 07:51:12 5.5 C 6.25 g/m*3 5.5 C 0 km/h
520 13-03-2009 08:03:11 5.7 C 6.33 g/m*3 5.7 C 0 km/h
521 13-03-2009 08:15:12 5.9 C 6.49 g/m*3 5.9 C 0 km/h
522 13-03-2009 08:27:12 5.9 C 6.49 g/m*3 5.9 C 0 km/h
523 13-03-2009 08:39:11 5.9 C 6.49 g/m*3 5.9 C 0 km/h
524 13-03-2009 08:51:11 5.9 C 6.42 g/m*3 5.9 C 0 km/h
525 13-03-2009 09:03:11 5.9 C 6.42 g/m*3 5.9 C 0 km/h
Sensor: Nr:Datum:Temp:Abs-Feuchte:Windchill:Wind:
Aussen-T/F 526 13-03-2009 09:15:11 6.4 C 6.63 g/m*3 6.4 C 0 km/h
527 13-03-2009 09:27:11 7.3 C 7.11 g/m*3 7.3 C 0 km/h
528 13-03-2009 09:39:11 7.4 C 6.84 g/m*3 7.4 C 0 km/h
529 13-03-2009 09:51:10 8 C 6.78 g/m*3 8 C 0 km/h
530 13-03-2009 10:03:11 8.6 C 6.7 g/m*3 8.6 C 0 km/h
531 13-03-2009 10:15:10 8.8 C 6.35 g/m*3 8.8 C 0 km/h
532 13-03-2009 10:27:10 9.3 C 5.84 g/m*3 9.3 C 0 km/h
533 13-03-2009 10:39:10 9.5 C 5.73 g/m*3 9.5 C 0 km/h
534 13-03-2009 10:51:10 9.7 C 5.53 g/m*3 9.7 C 0 km/h
535 13-03-2009 11:03:10 10 C 5.54 g/m*3 10 C 0 km/h
536 13-03-2009 11:15:10 10.3 C 5.36 g/m*3 10.3 C 0 km/h
537 13-03-2009 11:27:10 10.2 C 5.23 g/m*3 10.2 C 0 km/h
538 13-03-2009 11:39:09 10.7 C 5.5 g/m*3 10.7 C 0 km/h
539 13-03-2009 11:51:10 11.7 C 5.12 g/m*3 11.7 C 0 km/h
540 13-03-2009 12:03:09 11.6 C 4.89 g/m*3 11.6 C 0 km/h
541 13-03-2009 12:15:09 11.9 C 4.77 g/m*3 11.9 C 0 km/h
542 13-03-2009 12:27:10 11.3 C 4.49 g/m*3 11.3 C 0 km/h
543 13-03-2009 12:39:09 10.9 C 4.28 g/m*3 10.9 C 0 km/h
544 13-03-2009 12:51:09 11.7 C 4.81 g/m*3 11.7 C 0 km/h
545 13-03-2009 13:03:08 11.9 C 4.24 g/m*3 11.9 C 0 km/h
546 13-03-2009 13:15:09 11.8 C 4.32 g/m*3 11.8 C 0 km/h
547 13-03-2009 13:27:09 12.1 C 3.75 g/m*3 12.1 C 0 km/h
548 13-03-2009 13:39:09 12.5 C 3.85 g/m*3 12.5 C 0 km/h
549 13-03-2009 13:51:08 14.1 C 3.88 g/m*3 14.1 C 0 km/h
550 13-03-2009 14:03:09 13.9 C 3.72 g/m*3 13.9 C 0 km/h
Sensor: Nr:Datum:Temp:Abs-Feuchte:Windchill:Wind:
Aussen-T/F 551 13-03-2009 14:15:08 13.1 C 3.65 g/m*3 13.1 C 0 km/h
552 13-03-2009 14:27:08 13.2 C 3.44 g/m*3 13.2 C 0 km/h
553 13-03-2009 14:39:08 13.4 C 3.49 g/m*3 13.4 C 0 km/h
554 13-03-2009 14:51:07 13.6 C 3.65 g/m*3 13.6 C 0 km/h
555 13-03-2009 15:03:08 14 C 3.5 g/m*3 14 C 0 km/h
556 13-03-2009 15:15:08 13.7 C 3.32 g/m*3 13.7 C 0 km/h
557 13-03-2009 15:27:08 13.9 C 3.48 g/m*3 13.9 C 0 km/h
558 13-03-2009 15:39:07 14.1 C 3.52 g/m*3 14.1 C 0 km/h
559 13-03-2009 15:51:08 13.6 C 3.3 g/m*3 13.6 C 0 km/h
560 13-03-2009 16:03:07 13.8 C 3.46 g/m*3 13.8 C 0 km/h
561 13-03-2009 16:15:07 13.5 C 3.28 g/m*3 13.5 C 0 km/h
562 13-03-2009 16:27:07 13.3 C 3.35 g/m*3 13.3 C 0 km/h
563 13-03-2009 16:39:07 13.1 C 3.42 g/m*3 13.1 C 0 km/h
564 13-03-2009 16:51:07 13.2 C 3.56 g/m*3 13.2 C 0 km/h
565 13-03-2009 17:03:06 13 C 3.4 g/m*3 13 C 0 km/h
566 13-03-2009 17:15:07 12.9 C 3.38 g/m*3 12.9 C 0 km/h
567 13-03-2009 17:27:07 12.8 C 3.81 g/m*3 12.8 C 0 km/h
568 13-03-2009 17:39:06 12.6 C 3.98 g/m*3 12.6 C 0 km/h
569 13-03-2009 17:51:06 12.4 C 4.48 g/m*3 12.4 C 0 km/h
570 13-03-2009 18:03:06 11.7 C 4.39 g/m*3 11.7 C 0 km/h
571 13-03-2009 18:15:06 11.1 C 4.33 g/m*3 11.1 C 0 km/h
572 13-03-2009 18:27:06 10.4 C 4.24 g/m*3 10.4 C 0 km/h
573 13-03-2009 18:39:05 9.8 C 4.27 g/m*3 9.8 C 0 km/h
574 13-03-2009 18:51:06 9.2 C 4.29 g/m*3 9.2 C 0 km/h
575 13-03-2009 19:03:06 9 C 4.23 g/m*3 9 C 0 km/h
Sensor: Nr:Datum:Temp:Abs-Feuchte:Windchill:Wind:
Aussen-T/F 576 13-03-2009 19:15:05 8.6 C 4.47 g/m*3 8.6 C 0 km/h
577 13-03-2009 19:27:05 8.3 C 4.55 g/m*3 8.3 C 0 km/h
578 13-03-2009 19:39:05 8.1 C 4.49 g/m*3 8.1 C 0 km/h
579 13-03-2009 19:51:05 8 C 4.46 g/m*3 8 C 0 km/h
580 13-03-2009 20:03:05 7.8 C 4.65 g/m*3 7.8 C 0 km/h
581 13-03-2009 20:15:04 7.6 C 4.75 g/m*3 7.6 C 0 km/h
582 13-03-2009 20:27:04 7.4 C 4.77 g/m*3 7.4 C 0 km/h
583 13-03-2009 20:39:05 7.2 C 4.79 g/m*3 7.2 C 0 km/h
584 13-03-2009 20:51:04 6.9 C 4.85 g/m*3 6.9 C 0 km/h
585 13-03-2009 21:03:04 6.6 C 4.83 g/m*3 6.6 C 0 km/h
586 13-03-2009 21:15:04 6.5 C 4.8 g/m*3 6.5 C 0 km/h
587 13-03-2009 21:27:04 6.3 C 4.74 g/m*3 6.3 C 0 km/h
588 13-03-2009 21:39:04 6.1 C 4.75 g/m*3 6.1 C 0 km/h
589 13-03-2009 21:51:04 5.9 C 4.83 g/m*3 5.9 C 0 km/h
590 13-03-2009 22:03:04 5.8 C 4.8 g/m*3 5.8 C 0 km/h
591 13-03-2009 22:15:03 5.8 C 4.8 g/m*3 5.8 C 0 km/h
592 13-03-2009 22:27:03 5.6 C 4.74 g/m*3 5.6 C 0 km/h
593 13-03-2009 22:39:04 5.6 C 4.81 g/m*3 5.6 C 0 km/h
594 13-03-2009 22:52:05 5.4 C 4.81 g/m*3 5.4 C 0 km/h
595 13-03-2009 23:04:05 5.3 C 4.85 g/m*3 5.3 C 0 km/h
596 13-03-2009 23:16:05 5.2 C 4.82 g/m*3 5.2 C 0 km/h
597 13-03-2009 23:28:05 5 C 4.76 g/m*3 5 C 0 km/h
598 13-03-2009 23:40:05 4.9 C 4.86 g/m*3 4.9 C 0 km/h
599 13-03-2009 23:52:05 4.8 C 4.83 g/m*3 4.8 C 0 km/h
600 14-03-2009 00:04:05 4.6 C 4.83 g/m*3 4.6 C 0 km/h
Sensor: Nr:Datum:Temp:Abs-Feuchte:Windchill:Wind:
Aussen-T/F 601 14-03-2009 00:16:05 4.5 C 4.8 g/m*3 4.5 C 0 km/h
602 14-03-2009 00:28:05 4.5 C 4.86 g/m*3 4.5 C 0 km/h
603 14-03-2009 00:40:06 4.4 C 4.83 g/m*3 4.4 C 0 km/h
604 14-03-2009 00:52:06 4.2 C 4.9 g/m*3 4.2 C 0 km/h
605 14-03-2009 01:04:06 4.1 C 4.86 g/m*3 4.1 C 0 km/h
606 14-03-2009 01:16:06 4 C 4.83 g/m*3 4 C 0 km/h
607 14-03-2009 01:28:06 4 C 4.83 g/m*3 4 C 0 km/h
608 14-03-2009 01:40:06 3.7 C 4.86 g/m*3 3.7 C 0 km/h
609 14-03-2009 01:52:06 3.9 C 4.93 g/m*3 3.9 C 0 km/h
610 14-03-2009 02:04:06 3.8 C 4.89 g/m*3 3.8 C 0 km/h
611 14-03-2009 02:16:06 3.7 C 4.86 g/m*3 3.7 C 0 km/h
612 14-03-2009 02:28:06 3.5 C 4.86 g/m*3 3.5 C 0 km/h
613 14-03-2009 02:40:06 3.4 C 4.83 g/m*3 3.4 C 0 km/h
614 14-03-2009 02:52:06 3.6 C 4.95 g/m*3 3.6 C 0 km/h
615 14-03-2009 03:04:06 3.6 C 4.95 g/m*3 3.6 C 0 km/h
616 14-03-2009 03:16:06 3.2 C 4.82 g/m*3 3.2 C 0 km/h
617 14-03-2009 03:28:06 3.3 C 4.85 g/m*3 3.3 C 0 km/h
618 14-03-2009 03:40:06 3.4 C 4.95 g/m*3 3.4 C 0 km/h
619 14-03-2009 03:52:06 3.4 C 4.95 g/m*3 3.4 C 0 km/h
620 14-03-2009 04:04:06 3.4 C 4.95 g/m*3 3.4 C 0 km/h
621 14-03-2009 04:16:06 3.3 C 4.91 g/m*3 3.3 C 0 km/h
622 14-03-2009 04:28:06 3 C 4.76 g/m*3 3 C 0 km/h
623 14-03-2009 04:40:07 3 C 4.82 g/m*3 3 C 0 km/h
624 14-03-2009 04:52:07 2.7 C 4.78 g/m*3 2.7 C 0 km/h
625 14-03-2009 05:04:07 2.6 C 4.75 g/m*3 2.6 C 0 km/h
Sensor: Nr:Datum:Temp:Abs-Feuchte:Windchill:Wind:
Aussen-T/F 626 14-03-2009 05:16:07 2.6 C 4.8 g/m*3 2.6 C 0 km/h
627 14-03-2009 05:28:07 2.6 C 4.8 g/m*3 2.6 C 0 km/h
628 14-03-2009 05:40:07 2.8 C 4.93 g/m*3 2.8 C 0 km/h
629 14-03-2009 05:52:07 3 C 4.99 g/m*3 3 C 0 km/h
630 14-03-2009 06:04:07 3.2 C 5.06 g/m*3 3.2 C 0 km/h
631 14-03-2009 06:16:07 3.3 C 5.1 g/m*3 3.3 C 0 km/h
632 14-03-2009 06:28:07 3.3 C 5.1 g/m*3 3.3 C 0 km/h
633 14-03-2009 06:40:07 3.5 C 5.16 g/m*3 3.5 C 0 km/h
634 14-03-2009 06:52:07 3.7 C 5.23 g/m*3 3.7 C 0 km/h
635 14-03-2009 07:04:07 3.8 C 5.21 g/m*3 3.8 C 0 km/h
636 14-03-2009 07:16:07 3.8 C 5.14 g/m*3 3.8 C 0 km/h
637 14-03-2009 07:28:07 3.8 C 5.14 g/m*3 3.8 C 0 km/h
638 14-03-2009 07:40:07 4.1 C 5.18 g/m*3 4.1 C 0 km/h
639 14-03-2009 07:52:07 4.2 C 5.15 g/m*3 4.2 C 0 km/h
640 14-03-2009 08:04:07 4.4 C 5.16 g/m*3 4.4 C 0 km/h
641 14-03-2009 08:16:04 4.6 C 5.23 g/m*3 4.6 C 0 km/h
642 14-03-2009 08:28:04 4.8 C 5.3 g/m*3 4.8 C 0 km/h
643 14-03-2009 08:40:05 5.4 C 5.37 g/m*3 5.4 C 0 km/h
644 14-03-2009 08:52:05 5.6 C 5.3 g/m*3 5.6 C 0 km/h
645 14-03-2009 09:04:04 5.9 C 5.34 g/m*3 5.9 C 0 km/h
646 14-03-2009 09:16:04 6.2 C 5.29 g/m*3 6.2 C 0 km/h
647 14-03-2009 09:28:04 6.3 C 5.18 g/m*3 6.3 C 0 km/h
648 14-03-2009 09:40:04 6.8 C 5.35 g/m*3 6.8 C 0 km/h
649 14-03-2009 09:52:04 7.1 C 5.15 g/m*3 7.1 C 0 km/h
650 14-03-2009 10:04:04 7.4 C 5.17 g/m*3 7.4 C 0 km/h
Sensor: Nr:Datum:Temp:Abs-Feuchte:Windchill:Wind:
Aussen-T/F 651 14-03-2009 10:16:03 7.9 C 5.26 g/m*3 7.9 C 0 km/h
652 14-03-2009 10:28:03 8.5 C 5.21 g/m*3 8.5 C 0 km/h
653 14-03-2009 10:40:04 9.4 C 5.25 g/m*3 9.4 C 0 km/h
654 14-03-2009 10:52:03 9.8 C 5.29 g/m*3 9.8 C 0 km/h
655 14-03-2009 11:04:03 10.4 C 5.3 g/m*3 10.4 C 0 km/h
656 14-03-2009 11:16:03 10.9 C 5.27 g/m*3 10.9 C 0 km/h
657 14-03-2009 11:28:03 11.3 C 5.3 g/m*3 11.3 C 0 km/h
658 14-03-2009 11:40:03 11.6 C 5.2 g/m*3 11.6 C 0 km/h
659 14-03-2009 11:52:02 12.1 C 5.15 g/m*3 12.1 C 0 km/h
660 14-03-2009 12:04:03 12.5 C 4.95 g/m*3 12.5 C 0 km/h
661 14-03-2009 12:16:03 12.4 C 4.7 g/m*3 12.4 C 0 km/h
662 14-03-2009 12:28:03 13 C 4.88 g/m*3 13 C 0 km/h
663 14-03-2009 12:40:02 13.4 C 4.77 g/m*3 13.4 C 0 km/h
664 14-03-2009 12:52:03 13.7 C 4.74 g/m*3 13.7 C 0 km/h
665 14-03-2009 13:04:02 13.6 C 4.71 g/m*3 13.6 C 0 km/h
666 14-03-2009 13:16:02 13.8 C 4.77 g/m*3 13.8 C 0 km/h
667 14-03-2009 13:28:02 14.1 C 4.73 g/m*3 14.1 C 0 km/h
668 14-03-2009 13:40:02 14.5 C 4.73 g/m*3 14.5 C 0 km/h
669 14-03-2009 13:52:02 14.7 C 4.66 g/m*3 14.7 C 0 km/h
670 14-03-2009 14:04:01 15.4 C 4.6 g/m*3 15.4 C 0 km/h
671 14-03-2009 14:16:01 15.8 C 4.58 g/m*3 15.8 C 0 km/h
672 14-03-2009 14:28:01 15.9 C 4.47 g/m*3 15.9 C 0 km/h
673 14-03-2009 14:40:01 15.9 C 4.47 g/m*3 15.9 C 0 km/h
674 14-03-2009 14:52:01 16.9 C 4.31 g/m*3 16.9 C 0 km/h
675 14-03-2009 15:04:01 17.5 C 4.47 g/m*3 17.5 C 0 km/h
Sensor: Nr:Datum:Temp:Abs-Feuchte:Windchill:Wind:
Aussen-T/F 676 14-03-2009 15:16:01 17 C 4.49 g/m*3 17 C 0 km/h
677 14-03-2009 15:28:01 16.1 C 4.8 g/m*3 16.1 C 0 km/h
678 14-03-2009 15:40:01 15.7 C 4.95 g/m*3 15.7 C 0 km/h
679 14-03-2009 15:52:00 16.8 C 5 g/m*3 16.8 C 0 km/h
680 14-03-2009 16:04:01 17.2 C 4.83 g/m*3 17.2 C 0 km/h
681 14-03-2009 16:16:00 16.2 C 4.83 g/m*3 16.2 C 0 km/h
682 14-03-2009 16:28:00 15.6 C 5.05 g/m*3 15.6 C 0 km/h
683 14-03-2009 16:40:00 15.7 C 5.22 g/m*3 15.7 C 0 km/h
684 14-03-2009 16:52:00 15.4 C 5.12 g/m*3 15.4 C 0 km/h
685 14-03-2009 17:04:00 15.4 C 5.12 g/m*3 15.4 C 0 km/h
686 14-03-2009 17:16:00 15.4 C 5.26 g/m*3 15.4 C 0 km/h
687 14-03-2009 17:28:00 15.2 C 5.32 g/m*3 15.2 C 0 km/h
688 14-03-2009 17:39:59 15 C 5.26 g/m*3 15 C 0 km/h
689 14-03-2009 17:52:00 14.7 C 5.41 g/m*3 14.7 C 0 km/h
690 14-03-2009 18:04:59 14.5 C 5.35 g/m*3 14.5 C 0 km/h
691 14-03-2009 18:16:59 14.4 C 5.44 g/m*3 14.4 C 0 km/h
692 14-03-2009 18:28:59 14.2 C 5.49 g/m*3 14.2 C 0 km/h
693 14-03-2009 18:40:59 14.1 C 5.58 g/m*3 14.1 C 0 km/h
694 14-03-2009 18:52:59 13.8 C 6.08 g/m*3 13.8 C 0 km/h
695 14-03-2009 19:04:58 12.3 C 7.28 g/m*3 12.3 C 0 km/h
696 14-03-2009 19:16:59 11.5 C 7.95 g/m*3 11.5 C 0 km/h
697 14-03-2009 19:28:59 11.1 C 8.16 g/m*3 11.1 C 0 km/h
698 14-03-2009 19:40:59 11.4 C 8.52 g/m*3 11.4 C 0 km/h
699 14-03-2009 19:52:58 10.7 C 8.15 g/m*3 10.7 C 0 km/h
700 14-03-2009 20:04:59 10.4 C 8 g/m*3 10.4 C 0 km/h
Sensor: Nr:Datum:Temp:Abs-Feuchte:Windchill:Wind:
Aussen-T/F 701 14-03-2009 20:16:58 10.4 C 8.1 g/m*3 10.4 C 0 km/h
702 14-03-2009 20:28:58 10.3 C 8.04 g/m*3 10.3 C 0 km/h
703 14-03-2009 20:40:59 10.2 C 8.09 g/m*3 10.2 C 0 km/h
704 14-03-2009 20:52:57 10 C 7.8 g/m*3 10 C 0 km/h
705 14-03-2009 21:04:57 9.6 C 6.78 g/m*3 9.6 C 0 km/h
706 14-03-2009 21:16:58 9.6 C 6.78 g/m*3 9.6 C 0 km/h
707 14-03-2009 21:28:57 9.4 C 6.87 g/m*3 9.4 C 0 km/h
708 14-03-2009 21:40:57 9.3 C 6.92 g/m*3 9.3 C 0 km/h
709 14-03-2009 21:52:57 9.1 C 6.92 g/m*3 9.1 C 0 km/h
710 14-03-2009 22:04:57 9 C 6.96 g/m*3 9 C 0 km/h
711 14-03-2009 22:17:58 9 C 6.88 g/m*3 9 C 0 km/h
712 14-03-2009 22:29:58 9.1 C 6.74 g/m*3 9.1 C 0 km/h
713 14-03-2009 22:41:58 9.2 C 6.7 g/m*3 9.2 C 0 km/h
714 14-03-2009 22:53:58 9.2 C 6.61 g/m*3 9.2 C 0 km/h
715 14-03-2009 23:05:58 9.2 C 6.61 g/m*3 9.2 C 0 km/h
716 14-03-2009 23:17:58 9.2 C 6.52 g/m*3 9.2 C 0 km/h
717 14-03-2009 23:29:58 9.2 C 5.98 g/m*3 9.2 C 0 km/h
718 14-03-2009 23:41:58 9.1 C 5.86 g/m*3 9.1 C 0 km/h
719 14-03-2009 23:53:58 9.1 C 5.68 g/m*3 9.1 C 0 km/h
720 15-03-2009 00:05:58 9.1 C 5.59 g/m*3 9.1 C 0 km/h
721 15-03-2009 00:17:58 9.1 C 5.5 g/m*3 9.1 C 0 km/h
722 15-03-2009 00:29:58 9 C 5.47 g/m*3 9 C 0 km/h
723 15-03-2009 00:41:58 9.1 C 5.41 g/m*3 9.1 C 0 km/h
724 15-03-2009 00:53:58 9 C 5.38 g/m*3 9 C 0 km/h
725 15-03-2009 01:05:58 9 C 5.38 g/m*3 9 C 0 km/h
Sensor: Nr:Datum:Temp:Abs-Feuchte:Windchill:Wind:
Aussen-T/F 726 15-03-2009 01:17:58 9 C 5.29 g/m*3 9 C 0 km/h
727 15-03-2009 01:29:58 8.8 C 5.48 g/m*3 8.8 C 0 km/h
728 15-03-2009 01:41:58 8.8 C 5.4 g/m*3 8.8 C 0 km/h
729 15-03-2009 01:53:59 8.9 C 5.43 g/m*3 8.9 C 0 km/h
730 15-03-2009 02:05:59 8.8 C 5.4 g/m*3 8.8 C 0 km/h
731 15-03-2009 02:16:59 8.6 C 5.59 g/m*3 8.6 C 0 km/h
732 15-03-2009 02:28:59 8.9 C 5.61 g/m*3 8.9 C 0 km/h
733 15-03-2009 02:40:59 8.8 C 5.48 g/m*3 8.8 C 0 km/h
734 15-03-2009 02:52:59 8.8 C 5.57 g/m*3 8.8 C 0 km/h
735 15-03-2009 03:04:59 8.6 C 5.59 g/m*3 8.6 C 0 km/h
736 15-03-2009 03:16:59 8.7 C 5.53 g/m*3 8.7 C 0 km/h
737 15-03-2009 03:28:59 8.6 C 5.41 g/m*3 8.6 C 0 km/h
738 15-03-2009 03:40:59 8.6 C 5.33 g/m*3 8.6 C 0 km/h
739 15-03-2009 03:52:59 8.6 C 5.24 g/m*3 8.6 C 0 km/h
740 15-03-2009 04:04:59 8.6 C 5.24 g/m*3 8.6 C 0 km/h
741 15-03-2009 04:16:59 8.6 C 5.16 g/m*3 8.6 C 0 km/h
742 15-03-2009 04:28:59 8.6 C 5.24 g/m*3 8.6 C 0 km/h
743 15-03-2009 04:40:59 8.6 C 5.24 g/m*3 8.6 C 0 km/h
744 15-03-2009 04:52:59 8.6 C 5.24 g/m*3 8.6 C 0 km/h
745 15-03-2009 05:04:59 8.6 C 5.24 g/m*3 8.6 C 0 km/h
746 15-03-2009 05:16:59 8.5 C 5.21 g/m*3 8.5 C 0 km/h
747 15-03-2009 05:28:59 8.5 C 5.21 g/m*3 8.5 C 0 km/h
748 15-03-2009 05:40:59 8.5 C 5.21 g/m*3 8.5 C 0 km/h
749 15-03-2009 05:53:00 8.5 C 5.12 g/m*3 8.5 C 0 km/h
750 15-03-2009 06:05:00 8.5 C 5.04 g/m*3 8.5 C 0 km/h
Sensor: Nr:Datum:Temp:Abs-Feuchte:Windchill:Wind:
Aussen-T/F 751 15-03-2009 06:17:00 8.5 C 4.95 g/m*3 8.5 C 0 km/h
752 15-03-2009 06:29:00 8.5 C 4.95 g/m*3 8.5 C 0 km/h
753 15-03-2009 06:41:00 8.4 C 4.92 g/m*3 8.4 C 0 km/h
754 15-03-2009 06:53:00 8.4 C 4.92 g/m*3 8.4 C 0 km/h
755 15-03-2009 07:05:00 8.4 C 4.84 g/m*3 8.4 C 0 km/h
756 15-03-2009 07:17:00 8.4 C 4.75 g/m*3 8.4 C 0 km/h
757 15-03-2009 07:29:00 8.4 C 4.75 g/m*3 8.4 C 0 km/h
758 15-03-2009 07:41:00 8.5 C 4.78 g/m*3 8.5 C 0 km/h
759 15-03-2009 07:53:00 8.5 C 4.78 g/m*3 8.5 C 0 km/h
760 15-03-2009 08:05:00 8.5 C 4.7 g/m*3 8.5 C 0 km/h
761 15-03-2009 08:17:00 8.5 C 4.7 g/m*3 8.5 C 0 km/h
762 15-03-2009 08:29:00 8.9 C 4.82 g/m*3 8.9 C 0 km/h
763 15-03-2009 08:41:00 8.7 C 4.76 g/m*3 8.7 C 0 km/h
764 15-03-2009 08:53:00 8.8 C 4.79 g/m*3 8.8 C 0 km/h
765 15-03-2009 09:05:58 8.8 C 4.79 g/m*3 8.8 C 0 km/h
766 15-03-2009 09:17:58 8.8 C 4.79 g/m*3 8.8 C 0 km/h
767 15-03-2009 09:29:58 8.9 C 4.73 g/m*3 8.9 C 0 km/h
768 15-03-2009 09:41:58 9.1 C 4.79 g/m*3 9.1 C 0 km/h
769 15-03-2009 09:53:57 9.2 C 4.64 g/m*3 9.2 C 0 km/h
770 15-03-2009 10:05:58 9.3 C 4.67 g/m*3 9.3 C 0 km/h
771 15-03-2009 10:17:57 9.3 C 4.58 g/m*3 9.3 C 0 km/h
772 15-03-2009 10:29:57 9.3 C 4.49 g/m*3 9.3 C 0 km/h
773 15-03-2009 10:41:57 9.6 C 4.49 g/m*3 9.6 C 0 km/h
774 15-03-2009 10:53:57 9.7 C 4.43 g/m*3 9.7 C 0 km/h
775 15-03-2009 11:05:57 9.9 C 4.39 g/m*3 9.9 C 0 km/h
Sensor: Nr:Datum:Temp:Abs-Feuchte:Windchill:Wind:
Aussen-T/F 776 15-03-2009 11:17:57 10.1 C 4.44 g/m*3 10.1 C 0 km/h
777 15-03-2009 11:29:56 10.2 C 4.28 g/m*3 10.2 C 0 km/h
778 15-03-2009 11:41:56 10.4 C 4.43 g/m*3 10.4 C 0 km/h
779 15-03-2009 11:53:57 10.5 C 4.36 g/m*3 10.5 C 0 km/h
780 15-03-2009 12:05:56 10.8 C 4.25 g/m*3 10.8 C 0 km/h
781 15-03-2009 12:17:56 11.2 C 3.95 g/m*3 11.2 C 0 km/h
782 15-03-2009 12:29:56 11.4 C 3.9 g/m*3 11.4 C 0 km/h
783 15-03-2009 12:41:56 11.4 C 3.9 g/m*3 11.4 C 0 km/h
784 15-03-2009 12:53:56 11.5 C 3.41 g/m*3 11.5 C 0 km/h
785 15-03-2009 13:05:55 11.3 C 3.26 g/m*3 11.3 C 0 km/h
786 15-03-2009 13:17:56 11.5 C 3.31 g/m*3 11.5 C 0 km/h
787 15-03-2009 13:29:56 11.2 C 3.45 g/m*3 11.2 C 0 km/h
788 15-03-2009 13:41:56 11.1 C 3.53 g/m*3 11.1 C 0 km/h
789 15-03-2009 13:53:55 11 C 3.6 g/m*3 11 C 0 km/h
790 15-03-2009 14:05:56 10.9 C 3.98 g/m*3 10.9 C 0 km/h
791 15-03-2009 14:17:55 11.1 C 4.03 g/m*3 11.1 C 0 km/h
792 15-03-2009 14:29:55 11 C 4 g/m*3 11 C 0 km/h
793 15-03-2009 14:41:56 10.8 C 4.05 g/m*3 10.8 C 0 km/h
794 15-03-2009 14:53:55 10.7 C 3.93 g/m*3 10.7 C 0 km/h
795 15-03-2009 15:05:55 10.6 C 4.2 g/m*3 10.6 C 0 km/h
796 15-03-2009 15:17:54 10.6 C 4.39 g/m*3 10.6 C 0 km/h
797 15-03-2009 15:29:54 10.9 C 4.48 g/m*3 10.9 C 0 km/h
798 15-03-2009 15:41:54 10.8 C 4.35 g/m*3 10.8 C 0 km/h
799 15-03-2009 15:53:54 10.6 C 4.29 g/m*3 10.6 C 0 km/h
800 15-03-2009 16:05:54 10.7 C 4.42 g/m*3 10.7 C 0 km/h
Sensor: Nr:Datum:Temp:Abs-Feuchte:Windchill:Wind:
Aussen-T/F 801 15-03-2009 16:17:54 10.8 C 4.45 g/m*3 10.8 C 0 km/h
802 15-03-2009 16:29:54 10.8 C 4.45 g/m*3 10.8 C 0 km/h
803 15-03-2009 16:41:54 10.7 C 4.42 g/m*3 10.7 C 0 km/h
804 15-03-2009 16:53:54 10.6 C 4.39 g/m*3 10.6 C 0 km/h
805 15-03-2009 17:05:53 10.6 C 4.49 g/m*3 10.6 C 0 km/h
806 15-03-2009 17:17:54 10.4 C 4.63 g/m*3 10.4 C 0 km/h
807 15-03-2009 17:29:53 10.1 C 4.92 g/m*3 10.1 C 0 km/h
808 15-03-2009 17:41:53 9.9 C 5.04 g/m*3 9.9 C 0 km/h
809 15-03-2009 17:53:53 9.9 C 4.95 g/m*3 9.9 C 0 km/h
810 15-03-2009 18:05:53 9.8 C 4.92 g/m*3 9.8 C 0 km/h
811 15-03-2009 18:17:53 9.8 C 5.01 g/m*3 9.8 C 0 km/h
812 15-03-2009 18:29:53 9.7 C 4.98 g/m*3 9.7 C 0 km/h
813 15-03-2009 18:41:53 9.8 C 4.82 g/m*3 9.8 C 0 km/h
814 15-03-2009 18:53:52 9.8 C 4.73 g/m*3 9.8 C 0 km/h
815 15-03-2009 19:05:02 9.8 C 4.64 g/m*3 9.8 C 0 km/h
816 15-03-2009 19:17:01 9.7 C 4.7 g/m*3 9.7 C 0 km/h
817 15-03-2009 19:29:01 9.6 C 4.76 g/m*3 9.6 C 0 km/h
818 15-03-2009 19:41:02 9.5 C 4.82 g/m*3 9.5 C 0 km/h
819 15-03-2009 19:53:01 9.5 C 4.82 g/m*3 9.5 C 0 km/h
820 15-03-2009 20:05:02 9.4 C 4.97 g/m*3 9.4 C 0 km/h
821 15-03-2009 20:17:01 9.2 C 5 g/m*3 9.2 C 0 km/h
822 15-03-2009 20:29:01 9.2 C 5.09 g/m*3 9.2 C 0 km/h
823 15-03-2009 20:41:01 9.1 C 5.23 g/m*3 9.1 C 0 km/h
824 15-03-2009 20:53:01 9 C 5.29 g/m*3 9 C 0 km/h
825 15-03-2009 21:05:01 9 C 5.29 g/m*3 9 C 0 km/h
Sensor: Nr:Datum:Temp:Abs-Feuchte:Windchill:Wind:
Aussen-T/F 826 15-03-2009 21:17:00 8.9 C 5.43 g/m*3 8.9 C 0 km/h
827 15-03-2009 21:29:00 8.9 C 5.52 g/m*3 8.9 C 0 km/h
828 15-03-2009 21:41:01 8.9 C 5.61 g/m*3 8.9 C 0 km/h
829 15-03-2009 21:54:08 8.7 C 5.53 g/m*3 8.7 C 0 km/h
830 15-03-2009 22:06:08 8.7 C 5.62 g/m*3 8.7 C 0 km/h
831 15-03-2009 22:18:08 8.7 C 5.62 g/m*3 8.7 C 0 km/h
832 15-03-2009 22:30:08 8.6 C 5.67 g/m*3 8.6 C 0 km/h
833 15-03-2009 22:42:08 8.5 C 5.72 g/m*3 8.5 C 0 km/h
834 15-03-2009 22:54:08 8.4 C 5.68 g/m*3 8.4 C 0 km/h
835 15-03-2009 23:06:08 8.4 C 5.68 g/m*3 8.4 C 0 km/h
836 15-03-2009 23:18:09 8.4 C 5.77 g/m*3 8.4 C 0 km/h
837 15-03-2009 23:30:09 8.3 C 5.73 g/m*3 8.3 C 0 km/h
838 15-03-2009 23:42:09 8.3 C 5.73 g/m*3 8.3 C 0 km/h
839 15-03-2009 23:54:09 8.1 C 5.82 g/m*3 8.1 C 0 km/h
840 16-03-2009 00:06:09 8 C 5.87 g/m*3 8 C 0 km/h
841 16-03-2009 00:18:09 8.1 C 5.91 g/m*3 8.1 C 0 km/h
842 16-03-2009 00:30:09 8.1 C 5.91 g/m*3 8.1 C 0 km/h
843 16-03-2009 00:42:09 8.1 C 5.82 g/m*3 8.1 C 0 km/h
844 16-03-2009 00:54:09 8.1 C 5.74 g/m*3 8.1 C 0 km/h
845 16-03-2009 01:06:09 8.2 C 5.69 g/m*3 8.2 C 0 km/h
846 16-03-2009 01:18:09 8 C 5.7 g/m*3 8 C 0 km/h
847 16-03-2009 01:30:09 7.8 C 5.96 g/m*3 7.8 C 0 km/h
848 16-03-2009 01:42:09 7.7 C 6.08 g/m*3 7.7 C 0 km/h
849 16-03-2009 01:54:09 7.5 C 6.16 g/m*3 7.5 C 0 km/h
850 16-03-2009 02:06:09 7.4 C 6.2 g/m*3 7.4 C 0 km/h
Sensor: Nr:Datum:Temp:Abs-Feuchte:Windchill:Wind:
Aussen-T/F 851 16-03-2009 02:18:09 7.4 C 6.28 g/m*3 7.4 C 0 km/h
852 16-03-2009 02:30:09 7.4 C 6.28 g/m*3 7.4 C 0 km/h
853 16-03-2009 02:42:09 7.3 C 6.32 g/m*3 7.3 C 0 km/h
854 16-03-2009 02:54:09 7.2 C 6.36 g/m*3 7.2 C 0 km/h
855 16-03-2009 03:06:09 7.2 C 6.36 g/m*3 7.2 C 0 km/h
856 16-03-2009 03:18:09 7.1 C 6.4 g/m*3 7.1 C 0 km/h
857 16-03-2009 03:30:10 7.1 C 6.4 g/m*3 7.1 C 0 km/h
858 16-03-2009 03:42:10 6.9 C 6.39 g/m*3 6.9 C 0 km/h
859 16-03-2009 03:54:10 6.8 C 6.42 g/m*3 6.8 C 0 km/h
860 16-03-2009 04:06:10 6.8 C 6.42 g/m*3 6.8 C 0 km/h
861 16-03-2009 04:18:10 6.8 C 6.5 g/m*3 6.8 C 0 km/h
862 16-03-2009 04:30:10 6.7 C 6.46 g/m*3 6.7 C 0 km/h
863 16-03-2009 04:42:10 6.7 C 6.46 g/m*3 6.7 C 0 km/h
864 16-03-2009 04:54:10 6.8 C 6.58 g/m*3 6.8 C 0 km/h
865 16-03-2009 05:06:10 6.7 C 6.53 g/m*3 6.7 C 0 km/h
866 16-03-2009 05:18:10 6.5 C 6.37 g/m*3 6.5 C 0 km/h
867 16-03-2009 05:30:10 6.6 C 6.49 g/m*3 6.6 C 0 km/h
868 16-03-2009 05:42:10 6.7 C 6.53 g/m*3 6.7 C 0 km/h
869 16-03-2009 05:54:01 6.6 C 6.49 g/m*3 6.6 C 0 km/h
870 16-03-2009 06:06:01 6.6 C 6.49 g/m*3 6.6 C 0 km/h
871 16-03-2009 06:18:01 6.6 C 6.49 g/m*3 6.6 C 0 km/h
872 16-03-2009 06:30:01 6.6 C 6.49 g/m*3 6.6 C 0 km/h
873 16-03-2009 06:42:01 6.7 C 6.53 g/m*3 6.7 C 0 km/h
874 16-03-2009 06:54:00 6.6 C 6.42 g/m*3 6.6 C 0 km/h
875 16-03-2009 07:06:01 6.5 C 6.37 g/m*3 6.5 C 0 km/h
Sensor: Nr:Datum:Temp:Abs-Feuchte:Windchill:Wind:
Aussen-T/F 876 16-03-2009 07:18:00 6.5 C 6.37 g/m*3 6.5 C 0 km/h
877 16-03-2009 07:30:00 6.6 C 6.49 g/m*3 6.6 C 0 km/h
878 16-03-2009 07:42:00 6.7 C 6.53 g/m*3 6.7 C 0 km/h
879 16-03-2009 07:53:59 6.8 C 6.58 g/m*3 6.8 C 0 km/h
880 16-03-2009 08:06:00 6.9 C 6.62 g/m*3 6.9 C 0 km/h
881 16-03-2009 08:18:00 7 C 6.59 g/m*3 7 C 0 km/h
882 16-03-2009 08:30:00 7 C 6.51 g/m*3 7 C 0 km/h
883 16-03-2009 08:42:59 7.1 C 6.55 g/m*3 7.1 C 0 km/h
884 16-03-2009 08:54:00 7.2 C 6.59 g/m*3 7.2 C 0 km/h
885 16-03-2009 09:06:59 7.4 C 6.68 g/m*3 7.4 C 0 km/h
886 16-03-2009 09:18:59 7.3 C 6.56 g/m*3 7.3 C 0 km/h
887 16-03-2009 09:30:58 7.2 C 6.36 g/m*3 7.2 C 0 km/h
888 16-03-2009 09:42:58 7.3 C 6.24 g/m*3 7.3 C 0 km/h
889 16-03-2009 09:54:59 7.6 C 6.36 g/m*3 7.6 C 0 km/h
890 16-03-2009 10:06:59 7.9 C 6.41 g/m*3 7.9 C 0 km/h
891 16-03-2009 10:18:58 8.2 C 6.28 g/m*3 8.2 C 0 km/h
892 16-03-2009 10:30:59 8.4 C 6.11 g/m*3 8.4 C 0 km/h
893 16-03-2009 10:42:59 8.7 C 5.97 g/m*3 8.7 C 0 km/h
894 16-03-2009 10:54:58 8.8 C 5.92 g/m*3 8.8 C 0 km/h
895 16-03-2009 11:06:58 8.8 C 5.74 g/m*3 8.8 C 0 km/h
896 16-03-2009 11:18:57 9.1 C 5.68 g/m*3 9.1 C 0 km/h
897 16-03-2009 11:30:58 9.2 C 5.54 g/m*3 9.2 C 0 km/h
898 16-03-2009 11:42:58 9.5 C 5.55 g/m*3 9.5 C 0 km/h
899 16-03-2009 11:54:57 9.7 C 5.62 g/m*3 9.7 C 0 km/h
900 16-03-2009 12:06:57 10 C 5.36 g/m*3 10 C 0 km/h
Sensor: Nr:Datum:Temp:Abs-Feuchte:Windchill:Wind:
Aussen-T/F 901 16-03-2009 12:18:58 9.9 C 5.14 g/m*3 9.9 C 0 km/h
902 16-03-2009 12:30:57 9.5 C 5.1 g/m*3 9.5 C 0 km/h
903 16-03-2009 12:42:57 9.5 C 5.19 g/m*3 9.5 C 0 km/h
904 16-03-2009 12:54:57 9.8 C 5.29 g/m*3 9.8 C 0 km/h
905 16-03-2009 13:06:57 10 C 5.17 g/m*3 10 C 0 km/h
906 16-03-2009 13:18:57 10.2 C 5.23 g/m*3 10.2 C 0 km/h
907 16-03-2009 13:30:56 10.1 C 4.92 g/m*3 10.1 C 0 km/h
908 16-03-2009 13:42:56 9.8 C 5.1 g/m*3 9.8 C 0 km/h
909 16-03-2009 13:54:56 9.5 C 5.1 g/m*3 9.5 C 0 km/h
910 16-03-2009 14:06:56 9.4 C 5.06 g/m*3 9.4 C 0 km/h
911 16-03-2009 14:18:56 9.5 C 5.1 g/m*3 9.5 C 0 km/h
912 16-03-2009 14:30:56 9.5 C 5.01 g/m*3 9.5 C 0 km/h
913 16-03-2009 14:42:56 9.7 C 5.16 g/m*3 9.7 C 0 km/h
914 16-03-2009 14:54:56 9.9 C 5.14 g/m*3 9.9 C 0 km/h
915 16-03-2009 15:06:56 10 C 5.07 g/m*3 10 C 0 km/h
916 16-03-2009 15:18:55 10.3 C 5.17 g/m*3 10.3 C 0 km/h
917 16-03-2009 15:30:55 9.9 C 4.95 g/m*3 9.9 C 0 km/h
918 16-03-2009 15:42:55 9.8 C 5.1 g/m*3 9.8 C 0 km/h
919 16-03-2009 15:54:55 9.9 C 5.14 g/m*3 9.9 C 0 km/h
920 16-03-2009 16:06:55 9.7 C 5.16 g/m*3 9.7 C 0 km/h
921 16-03-2009 16:18:55 9.8 C 5.2 g/m*3 9.8 C 0 km/h
922 16-03-2009 16:30:55 9.8 C 5.2 g/m*3 9.8 C 0 km/h
923 16-03-2009 16:42:55 10 C 5.17 g/m*3 10 C 0 km/h
924 16-03-2009 16:54:55 9.8 C 5.1 g/m*3 9.8 C 0 km/h
925 16-03-2009 17:06:54 9.7 C 5.25 g/m*3 9.7 C 0 km/h
Sensor: Nr:Datum:Temp:Abs-Feuchte:Windchill:Wind:
Aussen-T/F 926 16-03-2009 17:18:55 9.7 C 5.25 g/m*3 9.7 C 0 km/h
927 16-03-2009 17:30:54 9.7 C 5.25 g/m*3 9.7 C 0 km/h
928 16-03-2009 17:42:54 9.6 C 5.22 g/m*3 9.6 C 0 km/h
929 16-03-2009 17:54:54 9.2 C 5.18 g/m*3 9.2 C 0 km/h
930 16-03-2009 18:06:53 9.2 C 5.27 g/m*3 9.2 C 0 km/h
931 16-03-2009 18:18:54 9.2 C 5.36 g/m*3 9.2 C 0 km/h
932 16-03-2009 18:30:54 9 C 5.29 g/m*3 9 C 0 km/h
933 16-03-2009 18:42:54 8.9 C 5.43 g/m*3 8.9 C 0 km/h
934 16-03-2009 18:54:53 8.7 C 5.45 g/m*3 8.7 C 0 km/h
935 16-03-2009 19:06:54 8.7 C 5.53 g/m*3 8.7 C 0 km/h
936 16-03-2009 19:18:53 8.6 C 5.59 g/m*3 8.6 C 0 km/h
937 16-03-2009 19:30:53 8.5 C 5.55 g/m*3 8.5 C 0 km/h
938 16-03-2009 19:42:54 8.5 C 5.64 g/m*3 8.5 C 0 km/h
939 16-03-2009 19:54:53 8.4 C 5.6 g/m*3 8.4 C 0 km/h
940 16-03-2009 20:06:53 8.4 C 5.6 g/m*3 8.4 C 0 km/h
941 16-03-2009 20:18:52 8.4 C 5.6 g/m*3 8.4 C 0 km/h
942 16-03-2009 20:30:53 8.4 C 5.51 g/m*3 8.4 C 0 km/h
943 16-03-2009 20:42:53 8.3 C 5.48 g/m*3 8.3 C 0 km/h
944 16-03-2009 20:54:52 8.3 C 5.48 g/m*3 8.3 C 0 km/h
945 16-03-2009 21:06:52 8.2 C 5.53 g/m*3 8.2 C 0 km/h
946 16-03-2009 21:18:52 8.2 C 5.53 g/m*3 8.2 C 0 km/h
947 16-03-2009 21:30:51 8.2 C 5.53 g/m*3 8.2 C 0 km/h
948 16-03-2009 21:42:51 8.1 C 5.41 g/m*3 8.1 C 0 km/h
949 16-03-2009 21:54:52 8.1 C 5.41 g/m*3 8.1 C 0 km/h
950 16-03-2009 22:06:51 8.1 C 5.41 g/m*3 8.1 C 0 km/h
Sensor: Nr:Datum:Temp:Abs-Feuchte:Windchill:Wind:
Aussen-T/F 951 16-03-2009 22:19:53 8 C 5.29 g/m*3 8 C 0 km/h
952 16-03-2009 22:31:54 8 C 5.29 g/m*3 8 C 0 km/h
953 16-03-2009 22:43:54 8 C 5.29 g/m*3 8 C 0 km/h
954 16-03-2009 22:55:54 7.9 C 5.26 g/m*3 7.9 C 0 km/h
955 16-03-2009 23:07:54 8 C 5.29 g/m*3 8 C 0 km/h
956 16-03-2009 23:19:54 8 C 5.29 g/m*3 8 C 0 km/h
957 16-03-2009 23:31:54 8 C 5.29 g/m*3 8 C 0 km/h
958 16-03-2009 23:43:54 7.9 C 5.42 g/m*3 7.9 C 0 km/h
959 16-03-2009 23:55:54 7.9 C 5.42 g/m*3 7.9 C 0 km/h
960 17-03-2009 00:07:54 7.8 C 5.47 g/m*3 7.8 C 0 km/h
961 17-03-2009 00:19:54 7.8 C 5.3 g/m*3 7.8 C 0 km/h
962 17-03-2009 00:31:54 7.8 C 5.3 g/m*3 7.8 C 0 km/h
963 17-03-2009 00:43:54 7.7 C 5.27 g/m*3 7.7 C 0 km/h
964 17-03-2009 00:55:54 7.7 C 5.11 g/m*3 7.7 C 0 km/h
965 17-03-2009 01:07:54 7.7 C 5.03 g/m*3 7.7 C 0 km/h
966 17-03-2009 01:19:54 7.4 C 4.93 g/m*3 7.4 C 0 km/h
967 17-03-2009 01:31:54 6.7 C 4.94 g/m*3 6.7 C 0 km/h
968 17-03-2009 01:43:54 6.1 C 4.82 g/m*3 6.1 C 0 km/h
969 17-03-2009 01:55:54 5.8 C 4.94 g/m*3 5.8 C 0 km/h
970 17-03-2009 02:07:54 5.6 C 4.88 g/m*3 5.6 C 0 km/h
971 17-03-2009 02:19:54 5.3 C 4.85 g/m*3 5.3 C 0 km/h
972 17-03-2009 02:31:55 5.1 C 4.86 g/m*3 5.1 C 0 km/h
973 17-03-2009 02:43:55 5 C 4.89 g/m*3 5 C 0 km/h
974 17-03-2009 02:55:55 4.9 C 4.93 g/m*3 4.9 C 0 km/h
975 17-03-2009 03:07:55 4.7 C 4.93 g/m*3 4.7 C 0 km/h
Sensor: Nr:Datum:Temp:Abs-Feuchte:Windchill:Wind:
Aussen-T/F 976 17-03-2009 03:19:55 4.7 C 4.93 g/m*3 4.7 C 0 km/h
977 17-03-2009 03:31:55 4.5 C 4.93 g/m*3 4.5 C 0 km/h
978 17-03-2009 03:43:55 4.3 C 4.93 g/m*3 4.3 C 0 km/h
979 17-03-2009 03:55:55 4.1 C 4.93 g/m*3 4.1 C 0 km/h
980 17-03-2009 04:07:55 4 C 4.96 g/m*3 4 C 0 km/h
981 17-03-2009 04:19:55 3.9 C 4.99 g/m*3 3.9 C 0 km/h
982 17-03-2009 04:31:55 4 C 4.96 g/m*3 4 C 0 km/h
983 17-03-2009 04:43:55 4 C 5.02 g/m*3 4 C 0 km/h
984 17-03-2009 04:55:55 3.8 C 5.02 g/m*3 3.8 C 0 km/h
985 17-03-2009 05:07:55 3.5 C 4.92 g/m*3 3.5 C 0 km/h
986 17-03-2009 05:19:55 3.3 C 4.85 g/m*3 3.3 C 0 km/h
987 17-03-2009 05:31:55 3.2 C 4.88 g/m*3 3.2 C 0 km/h
988 17-03-2009 05:43:55 3.2 C 4.88 g/m*3 3.2 C 0 km/h
989 17-03-2009 05:55:55 3.2 C 4.94 g/m*3 3.2 C 0 km/h
990 17-03-2009 06:07:55 3 C 4.88 g/m*3 3 C 0 km/h
991 17-03-2009 06:19:56 3 C 4.88 g/m*3 3 C 0 km/h
992 17-03-2009 06:31:56 3 C 4.93 g/m*3 3 C 0 km/h
993 17-03-2009 06:43:56 3.1 C 4.97 g/m*3 3.1 C 0 km/h
994 17-03-2009 06:55:56 3.3 C 5.04 g/m*3 3.3 C 0 km/h
995 17-03-2009 07:07:52 3.5 C 5.1 g/m*3 3.5 C 0 km/h
996 17-03-2009 07:19:52 3.5 C 4.98 g/m*3 3.5 C 0 km/h
997 17-03-2009 07:31:52 3.6 C 4.95 g/m*3 3.6 C 0 km/h
998 17-03-2009 07:43:52 3.5 C 4.92 g/m*3 3.5 C 0 km/h
999 17-03-2009 07:55:52 3.5 C 4.92 g/m*3 3.5 C 0 km/h
1000 17-03-2009 08:07:51 3.5 C 4.92 g/m*3 3.5 C 0 km/h
Sensor: Nr:Datum:Temp:Abs-Feuchte:Windchill:Wind:
Aussen-T/F 1001 17-03-2009 08:19:51 3.7 C 4.99 g/m*3 3.7 C 0 km/h
1002 17-03-2009 08:31:52 3.8 C 5.02 g/m*3 3.8 C 0 km/h
1003 17-03-2009 08:43:52 3.9 C 4.99 g/m*3 3.9 C 0 km/h
1004 17-03-2009 08:55:51 4.2 C 5.09 g/m*3 4.2 C 0 km/h
1005 17-03-2009 09:07:51 5 C 5.23 g/m*3 5 C 0 km/h
1006 17-03-2009 09:19:50 5.8 C 5.16 g/m*3 5.8 C 0 km/h
1007 17-03-2009 09:31:51 6.3 C 5.03 g/m*3 6.3 C 0 km/h
1008 17-03-2009 09:43:51 6.5 C 4.95 g/m*3 6.5 C 0 km/h
1009 17-03-2009 09:55:50 6.5 C 4.95 g/m*3 6.5 C 0 km/h
1010 17-03-2009 10:07:50 6.8 C 4.97 g/m*3 6.8 C 0 km/h
1011 17-03-2009 10:19:51 7.2 C 5.02 g/m*3 7.2 C 0 km/h
1012 17-03-2009 10:31:50 7.9 C 5.09 g/m*3 7.9 C 0 km/h
1013 17-03-2009 10:43:50 8.4 C 5.09 g/m*3 8.4 C 0 km/h
1014 17-03-2009 10:55:50 9 C 5.03 g/m*3 9 C 0 km/h
1015 17-03-2009 11:07:50 10.1 C 5.01 g/m*3 10.1 C 0 km/h
1016 17-03-2009 11:19:50 11.4 C 5.13 g/m*3 11.4 C 0 km/h
1017 17-03-2009 11:31:50 11.7 C 4.92 g/m*3 11.7 C 0 km/h
1018 17-03-2009 11:43:50 11.6 C 4.89 g/m*3 11.6 C 0 km/h
1019 17-03-2009 11:55:50 11.4 C 4.93 g/m*3 11.4 C 0 km/h
1020 17-03-2009 12:07:50 11.5 C 5.06 g/m*3 11.5 C 0 km/h
1021 17-03-2009 12:19:49 11.2 C 5.07 g/m*3 11.2 C 0 km/h
1022 17-03-2009 12:31:49 12 C 5.12 g/m*3 12 C 0 km/h
1023 17-03-2009 12:43:49 13.3 C 4.97 g/m*3 13.3 C 0 km/h
1024 17-03-2009 12:55:49 13.7 C 4.97 g/m*3 13.7 C 0 km/h
1025 17-03-2009 13:07:49 14.1 C 4.85 g/m*3 14.1 C 0 km/h
Sensor: Nr:Datum:Temp:Abs-Feuchte:Windchill:Wind:
Aussen-T/F 1026 17-03-2009 13:19:48 14.1 C 4.73 g/m*3 14.1 C 0 km/h
1027 17-03-2009 13:31:48 13.9 C 4.68 g/m*3 13.9 C 0 km/h
1028 17-03-2009 13:43:48 14.2 C 4.76 g/m*3 14.2 C 0 km/h
1029 17-03-2009 13:55:48 14.7 C 4.78 g/m*3 14.7 C 0 km/h
1030 17-03-2009 14:07:48 15.4 C 4.6 g/m*3 15.4 C 0 km/h
1031 17-03-2009 14:19:48 14.2 C 4.64 g/m*3 14.2 C 0 km/h
1032 17-03-2009 14:31:48 13.8 C 4.89 g/m*3 13.8 C 0 km/h
1033 17-03-2009 14:43:48 13.2 C 4.82 g/m*3 13.2 C 0 km/h
1034 17-03-2009 14:55:48 12.5 C 4.84 g/m*3 12.5 C 0 km/h
1035 17-03-2009 15:07:47 12.4 C 4.92 g/m*3 12.4 C 0 km/h
1036 17-03-2009 15:19:48 12.5 C 5.06 g/m*3 12.5 C 0 km/h
1037 17-03-2009 15:31:47 12.7 C 5.01 g/m*3 12.7 C 0 km/h
1038 17-03-2009 15:43:47 12.8 C 5.04 g/m*3 12.8 C 0 km/h
1039 17-03-2009 15:55:47 12.8 C 5.04 g/m*3 12.8 C 0 km/h
1040 17-03-2009 16:07:47 12.5 C 4.95 g/m*3 12.5 C 0 km/h
1041 17-03-2009 16:19:47 12.6 C 5.09 g/m*3 12.6 C 0 km/h
1042 17-03-2009 16:31:47 12.5 C 4.95 g/m*3 12.5 C 0 km/h
1043 17-03-2009 16:43:47 12.6 C 4.98 g/m*3 12.6 C 0 km/h
1044 17-03-2009 16:55:46 12.1 C 4.61 g/m*3 12.1 C 0 km/h
1045 17-03-2009 17:07:47 12 C 4.8 g/m*3 12 C 0 km/h
1046 17-03-2009 17:19:46 11.9 C 4.98 g/m*3 11.9 C 0 km/h
1047 17-03-2009 17:31:46 12.6 C 4.87 g/m*3 12.6 C 0 km/h
1048 17-03-2009 17:43:46 12.2 C 4.75 g/m*3 12.2 C 0 km/h
1049 17-03-2009 17:55:46 12 C 4.58 g/m*3 12 C 0 km/h
1050 17-03-2009 18:07:46 11.7 C 4.71 g/m*3 11.7 C 0 km/h
Sensor: Nr:Datum:Temp:Abs-Feuchte:Windchill:Wind:
Aussen-T/F 1051 17-03-2009 18:19:46 11.2 C 4.66 g/m*3 11.2 C 0 km/h
1052 17-03-2009 18:31:45 10.7 C 4.81 g/m*3 10.7 C 0 km/h
1053 17-03-2009 18:43:45 10.2 C 4.85 g/m*3 10.2 C 0 km/h
1054 17-03-2009 18:55:46 9.5 C 5.01 g/m*3 9.5 C 0 km/h
1055 17-03-2009 19:07:45 9.2 C 5 g/m*3 9.2 C 0 km/h
1056 17-03-2009 19:19:45 8.7 C 5.1 g/m*3 8.7 C 0 km/h
1057 17-03-2009 19:31:45 8.5 C 5.04 g/m*3 8.5 C 0 km/h
1058 17-03-2009 19:43:45 8.1 C 4.99 g/m*3 8.1 C 0 km/h
1059 17-03-2009 19:55:45 7.8 C 5.14 g/m*3 7.8 C 0 km/h
1060 17-03-2009 20:07:44 7.6 C 5.16 g/m*3 7.6 C 0 km/h
1061 17-03-2009 20:19:44 7.3 C 5.14 g/m*3 7.3 C 0 km/h
1062 17-03-2009 20:31:45 7.1 C 5.07 g/m*3 7.1 C 0 km/h
1063 17-03-2009 20:43:45 6.9 C 5.23 g/m*3 6.9 C 0 km/h
1064 17-03-2009 20:55:44 6.5 C 5.1 g/m*3 6.5 C 0 km/h
1065 17-03-2009 21:07:44 6.3 C 5.18 g/m*3 6.3 C 0 km/h
1066 17-03-2009 21:19:44 6.2 C 5.22 g/m*3 6.2 C 0 km/h
1067 17-03-2009 21:31:44 5.7 C 5.05 g/m*3 5.7 C 0 km/h
1068 17-03-2009 21:43:44 5.7 C 5.19 g/m*3 5.7 C 0 km/h
1069 17-03-2009 21:56:45 5.5 C 5.13 g/m*3 5.5 C 0 km/h
1070 17-03-2009 22:08:45 5.3 C 5.13 g/m*3 5.3 C 0 km/h
1071 17-03-2009 22:20:46 5.1 C 5.13 g/m*3 5.1 C 0 km/h
1072 17-03-2009 22:32:46 4.9 C 5.2 g/m*3 4.9 C 0 km/h
1073 17-03-2009 22:44:46 4.8 C 5.16 g/m*3 4.8 C 0 km/h
1074 17-03-2009 22:56:46 4.7 C 5.13 g/m*3 4.7 C 0 km/h
1075 17-03-2009 23:08:46 4.6 C 5.1 g/m*3 4.6 C 0 km/h
Sensor: Nr:Datum:Temp:Abs-Feuchte:Windchill:Wind:
Aussen-T/F 1076 17-03-2009 23:20:46 4.3 C 4.99 g/m*3 4.3 C 0 km/h
1077 17-03-2009 23:32:46 4.2 C 5.03 g/m*3 4.2 C 0 km/h
1078 17-03-2009 23:44:46 4 C 5.02 g/m*3 4 C 0 km/h
1079 17-03-2009 23:56:46 3.8 C 5.02 g/m*3 3.8 C 0 km/h
1080 18-03-2009 00:08:46 3.6 C 5.01 g/m*3 3.6 C 0 km/h
1081 18-03-2009 00:20:46 3.3 C 4.91 g/m*3 3.3 C 0 km/h
1082 18-03-2009 00:32:46 3.2 C 4.94 g/m*3 3.2 C 0 km/h
1083 18-03-2009 00:44:46 2.9 C 4.9 g/m*3 2.9 C 0 km/h
1084 18-03-2009 00:56:46 2.8 C 4.81 g/m*3 2.8 C 0 km/h
1085 18-03-2009 01:08:46 2.7 C 4.84 g/m*3 2.7 C 0 km/h
1086 18-03-2009 01:20:46 2.6 C 4.8 g/m*3 2.6 C 0 km/h
1087 18-03-2009 01:32:46 2.4 C 4.74 g/m*3 2.4 C 0 km/h
1088 18-03-2009 01:44:46 2.2 C 4.68 g/m*3 2.2 C 0 km/h
1089 18-03-2009 01:56:46 2.1 C 4.64 g/m*3 2.1 C 0 km/h
1090 18-03-2009 02:08:47 1.9 C 4.64 g/m*3 1.9 C 0 km/h
1091 18-03-2009 02:20:47 1.8 C 4.6 g/m*3 1.8 C 0 km/h
1092 18-03-2009 02:32:47 1.5 C 4.51 g/m*3 1.5 C 0 km/h
1093 18-03-2009 02:44:47 1.5 C 4.57 g/m*3 1.5 C 0 km/h
1094 18-03-2009 02:56:47 1.4 C 4.53 g/m*3 1.4 C 0 km/h
1095 18-03-2009 03:08:47 1.2 C 4.47 g/m*3 1.2 C 0 km/h
1096 18-03-2009 03:20:47 0.9 C 4.38 g/m*3 0.9 C 0 km/h
1097 18-03-2009 03:32:47 0.8 C 4.35 g/m*3 0.8 C 0 km/h
1098 18-03-2009 03:44:47 0.6 C 4.29 g/m*3 0.6 C 0 km/h
1099 18-03-2009 03:56:47 0.4 C 4.23 g/m*3 0.4 C 0 km/h
1100 18-03-2009 04:08:47 0.3 C 4.2 g/m*3 0.3 C 0 km/h
Sensor: Nr:Datum:Temp:Abs-Feuchte:Windchill:Wind:
Aussen-T/F 1101 18-03-2009 04:20:47 0.2 C 4.22 g/m*3 0.2 C 0 km/h
1102 18-03-2009 04:32:47 0.1 C 4.2 g/m*3 0.1 C 0 km/h
1103 18-03-2009 04:44:47 0.1 C 4.24 g/m*3 0.1 C 0 km/h
1104 18-03-2009 04:56:47 0 C 4.22 g/m*3 0 C 0 km/h
1105 18-03-2009 05:08:47 -0.1 C 4.19 g/m*3 -0.1 C 0 km/h
1106 18-03-2009 05:20:47 0 C 4.26 g/m*3 0 C 0 km/h
1107 18-03-2009 05:32:47 0 C 4.26 g/m*3 0 C 0 km/h
1108 18-03-2009 05:44:47 -0.1 C 4.23 g/m*3 -0.1 C 0 km/h
1109 18-03-2009 05:56:47 -0.2 C 4.21 g/m*3 -0.2 C 0 km/h
1110 18-03-2009 06:08:48 -0.2 C 4.21 g/m*3 -0.2 C 0 km/h
1111 18-03-2009 06:20:48 -0.1 C 4.28 g/m*3 -0.1 C 0 km/h
1112 18-03-2009 06:32:44 0 C 4.31 g/m*3 0 C 0 km/h
1113 18-03-2009 06:44:45 0 C 4.31 g/m*3 0 C 0 km/h
1114 18-03-2009 06:56:45 0.2 C 4.37 g/m*3 0.2 C 0 km/h
1115 18-03-2009 07:08:44 0.2 C 4.37 g/m*3 0.2 C 0 km/h
1116 18-03-2009 07:20:44 0.2 C 4.37 g/m*3 0.2 C 0 km/h
1117 18-03-2009 07:32:44 0.2 C 4.37 g/m*3 0.2 C 0 km/h
1118 18-03-2009 07:44:44 0.2 C 4.37 g/m*3 0.2 C 0 km/h
1119 18-03-2009 07:56:44 0.1 C 4.29 g/m*3 0.1 C 0 km/h
1120 18-03-2009 08:08:44 0.1 C 4.29 g/m*3 0.1 C 0 km/h
1121 18-03-2009 08:20:43 0.1 C 4.29 g/m*3 0.1 C 0 km/h
1122 18-03-2009 08:32:44 0.5 C 4.41 g/m*3 0.5 C 0 km/h
1123 18-03-2009 08:44:43 1.2 C 4.63 g/m*3 1.2 C 0 km/h
1124 18-03-2009 08:56:43 1.2 C 4.47 g/m*3 1.2 C 0 km/h
1125 18-03-2009 09:08:43 1.7 C 4.57 g/m*3 1.7 C 0 km/h
Sensor: Nr:Datum:Temp:Abs-Feuchte:Windchill:Wind:
Aussen-T/F 1126 18-03-2009 09:20:43 1.9 C 4.53 g/m*3 1.9 C 0 km/h
1127 18-03-2009 09:32:43 1.9 C 4.42 g/m*3 1.9 C 0 km/h
1128 18-03-2009 09:44:43 2.5 C 4.54 g/m*3 2.5 C 0 km/h
1129 18-03-2009 09:56:43 2.8 C 4.52 g/m*3 2.8 C 0 km/h
1130 18-03-2009 10:08:43 3.3 C 4.49 g/m*3 3.3 C 0 km/h
1131 18-03-2009 10:20:42 3.6 C 4.52 g/m*3 3.6 C 0 km/h
1132 18-03-2009 10:32:42 3.8 C 4.64 g/m*3 3.8 C 0 km/h
1133 18-03-2009 10:44:42 4.6 C 4.83 g/m*3 4.6 C 0 km/h
1134 18-03-2009 10:56:42 5.2 C 4.61 g/m*3 5.2 C 0 km/h
1135 18-03-2009 11:08:42 5.9 C 4.47 g/m*3 5.9 C 0 km/h
1136 18-03-2009 11:20:41 6.5 C 4.35 g/m*3 6.5 C 0 km/h
1137 18-03-2009 11:32:42 6.8 C 4.36 g/m*3 6.8 C 0 km/h
1138 18-03-2009 11:44:41 7.3 C 4.27 g/m*3 7.3 C 0 km/h
1139 18-03-2009 11:56:41 7.9 C 4.19 g/m*3 7.9 C 0 km/h
1140 18-03-2009 12:08:41 8.2 C 3.77 g/m*3 8.2 C 0 km/h
1141 18-03-2009 12:20:42 8.6 C 3.52 g/m*3 8.6 C 0 km/h
1142 18-03-2009 12:32:41 9.4 C 3.35 g/m*3 9.4 C 0 km/h
1143 18-03-2009 12:44:41 9.7 C 2.3 g/m*3 9.7 C 0 km/h
1144 18-03-2009 12:56:41 10.2 C 2.19 g/m*3 10.2 C 0 km/h
1145 18-03-2009 13:08:40 11 C 2 g/m*3 11 C 0 km/h
1146 18-03-2009 13:20:41 11.8 C 2.1 g/m*3 11.8 C 0 km/h
1147 18-03-2009 13:32:41 12.6 C 2.21 g/m*3 12.6 C 0 km/h
1148 18-03-2009 13:44:40 13 C 2.27 g/m*3 13 C 0 km/h
1149 18-03-2009 13:56:40 13.1 C 2.28 g/m*3 13.1 C 0 km/h
1150 18-03-2009 14:08:41 13.2 C 2.3 g/m*3 13.2 C 0 km/h
Sensor: Nr:Datum:Temp:Abs-Feuchte:Windchill:Wind:
Aussen-T/F 1151 18-03-2009 14:20:40 12.9 C 2.25 g/m*3 12.9 C 0 km/h
1152 18-03-2009 14:32:40 13.1 C 2.28 g/m*3 13.1 C 0 km/h
1153 18-03-2009 14:44:40 13.6 C 2.35 g/m*3 13.6 C 0 km/h
1154 18-03-2009 14:56:40 13.8 C 2.38 g/m*3 13.8 C 0 km/h
1155 18-03-2009 15:08:40 14.1 C 2.43 g/m*3 14.1 C 0 km/h
1156 18-03-2009 15:20:39 14 C 2.41 g/m*3 14 C 0 km/h
1157 18-03-2009 15:32:39 13.7 C 2.37 g/m*3 13.7 C 0 km/h
1158 18-03-2009 15:44:39 14.7 C 2.52 g/m*3 14.7 C 0 km/h
1159 18-03-2009 15:56:39 15.3 C 2.61 g/m*3 15.3 C 0 km/h
1160 18-03-2009 16:08:39 15.2 C 2.6 g/m*3 15.2 C 0 km/h
1161 18-03-2009 16:20:39 14.6 C 2.5 g/m*3 14.6 C 0 km/h
1162 18-03-2009 16:32:39 14.3 C 2.46 g/m*3 14.3 C 0 km/h
1163 18-03-2009 16:44:39 14 C 2.41 g/m*3 14 C 0 km/h
1164 18-03-2009 16:56:39 14.9 C 2.55 g/m*3 14.9 C 0 km/h
1165 18-03-2009 17:08:38 14.6 C 2.5 g/m*3 14.6 C 0 km/h
1166 18-03-2009 17:20:38 14.7 C 2.52 g/m*3 14.7 C 0 km/h
1167 18-03-2009 17:32:38 13.7 C 2.37 g/m*3 13.7 C 0 km/h
1168 18-03-2009 17:44:38 12.5 C 2.2 g/m*3 12.5 C 0 km/h
1169 18-03-2009 17:56:38 12.6 C 2.21 g/m*3 12.6 C 0 km/h
1170 18-03-2009 18:08:37 11.9 C 2.12 g/m*3 11.9 C 0 km/h
1171 18-03-2009 18:20:38 11.3 C 2.04 g/m*3 11.3 C 0 km/h
1172 18-03-2009 18:32:38 10.1 C 1.89 g/m*3 10.1 C 0 km/h
1173 18-03-2009 18:44:37 9.1 C 1.77 g/m*3 9.1 C 0 km/h
1174 18-03-2009 18:56:37 8.5 C 1.71 g/m*3 8.5 C 0 km/h
1175 18-03-2009 19:08:38 8.1 C 2.16 g/m*3 8.1 C 0 km/h
Sensor: Nr:Datum:Temp:Abs-Feuchte:Windchill:Wind:
Aussen-T/F 1176 18-03-2009 19:20:37 7.9 C 2.14 g/m*3 7.9 C 0 km/h
1177 18-03-2009 19:32:37 7.4 C 2.31 g/m*3 7.4 C 0 km/h
1178 18-03-2009 19:44:36 7.1 C 2.03 g/m*3 7.1 C 0 km/h
1179 18-03-2009 19:56:36 6.9 C 2.08 g/m*3 6.9 C 0 km/h
1180 18-03-2009 20:08:37 6.8 C 2.29 g/m*3 6.8 C 0 km/h
1181 18-03-2009 20:20:37 6.7 C 2.36 g/m*3 6.7 C 0 km/h
1182 18-03-2009 20:32:36 6.7 C 2.66 g/m*3 6.7 C 0 km/h
1183 18-03-2009 20:44:37 6.8 C 2.45 g/m*3 6.8 C 0 km/h
1184 18-03-2009 20:56:37 6.8 C 2.68 g/m*3 6.8 C 0 km/h
1185 18-03-2009 21:08:36 6.7 C 2.66 g/m*3 6.7 C 0 km/h
1186 18-03-2009 21:20:36 6.6 C 2.79 g/m*3 6.6 C 0 km/h
1187 18-03-2009 21:32:36 6.6 C 2.72 g/m*3 6.6 C 0 km/h
1188 18-03-2009 21:44:35 6.4 C 2.68 g/m*3 6.4 C 0 km/h
1189 18-03-2009 21:56:35 6 C 2.69 g/m*3 6 C 0 km/h
1190 18-03-2009 22:08:36 5.7 C 2.85 g/m*3 5.7 C 0 km/h
1191 18-03-2009 22:21:36 5.6 C 2.83 g/m*3 5.6 C 0 km/h
1192 18-03-2009 22:33:36 5.5 C 2.81 g/m*3 5.5 C 0 km/h
1193 18-03-2009 22:45:36 5.2 C 2.62 g/m*3 5.2 C 0 km/h
1194 18-03-2009 22:57:37 4.9 C 2.7 g/m*3 4.9 C 0 km/h
1195 18-03-2009 23:09:37 4.7 C 2.6 g/m*3 4.7 C 0 km/h
1196 18-03-2009 23:21:37 4.5 C 2.76 g/m*3 4.5 C 0 km/h
1197 18-03-2009 23:33:37 4.2 C 2.64 g/m*3 4.2 C 0 km/h
1198 18-03-2009 23:45:37 3.9 C 2.72 g/m*3 3.9 C 0 km/h
1199 18-03-2009 23:57:37 3.5 C 2.71 g/m*3 3.5 C 0 km/h
1200 19-03-2009 00:09:37 3.3 C 2.73 g/m*3 3.3 C 0 km/h
Sensor: Nr:Datum:Temp:Abs-Feuchte:Windchill:Wind:
Aussen-T/F 1201 19-03-2009 00:21:37 3.1 C 2.75 g/m*3 3.1 C 0 km/h
1202 19-03-2009 00:33:37 3 C 2.85 g/m*3 3 C 0 km/h
1203 19-03-2009 00:45:37 2.7 C 2.85 g/m*3 2.7 C 0 km/h
1204 19-03-2009 00:57:37 2.4 C 2.91 g/m*3 2.4 C 0 km/h
1205 19-03-2009 01:09:37 2.3 C 2.89 g/m*3 2.3 C 0 km/h
1206 19-03-2009 01:21:37 2.1 C 2.97 g/m*3 2.1 C 0 km/h
1207 19-03-2009 01:33:37 1.8 C 3.07 g/m*3 1.8 C 0 km/h
1208 19-03-2009 01:45:37 1.8 C 3.07 g/m*3 1.8 C 0 km/h
1209 19-03-2009 01:57:37 1.5 C 3.01 g/m*3 1.5 C 0 km/h
1210 19-03-2009 02:09:37 1.4 C 2.99 g/m*3 1.4 C 0 km/h
1211 19-03-2009 02:21:37 1.3 C 2.97 g/m*3 1.3 C 0 km/h
1212 19-03-2009 02:33:37 1.2 C 3 g/m*3 1.2 C 0 km/h
1213 19-03-2009 02:45:38 0.9 C 2.99 g/m*3 0.9 C 0 km/h
1214 19-03-2009 02:57:38 0.7 C 3 g/m*3 0.7 C 0 km/h
1215 19-03-2009 03:09:38 0.6 C 3.03 g/m*3 0.6 C 0 km/h
1216 19-03-2009 03:21:38 0.5 C 3.01 g/m*3 0.5 C 0 km/h
1217 19-03-2009 03:33:38 0.4 C 2.99 g/m*3 0.4 C 0 km/h
1218 19-03-2009 03:45:38 0.2 C 3 g/m*3 0.2 C 0 km/h
1219 19-03-2009 03:57:38 0.1 C 2.98 g/m*3 0.1 C 0 km/h
1220 19-03-2009 04:09:38 0 C 3 g/m*3 0 C 0 km/h
1221 19-03-2009 04:21:38 -0.2 C 3.01 g/m*3 -0.2 C 0 km/h
1222 19-03-2009 04:33:38 -0.3 C 3.04 g/m*3 -0.3 C 0 km/h
1223 19-03-2009 04:45:38 -0.4 C 3.06 g/m*3 -0.4 C 0 km/h
1224 19-03-2009 04:57:38 -0.5 C 3.09 g/m*3 -0.5 C 0 km/h
1225 19-03-2009 05:09:38 -0.6 C 3.07 g/m*3 -0.6 C 0 km/h
Sensor: Nr:Datum:Temp:Abs-Feuchte:Windchill:Wind:
Aussen-T/F 1226 19-03-2009 05:21:38 -0.7 C 3.05 g/m*3 -0.7 C 0 km/h
1227 19-03-2009 05:33:38 -0.8 C 3.07 g/m*3 -0.8 C 0 km/h
1228 19-03-2009 05:45:38 -0.9 C 3.1 g/m*3 -0.9 C 0 km/h
1229 19-03-2009 05:57:38 -1.1 C 3.05 g/m*3 -1.1 C 0 km/h
1230 19-03-2009 06:09:38 -1.1 C 3.05 g/m*3 -1.1 C 0 km/h
1231 19-03-2009 06:21:38 -1.2 C 2.99 g/m*3 -1.2 C 0 km/h
1232 19-03-2009 06:33:39 -1.2 C 2.99 g/m*3 -1.2 C 0 km/h
1233 19-03-2009 06:45:39 -1.3 C 3.01 g/m*3 -1.3 C 0 km/h
1234 19-03-2009 06:57:39 -1.3 C 3.01 g/m*3 -1.3 C 0 km/h
1235 19-03-2009 07:09:36 -1.5 C 2.92 g/m*3 -1.5 C 0 km/h
1236 19-03-2009 07:21:36 -1.4 C 2.99 g/m*3 -1.4 C 0 km/h
1237 19-03-2009 07:33:35 -1.3 C 3.01 g/m*3 -1.3 C 0 km/h
1238 19-03-2009 07:45:35 -1.2 C 3.03 g/m*3 -1.2 C 0 km/h
1239 19-03-2009 07:57:35 -1.1 C 3.05 g/m*3 -1.1 C 0 km/h
1240 19-03-2009 08:09:35 -0.9 C 3.1 g/m*3 -0.9 C 0 km/h
1241 19-03-2009 08:21:35 -0.8 C 3.16 g/m*3 -0.8 C 0 km/h
1242 19-03-2009 08:33:35 -0.3 C 3.27 g/m*3 -0.3 C 0 km/h
1243 19-03-2009 08:45:35 0.4 C 3.34 g/m*3 0.4 C 0 km/h
1244 19-03-2009 08:57:35 0.9 C 3.3 g/m*3 0.9 C 0 km/h
1245 19-03-2009 09:09:35 1.6 C 3.24 g/m*3 1.6 C 0 km/h
1246 19-03-2009 09:21:34 1.9 C 3.2 g/m*3 1.9 C 0 km/h
1247 19-03-2009 09:33:34 2 C 2.95 g/m*3 2 C 0 km/h
1248 19-03-2009 09:45:34 2.2 C 2.93 g/m*3 2.2 C 0 km/h
1249 19-03-2009 09:57:34 2.5 C 3.1 g/m*3 2.5 C 0 km/h
1250 19-03-2009 10:09:34 2.8 C 3.11 g/m*3 2.8 C 0 km/h
Sensor: Nr:Datum:Temp:Abs-Feuchte:Windchill:Wind:
Aussen-T/F 1251 19-03-2009 10:21:34 3.2 C 3.01 g/m*3 3.2 C 0 km/h
1252 19-03-2009 10:33:34 4.1 C 3.14 g/m*3 4.1 C 0 km/h
1253 19-03-2009 10:45:34 4.6 C 3.11 g/m*3 4.6 C 0 km/h
1254 19-03-2009 10:57:34 5.3 C 3.12 g/m*3 5.3 C 0 km/h
1255 19-03-2009 11:09:33 5.6 C 3.11 g/m*3 5.6 C 0 km/h
1256 19-03-2009 11:21:34 6.5 C 3.15 g/m*3 6.5 C 0 km/h
1257 19-03-2009 11:33:33 6.5 C 3 g/m*3 6.5 C 0 km/h
1258 19-03-2009 11:45:33 7.1 C 3.2 g/m*3 7.1 C 0 km/h
1259 19-03-2009 11:57:33 7.3 C 3 g/m*3 7.3 C 0 km/h
1260 19-03-2009 12:09:32 7.6 C 3.06 g/m*3 7.6 C 0 km/h
1261 19-03-2009 12:21:33 8.7 C 2.94 g/m*3 8.7 C 0 km/h
1262 19-03-2009 12:33:33 9.5 C 2.46 g/m*3 9.5 C 0 km/h
1263 19-03-2009 12:45:32 9.8 C 2.32 g/m*3 9.8 C 0 km/h
1264 19-03-2009 12:57:32 9.9 C 2.33 g/m*3 9.9 C 0 km/h
1265 19-03-2009 13:09:33 10.7 C 2.26 g/m*3 10.7 C 0 km/h
1266 19-03-2009 13:21:32 11.1 C 2.01 g/m*3 11.1 C 0 km/h
1267 19-03-2009 13:33:32 11.9 C 2.22 g/m*3 11.9 C 0 km/h
1268 19-03-2009 13:45:32 13.5 C 2.34 g/m*3 13.5 C 0 km/h
1269 19-03-2009 13:57:32 14 C 2.41 g/m*3 14 C 0 km/h
1270 19-03-2009 14:09:32 14.2 C 2.44 g/m*3 14.2 C 0 km/h
1271 19-03-2009 14:21:31 14.7 C 2.52 g/m*3 14.7 C 0 km/h
1272 19-03-2009 14:33:31 14.3 C 2.46 g/m*3 14.3 C 0 km/h
1273 19-03-2009 14:45:32 15.7 C 2.68 g/m*3 15.7 C 0 km/h
1274 19-03-2009 14:57:32 15.8 C 2.69 g/m*3 15.8 C 0 km/h
1275 19-03-2009 15:09:31 14.4 C 2.47 g/m*3 14.4 C 0 km/h
Sensor: Nr:Datum:Temp:Abs-Feuchte:Windchill:Wind:
Aussen-T/F 1276 19-03-2009 15:21:31 15.2 C 2.6 g/m*3 15.2 C 0 km/h
1277 19-03-2009 15:33:30 15.2 C 2.6 g/m*3 15.2 C 0 km/h
1278 19-03-2009 15:45:31 16.5 C 2.81 g/m*3 16.5 C 0 km/h
1279 19-03-2009 15:57:31 15.1 C 2.58 g/m*3 15.1 C 0 km/h
1280 19-03-2009 16:09:30 13.8 C 2.38 g/m*3 13.8 C 0 km/h
1281 19-03-2009 16:21:30 13.2 C 2.3 g/m*3 13.2 C 0 km/h
1282 19-03-2009 16:33:31 13.5 C 2.34 g/m*3 13.5 C 0 km/h
1283 19-03-2009 16:45:30 12.7 C 2.23 g/m*3 12.7 C 0 km/h
1284 19-03-2009 16:57:30 12.4 C 2.19 g/m*3 12.4 C 0 km/h
1285 19-03-2009 17:09:30 12.3 C 2.17 g/m*3 12.3 C 0 km/h
1286 19-03-2009 17:21:30 12.5 C 2.2 g/m*3 12.5 C 0 km/h
1287 19-03-2009 17:33:30 12.5 C 2.2 g/m*3 12.5 C 0 km/h
1288 19-03-2009 17:45:29 11.8 C 2.1 g/m*3 11.8 C 0 km/h
1289 19-03-2009 17:57:29 11.1 C 2.01 g/m*3 11.1 C 0 km/h
1290 19-03-2009 18:09:30 10.9 C 1.99 g/m*3 10.9 C 0 km/h
1291 19-03-2009 18:21:29 10.2 C 1.9 g/m*3 10.2 C 0 km/h
1292 19-03-2009 18:33:29 9.8 C 1.86 g/m*3 9.8 C 0 km/h
1293 19-03-2009 18:45:28 9.3 C 1.8 g/m*3 9.3 C 0 km/h
1294 19-03-2009 18:57:28 8.9 C 2.28 g/m*3 8.9 C 0 km/h
1295 19-03-2009 19:09:29 8.8 C 2.26 g/m*3 8.8 C 0 km/h
1296 19-03-2009 19:21:29 8.3 C 2.36 g/m*3 8.3 C 0 km/h
1297 19-03-2009 19:33:28 7.9 C 2.46 g/m*3 7.9 C 0 km/h
1298 19-03-2009 19:45:29 7.6 C 2.42 g/m*3 7.6 C 0 km/h
1299 19-03-2009 19:57:29 7.4 C 2.47 g/m*3 7.4 C 0 km/h
1300 19-03-2009 20:09:28 7.4 C 2.47 g/m*3 7.4 C 0 km/h
Sensor: Nr:Datum:Temp:Abs-Feuchte:Windchill:Wind:
Aussen-T/F 1301 19-03-2009 20:21:29 7.2 C 2.51 g/m*3 7.2 C 0 km/h
1302 19-03-2009 20:33:28 6.9 C 2.69 g/m*3 6.9 C 0 km/h
1303 19-03-2009 20:45:27 6.7 C 2.74 g/m*3 6.7 C 0 km/h
1304 19-03-2009 20:57:27 6.3 C 2.81 g/m*3 6.3 C 0 km/h
1305 19-03-2009 21:09:27 6 C 2.69 g/m*3 6 C 0 km/h
1306 19-03-2009 21:21:28 5.8 C 2.72 g/m*3 5.8 C 0 km/h
1307 19-03-2009 21:33:27 5.6 C 2.76 g/m*3 5.6 C 0 km/h
1308 19-03-2009 21:45:27 5.3 C 2.77 g/m*3 5.3 C 0 km/h
1309 19-03-2009 21:57:27 5.1 C 2.74 g/m*3 5.1 C 0 km/h
1310 19-03-2009 22:09:28 4.9 C 2.84 g/m*3 4.9 C 0 km/h
1311 19-03-2009 22:22:28 4.7 C 2.86 g/m*3 4.7 C 0 km/h
1312 19-03-2009 22:34:28 4.5 C 2.76 g/m*3 4.5 C 0 km/h
1313 19-03-2009 22:46:28 4.2 C 2.84 g/m*3 4.2 C 0 km/h
1314 19-03-2009 22:58:28 4.1 C 2.75 g/m*3 4.1 C 0 km/h
1315 19-03-2009 23:10:28 3.7 C 2.93 g/m*3 3.7 C 0 km/h
1316 19-03-2009 23:22:28 3.6 C 2.91 g/m*3 3.6 C 0 km/h
1317 19-03-2009 23:34:29 3.5 C 2.89 g/m*3 3.5 C 0 km/h
1318 19-03-2009 23:46:29 3.3 C 2.91 g/m*3 3.3 C 0 km/h
1319 19-03-2009 23:58:29 3.1 C 2.93 g/m*3 3.1 C 0 km/h
1320 20-03-2009 00:10:29 2.9 C 3.01 g/m*3 2.9 C 0 km/h
1321 20-03-2009 00:22:29 2.7 C 3.09 g/m*3 2.7 C 0 km/h
1322 20-03-2009 00:34:29 2.5 C 3.1 g/m*3 2.5 C 0 km/h
1323 20-03-2009 00:46:29 2.4 C 3.08 g/m*3 2.4 C 0 km/h
1324 20-03-2009 00:58:29 2.3 C 3.12 g/m*3 2.3 C 0 km/h
1325 20-03-2009 01:10:29 2 C 3.11 g/m*3 2 C 0 km/h
Sensor: Nr:Datum:Temp:Abs-Feuchte:Windchill:Wind:
Aussen-T/F 1326 20-03-2009 01:22:29 1.9 C 3.2 g/m*3 1.9 C 0 km/h
1327 20-03-2009 01:34:29 1.8 C 3.23 g/m*3 1.8 C 0 km/h
1328 20-03-2009 01:46:29 1.4 C 3.15 g/m*3 1.4 C 0 km/h
1329 20-03-2009 01:58:29 1.3 C 3.18 g/m*3 1.3 C 0 km/h
1330 20-03-2009 02:10:29 1.1 C 3.14 g/m*3 1.1 C 0 km/h
1331 20-03-2009 02:22:29 0.8 C 3.17 g/m*3 0.8 C 0 km/h
1332 20-03-2009 02:34:29 0.5 C 3.06 g/m*3 0.5 C 0 km/h
1333 20-03-2009 02:46:29 0.4 C 3.14 g/m*3 0.4 C 0 km/h
1334 20-03-2009 02:58:29 0.2 C 3.09 g/m*3 0.2 C 0 km/h
1335 20-03-2009 03:10:29 0.1 C 3.12 g/m*3 0.1 C 0 km/h
1336 20-03-2009 03:22:29 0 C 3.15 g/m*3 0 C 0 km/h
1337 20-03-2009 03:34:30 0 C 3.15 g/m*3 0 C 0 km/h
1338 20-03-2009 03:46:30 -0.2 C 3.11 g/m*3 -0.2 C 0 km/h
1339 20-03-2009 03:58:30 -0.3 C 3.13 g/m*3 -0.3 C 0 km/h
1340 20-03-2009 04:10:30 -0.5 C 3.09 g/m*3 -0.5 C 0 km/h
1341 20-03-2009 04:22:30 -0.7 C 3.09 g/m*3 -0.7 C 0 km/h
1342 20-03-2009 04:34:30 -0.7 C 3.05 g/m*3 -0.7 C 0 km/h
1343 20-03-2009 04:46:30 -0.6 C 3.07 g/m*3 -0.6 C 0 km/h
1344 20-03-2009 04:58:30 -0.4 C 2.97 g/m*3 -0.4 C 0 km/h
1345 20-03-2009 05:10:30 -0.4 C 2.83 g/m*3 -0.4 C 0 km/h
1346 20-03-2009 05:22:30 -0.3 C 2.8 g/m*3 -0.3 C 0 km/h
1347 20-03-2009 05:34:30 -0.5 C 2.81 g/m*3 -0.5 C 0 km/h
1348 20-03-2009 05:46:30 -0.4 C 2.78 g/m*3 -0.4 C 0 km/h
1349 20-03-2009 05:58:30 -0.6 C 2.7 g/m*3 -0.6 C 0 km/h
1350 20-03-2009 06:10:30 -0.4 C 2.59 g/m*3 -0.4 C 0 km/h
Sensor: Nr:Datum:Temp:Abs-Feuchte:Windchill:Wind:
Aussen-T/F 1351 20-03-2009 06:22:30 -0.4 C 2.64 g/m*3 -0.4 C 0 km/h
1352 20-03-2009 06:34:30 -0.8 C 2.75 g/m*3 -0.8 C 0 km/h
1353 20-03-2009 06:46:27 -0.9 C 2.82 g/m*3 -0.9 C 0 km/h
1354 20-03-2009 06:58:27 -0.9 C 2.82 g/m*3 -0.9 C 0 km/h
1355 20-03-2009 07:10:27 -1.1 C 2.74 g/m*3 -1.1 C 0 km/h
1356 20-03-2009 07:22:28 -1.1 C 2.78 g/m*3 -1.1 C 0 km/h
1357 20-03-2009 07:34:27 -1 C 2.76 g/m*3 -1 C 0 km/h
1358 20-03-2009 07:46:27 -0.7 C 2.77 g/m*3 -0.7 C 0 km/h
1359 20-03-2009 07:58:27 -0.4 C 2.83 g/m*3 -0.4 C 0 km/h
1360 20-03-2009 08:10:27 -0.6 C 2.79 g/m*3 -0.6 C 0 km/h
1361 20-03-2009 08:22:27 -0.6 C 2.79 g/m*3 -0.6 C 0 km/h
1362 20-03-2009 08:34:26 -0.4 C 2.92 g/m*3 -0.4 C 0 km/h
1363 20-03-2009 08:46:26 -0.1 C 2.98 g/m*3 -0.1 C 0 km/h
1364 20-03-2009 08:58:26 0.3 C 2.87 g/m*3 0.3 C 0 km/h
1365 20-03-2009 09:10:26 0.8 C 2.87 g/m*3 0.8 C 0 km/h
1366 20-03-2009 09:22:26 1.5 C 2.79 g/m*3 1.5 C 0 km/h
1367 20-03-2009 09:34:26 2.5 C 2.59 g/m*3 2.5 C 0 km/h
1368 20-03-2009 09:46:25 3.1 C 2.69 g/m*3 3.1 C 0 km/h
1369 20-03-2009 09:58:25 3.5 C 2.77 g/m*3 3.5 C 0 km/h
1370 20-03-2009 10:10:26 3.9 C 2.53 g/m*3 3.9 C 0 km/h
1371 20-03-2009 10:22:26 4.6 C 2.12 g/m*3 4.6 C 0 km/h
1372 20-03-2009 10:34:25 5.1 C 1.71 g/m*3 5.1 C 0 km/h
1373 20-03-2009 10:46:25 5.6 C 1.41 g/m*3 5.6 C 0 km/h
1374 20-03-2009 10:58:25 6 C 1.45 g/m*3 6 C 0 km/h
1375 20-03-2009 11:10:25 6.4 C 1.49 g/m*3 6.4 C 0 km/h
Sensor: Nr:Datum:Temp:Abs-Feuchte:Windchill:Wind:
Aussen-T/F 1376 20-03-2009 11:22:25 6.4 C 1.49 g/m*3 6.4 C 0 km/h
1377 20-03-2009 11:34:24 6.4 C 1.49 g/m*3 6.4 C 0 km/h
1378 20-03-2009 11:46:25 6.8 C 1.53 g/m*3 6.8 C 0 km/h
1379 20-03-2009 11:58:25 7.7 C 1.62 g/m*3 7.7 C 0 km/h
1380 20-03-2009 12:10:24 7.9 C 1.64 g/m*3 7.9 C 0 km/h
1381 20-03-2009 12:22:24 7.9 C 1.64 g/m*3 7.9 C 0 km/h
1382 20-03-2009 12:34:24 8.5 C 1.71 g/m*3 8.5 C 0 km/h
1383 20-03-2009 12:46:24 8.7 C 1.73 g/m*3 8.7 C 0 km/h
1384 20-03-2009 12:58:24 9.3 C 1.8 g/m*3 9.3 C 0 km/h
1385 20-03-2009 13:10:24 9.2 C 1.79 g/m*3 9.2 C 0 km/h
1386 20-03-2009 13:22:23 9.2 C 1.79 g/m*3 9.2 C 0 km/h
1387 20-03-2009 13:34:24 9.5 C 1.82 g/m*3 9.5 C 0 km/h
1388 20-03-2009 13:46:23 9.8 C 1.86 g/m*3 9.8 C 0 km/h
1389 20-03-2009 13:58:23 10.5 C 1.94 g/m*3 10.5 C 0 km/h
1390 20-03-2009 14:10:23 11.3 C 2.04 g/m*3 11.3 C 0 km/h
1391 20-03-2009 14:22:24 11.4 C 2.05 g/m*3 11.4 C 0 km/h
1392 20-03-2009 14:34:23 11.6 C 2.08 g/m*3 11.6 C 0 km/h
1393 20-03-2009 14:46:23 12 C 2.13 g/m*3 12 C 0 km/h
1394 20-03-2009 14:58:23 12.4 C 2.19 g/m*3 12.4 C 0 km/h
1395 20-03-2009 15:10:22 10.4 C 1.93 g/m*3 10.4 C 0 km/h
1396 20-03-2009 15:22:23 12.5 C 2.2 g/m*3 12.5 C 0 km/h
1397 20-03-2009 15:34:22 13.1 C 2.28 g/m*3 13.1 C 0 km/h
1398 20-03-2009 15:46:22 12.4 C 2.19 g/m*3 12.4 C 0 km/h
1399 20-03-2009 15:58:23 13.2 C 2.3 g/m*3 13.2 C 0 km/h
1400 20-03-2009 16:10:22 13.9 C 2.4 g/m*3 13.9 C 0 km/h
Sensor: Nr:Datum:Temp:Abs-Feuchte:Windchill:Wind:
Aussen-T/F 1401 20-03-2009 16:22:22 13.8 C 2.38 g/m*3 13.8 C 0 km/h
1402 20-03-2009 16:34:22 14 C 2.41 g/m*3 14 C 0 km/h
1403 20-03-2009 16:46:22 14.1 C 2.43 g/m*3 14.1 C 0 km/h
1404 20-03-2009 16:58:22 14 C 2.41 g/m*3 14 C 0 km/h
1405 20-03-2009 17:10:22 13.8 C 2.38 g/m*3 13.8 C 0 km/h
1406 20-03-2009 17:22:21 13.8 C 2.38 g/m*3 13.8 C 0 km/h
1407 20-03-2009 17:34:21 13.7 C 2.37 g/m*3 13.7 C 0 km/h
1408 20-03-2009 17:46:21 13 C 2.27 g/m*3 13 C 0 km/h
1409 20-03-2009 17:58:21 12.4 C 2.19 g/m*3 12.4 C 0 km/h
1410 20-03-2009 18:10:21 11.8 C 2.1 g/m*3 11.8 C 0 km/h
1411 20-03-2009 18:22:21 10.8 C 1.98 g/m*3 10.8 C 0 km/h
1412 20-03-2009 18:34:21 9.5 C 1.82 g/m*3 9.5 C 0 km/h
1413 20-03-2009 18:46:21 8 C 1.65 g/m*3 8 C 0 km/h
1414 20-03-2009 18:58:21 7 C 1.55 g/m*3 7 C 0 km/h
1415 20-03-2009 19:10:20 6.1 C 1.68 g/m*3 6.1 C 0 km/h
1416 20-03-2009 19:22:20 5.6 C 1.91 g/m*3 5.6 C 0 km/h
1417 20-03-2009 19:34:20 5.3 C 1.94 g/m*3 5.3 C 0 km/h
1418 20-03-2009 19:46:20 5 C 2.04 g/m*3 5 C 0 km/h
1419 20-03-2009 19:58:20 4.6 C 1.99 g/m*3 4.6 C 0 km/h
1420 20-03-2009 20:10:19 4.4 C 2.15 g/m*3 4.4 C 0 km/h
1421 20-03-2009 20:22:20 4.1 C 2.3 g/m*3 4.1 C 0 km/h
1422 20-03-2009 20:34:20 4.1 C 2.24 g/m*3 4.1 C 0 km/h
1423 20-03-2009 20:46:19 3.9 C 2.27 g/m*3 3.9 C 0 km/h
1424 20-03-2009 20:58:19 3.6 C 2.29 g/m*3 3.6 C 0 km/h
1425 20-03-2009 21:10:19 3.5 C 2.4 g/m*3 3.5 C 0 km/h
Sensor: Nr:Datum:Temp:Abs-Feuchte:Windchill:Wind:
Aussen-T/F 1426 20-03-2009 21:22:19 3.3 C 2.37 g/m*3 3.3 C 0 km/h
1427 20-03-2009 21:34:18 3.1 C 2.39 g/m*3 3.1 C 0 km/h
1428 20-03-2009 21:46:19 2.8 C 2.41 g/m*3 2.8 C 0 km/h
1429 20-03-2009 21:58:19 2.7 C 2.45 g/m*3 2.7 C 0 km/h
1430 20-03-2009 22:10:19 2.4 C 2.4 g/m*3 2.4 C 0 km/h
1431 20-03-2009 22:22:18 2.3 C 2.55 g/m*3 2.3 C 0 km/h
1432 20-03-2009 22:34:19 2 C 2.5 g/m*3 2 C 0 km/h
1433 20-03-2009 22:46:18 1.8 C 2.52 g/m*3 1.8 C 0 km/h
1434 20-03-2009 22:58:18 1.6 C 2.43 g/m*3 1.6 C 0 km/h
1435 20-03-2009 23:10:18 1.4 C 2.45 g/m*3 1.4 C 0 km/h
1436 20-03-2009 23:22:18 1.2 C 2.47 g/m*3 1.2 C 0 km/h
1437 20-03-2009 23:34:18 1.2 C 2.47 g/m*3 1.2 C 0 km/h
1438 20-03-2009 23:46:17 0.9 C 2.53 g/m*3 0.9 C 0 km/h
1439 20-03-2009 23:58:17 0.7 C 2.59 g/m*3 0.7 C 0 km/h
1440 21-03-2009 00:10:17 0.5 C 2.61 g/m*3 0.5 C 0 km/h
1441 21-03-2009 00:22:18 0.4 C 2.59 g/m*3 0.4 C 0 km/h
1442 21-03-2009 00:34:17 0.2 C 2.51 g/m*3 0.2 C 0 km/h
1443 21-03-2009 00:46:17 0.2 C 2.51 g/m*3 0.2 C 0 km/h
1444 21-03-2009 00:58:17 0.1 C 2.59 g/m*3 0.1 C 0 km/h
1445 21-03-2009 01:10:17 -0.1 C 2.55 g/m*3 -0.1 C 0 km/h
1446 21-03-2009 01:22:17 -0.2 C 2.48 g/m*3 -0.2 C 0 km/h
1447 21-03-2009 01:34:17 -0.4 C 2.5 g/m*3 -0.4 C 0 km/h
1448 21-03-2009 01:46:16 -0.4 C 2.54 g/m*3 -0.4 C 0 km/h
1449 21-03-2009 01:58:16 -0.5 C 2.48 g/m*3 -0.5 C 0 km/h
1450 21-03-2009 02:10:17 -0.6 C 2.51 g/m*3 -0.6 C 0 km/h
Sensor: Nr:Datum:Temp:Abs-Feuchte:Windchill:Wind:
Aussen-T/F 1451 21-03-2009 02:22:16 -0.6 C 2.56 g/m*3 -0.6 C 0 km/h
1452 21-03-2009 02:34:16 -0.7 C 2.54 g/m*3 -0.7 C 0 km/h
1453 21-03-2009 02:47:01 -0.9 C 2.55 g/m*3 -0.9 C 0 km/h
1454 21-03-2009 02:59:01 -0.9 C 2.55 g/m*3 -0.9 C 0 km/h
1455 21-03-2009 03:11:02 -1 C 2.53 g/m*3 -1 C 0 km/h
1456 21-03-2009 03:23:02 -1.3 C 2.48 g/m*3 -1.3 C 0 km/h
1457 21-03-2009 03:35:01 -1.4 C 2.51 g/m*3 -1.4 C 0 km/h
1458 21-03-2009 03:47:01 -1.4 C 2.51 g/m*3 -1.4 C 0 km/h
1459 21-03-2009 03:59:01 -1.5 C 2.49 g/m*3 -1.5 C 0 km/h
1460 21-03-2009 04:11:02 -1.5 C 2.49 g/m*3 -1.5 C 0 km/h
1461 21-03-2009 04:23:01 -1.4 C 2.59 g/m*3 -1.4 C 0 km/h
1462 21-03-2009 04:35:01 -1.4 C 2.55 g/m*3 -1.4 C 0 km/h
1463 21-03-2009 04:47:01 -1.3 C 2.57 g/m*3 -1.3 C 0 km/h
1464 21-03-2009 04:59:01 -1.1 C 2.65 g/m*3 -1.1 C 0 km/h
1465 21-03-2009 05:11:02 -1.1 C 2.65 g/m*3 -1.1 C 0 km/h
1466 21-03-2009 05:23:01 -1.3 C 2.57 g/m*3 -1.3 C 0 km/h
1467 21-03-2009 05:35:02 -1.4 C 2.64 g/m*3 -1.4 C 0 km/h
1468 21-03-2009 05:47:02 -1.6 C 2.6 g/m*3 -1.6 C 0 km/h
1469 21-03-2009 05:59:02 -1.7 C 2.58 g/m*3 -1.7 C 0 km/h
1470 21-03-2009 06:11:01 -1.9 C 2.55 g/m*3 -1.9 C 0 km/h
1471 21-03-2009 06:23:01 -2.1 C 2.51 g/m*3 -2.1 C 0 km/h
1472 21-03-2009 06:35:02 -2.1 C 2.6 g/m*3 -2.1 C 0 km/h
1473 21-03-2009 06:47:01 -2.1 C 2.64 g/m*3 -2.1 C 0 km/h
1474 21-03-2009 06:59:01 -2.1 C 2.6 g/m*3 -2.1 C 0 km/h
1475 21-03-2009 07:11:02 -2.1 C 2.64 g/m*3 -2.1 C 0 km/h
Sensor: Nr:Datum:Temp:Abs-Feuchte:Windchill:Wind:
Aussen-T/F 1476 21-03-2009 07:23:01 -2.1 C 2.64 g/m*3 -2.1 C 0 km/h
1477 21-03-2009 07:35:02 -2 C 2.66 g/m*3 -2 C 0 km/h
1478 21-03-2009 07:47:01 -2 C 2.7 g/m*3 -2 C 0 km/h
1479 21-03-2009 07:59:01 -1.9 C 2.76 g/m*3 -1.9 C 0 km/h
1480 21-03-2009 08:11:01 -1.8 C 2.74 g/m*3 -1.8 C 0 km/h
1481 21-03-2009 08:23:01 -1.7 C 2.76 g/m*3 -1.7 C 0 km/h
1482 21-03-2009 08:35:01 -1.6 C 2.69 g/m*3 -1.6 C 0 km/h
1483 21-03-2009 08:47:02 -1.4 C 2.68 g/m*3 -1.4 C 0 km/h
1484 21-03-2009 08:59:02 -1 C 2.71 g/m*3 -1 C 0 km/h
1485 21-03-2009 09:11:01 -0.3 C 2.8 g/m*3 -0.3 C 0 km/h
1486 21-03-2009 09:23:02 0.2 C 2.75 g/m*3 0.2 C 0 km/h
1487 21-03-2009 09:35:01 0.9 C 2.63 g/m*3 0.9 C 0 km/h
1488 21-03-2009 09:47:02 1.7 C 2.56 g/m*3 1.7 C 0 km/h
1489 21-03-2009 09:59:02 1.9 C 2.59 g/m*3 1.9 C 0 km/h
1490 21-03-2009 10:11:01 2.8 C 2.64 g/m*3 2.8 C 0 km/h
1491 21-03-2009 10:23:01 3.2 C 2.59 g/m*3 3.2 C 0 km/h
1492 21-03-2009 10:35:02 3.9 C 2.65 g/m*3 3.9 C 0 km/h
1493 21-03-2009 10:47:01 4.5 C 2.56 g/m*3 4.5 C 0 km/h
1494 21-03-2009 10:59:01 4.8 C 2.48 g/m*3 4.8 C 0 km/h
1495 21-03-2009 11:11:02 5.2 C 2.48 g/m*3 5.2 C 0 km/h
1496 21-03-2009 11:23:01 5.7 C 2.35 g/m*3 5.7 C 0 km/h
1497 21-03-2009 11:35:02 6.2 C 2.21 g/m*3 6.2 C 0 km/h
1498 21-03-2009 11:47:01 6.7 C 2.2 g/m*3 6.7 C 0 km/h
1499 21-03-2009 11:59:01 7.3 C 1.58 g/m*3 7.3 C 0 km/h
1500 21-03-2009 12:11:02 7.8 C 2.04 g/m*3 7.8 C 0 km/h
Sensor: Nr:Datum:Temp:Abs-Feuchte:Windchill:Wind:
Aussen-T/F 1501 21-03-2009 12:23:01 8.1 C 1.91 g/m*3 8.1 C 0 km/h
1502 21-03-2009 12:35:01 8.9 C 1.75 g/m*3 8.9 C 0 km/h
1503 21-03-2009 12:47:01 9.3 C 1.8 g/m*3 9.3 C 0 km/h
1504 21-03-2009 12:59:01 9.7 C 1.84 g/m*3 9.7 C 0 km/h
1505 21-03-2009 13:11:01 10.1 C 1.89 g/m*3 10.1 C 0 km/h
1506 21-03-2009 13:23:02 10.5 C 1.94 g/m*3 10.5 C 0 km/h
1507 21-03-2009 13:35:01 11.4 C 2.05 g/m*3 11.4 C 0 km/h
1508 21-03-2009 13:47:02 12 C 2.13 g/m*3 12 C 0 km/h
1509 21-03-2009 13:59:02 12.4 C 2.19 g/m*3 12.4 C 0 km/h
1510 21-03-2009 14:11:01 12.7 C 2.23 g/m*3 12.7 C 0 km/h
1511 21-03-2009 14:23:01 12.2 C 2.16 g/m*3 12.2 C 0 km/h
1512 21-03-2009 14:35:01 13.4 C 2.32 g/m*3 13.4 C 0 km/h
1513 21-03-2009 14:47:01 13.7 C 2.37 g/m*3 13.7 C 0 km/h
1514 21-03-2009 14:59:01 14.4 C 2.47 g/m*3 14.4 C 0 km/h
1515 21-03-2009 15:11:02 14.9 C 2.55 g/m*3 14.9 C 0 km/h
1516 21-03-2009 15:23:01 15.2 C 2.6 g/m*3 15.2 C 0 km/h
1517 21-03-2009 15:35:02 15.1 C 2.58 g/m*3 15.1 C 0 km/h
1518 21-03-2009 15:47:01 15.8 C 2.69 g/m*3 15.8 C 0 km/h
1519 21-03-2009 15:59:01 14.4 C 2.47 g/m*3 14.4 C 0 km/h
1520 21-03-2009 16:11:02 14.4 C 2.47 g/m*3 14.4 C 0 km/h
1521 21-03-2009 16:23:01 15.5 C 2.64 g/m*3 15.5 C 0 km/h
1522 21-03-2009 16:35:01 16.4 C 2.79 g/m*3 16.4 C 0 km/h
1523 21-03-2009 16:47:01 16.7 C 2.84 g/m*3 16.7 C 0 km/h
1524 21-03-2009 16:59:01 15.9 C 2.71 g/m*3 15.9 C 0 km/h
1525 21-03-2009 17:11:01 15.6 C 2.66 g/m*3 15.6 C 0 km/h
Sensor: Nr:Datum:Temp:Abs-Feuchte:Windchill:Wind:
Aussen-T/F 1526 21-03-2009 17:23:02 15.2 C 2.6 g/m*3 15.2 C 0 km/h
1527 21-03-2009 17:35:01 15 C 2.56 g/m*3 15 C 0 km/h
1528 21-03-2009 17:47:02 14.6 C 2.5 g/m*3 14.6 C 0 km/h
1529 21-03-2009 17:59:02 14 C 2.41 g/m*3 14 C 0 km/h
1530 21-03-2009 18:11:01 12.3 C 2.17 g/m*3 12.3 C 0 km/h
1531 21-03-2009 18:23:01 11.7 C 2.09 g/m*3 11.7 C 0 km/h
1532 21-03-2009 18:35:01 11.1 C 2.01 g/m*3 11.1 C 0 km/h
1533 21-03-2009 18:47:01 10.2 C 1.9 g/m*3 10.2 C 0 km/h
1534 21-03-2009 18:59:01 9.7 C 1.84 g/m*3 9.7 C 0 km/h
1535 21-03-2009 19:11:01 9.3 C 2.25 g/m*3 9.3 C 0 km/h
1536 21-03-2009 19:23:02 9 C 2.38 g/m*3 9 C 0 km/h
1537 21-03-2009 19:35:01 8.7 C 2.59 g/m*3 8.7 C 0 km/h
1538 21-03-2009 19:47:02 8.4 C 2.63 g/m*3 8.4 C 0 km/h
1539 21-03-2009 19:59:02 8 C 2.65 g/m*3 8 C 0 km/h
1540 21-03-2009 20:11:01 7.9 C 2.71 g/m*3 7.9 C 0 km/h
1541 21-03-2009 20:23:02 7.8 C 2.77 g/m*3 7.8 C 0 km/h
1542 21-03-2009 20:35:01 7.6 C 2.82 g/m*3 7.6 C 0 km/h
1543 21-03-2009 20:47:02 7.4 C 2.86 g/m*3 7.4 C 0 km/h
1544 21-03-2009 20:59:02 7.1 C 2.96 g/m*3 7.1 C 0 km/h
1545 21-03-2009 21:11:01 6.9 C 2.93 g/m*3 6.9 C 0 km/h
1546 21-03-2009 21:23:02 6.6 C 3.02 g/m*3 6.6 C 0 km/h
1547 21-03-2009 21:35:01 6.4 C 3.05 g/m*3 6.4 C 0 km/h
1548 21-03-2009 21:47:02 6 C 3.12 g/m*3 6 C 0 km/h
1549 21-03-2009 21:59:02 5.6 C 3.18 g/m*3 5.6 C 0 km/h
1550 21-03-2009 22:11:44 5.2 C 3.17 g/m*3 5.2 C 0 km/h
Sensor: Nr:Datum:Temp:Abs-Feuchte:Windchill:Wind:
Aussen-T/F 1551 21-03-2009 22:23:44 4.9 C 3.24 g/m*3 4.9 C 0 km/h
1552 21-03-2009 22:35:01 4.7 C 3.2 g/m*3 4.7 C 0 km/h
1553 21-03-2009 22:47:07 4.5 C 3.16 g/m*3 4.5 C 0 km/h
1554 21-03-2009 22:59:07 4.3 C 3.11 g/m*3 4.3 C 0 km/h
1555 21-03-2009 23:11:07 4.3 C 2.98 g/m*3 4.3 C 0 km/h
1556 21-03-2009 23:23:07 4.1 C 3.01 g/m*3 4.1 C 0 km/h
1557 21-03-2009 23:35:07 3.9 C 3.03 g/m*3 3.9 C 0 km/h
1558 21-03-2009 23:47:07 3.6 C 3.03 g/m*3 3.6 C 0 km/h
1559 21-03-2009 23:59:07 3.4 C 3.05 g/m*3 3.4 C 0 km/h
1560 22-03-2009 00:11:07 3.2 C 3.07 g/m*3 3.2 C 0 km/h
1561 22-03-2009 00:23:07 3 C 3.03 g/m*3 3 C 0 km/h
1562 22-03-2009 00:35:07 2.8 C 3.11 g/m*3 2.8 C 0 km/h
1563 22-03-2009 00:47:07 2.6 C 3.07 g/m*3 2.6 C 0 km/h
1564 22-03-2009 00:59:07 2.5 C 3.05 g/m*3 2.5 C 0 km/h
1565 22-03-2009 01:11:07 2.4 C 3.08 g/m*3 2.4 C 0 km/h
1566 22-03-2009 01:23:07 2.2 C 3.04 g/m*3 2.2 C 0 km/h
1567 22-03-2009 01:35:07 2 C 3.06 g/m*3 2 C 0 km/h
1568 22-03-2009 01:47:07 2 C 3.06 g/m*3 2 C 0 km/h
1569 22-03-2009 01:59:07 1.9 C 3.09 g/m*3 1.9 C 0 km/h
1570 22-03-2009 02:11:07 1.8 C 3.12 g/m*3 1.8 C 0 km/h
1571 22-03-2009 02:23:08 1.5 C 3.12 g/m*3 1.5 C 0 km/h
1572 22-03-2009 02:35:08 1.4 C 3.15 g/m*3 1.4 C 0 km/h
1573 22-03-2009 02:47:08 1.2 C 3.1 g/m*3 1.2 C 0 km/h
1574 22-03-2009 02:59:08 1.1 C 3.14 g/m*3 1.1 C 0 km/h
1575 22-03-2009 03:11:08 1.4 C 3.09 g/m*3 1.4 C 0 km/h
Sensor: Nr:Datum:Temp:Abs-Feuchte:Windchill:Wind:
Aussen-T/F 1576 22-03-2009 03:23:08 1.4 C 3.04 g/m*3 1.4 C 0 km/h
1577 22-03-2009 03:35:08 1.1 C 3.03 g/m*3 1.1 C 0 km/h
1578 22-03-2009 03:47:08 0.9 C 3.09 g/m*3 0.9 C 0 km/h
1579 22-03-2009 03:59:08 0.7 C 3.1 g/m*3 0.7 C 0 km/h
1580 22-03-2009 04:11:08 0.5 C 3.16 g/m*3 0.5 C 0 km/h
1581 22-03-2009 04:23:08 0.6 C 3.13 g/m*3 0.6 C 0 km/h
1582 22-03-2009 04:35:08 0.6 C 3.08 g/m*3 0.6 C 0 km/h
1583 22-03-2009 04:47:08 0.6 C 3.13 g/m*3 0.6 C 0 km/h
1584 22-03-2009 04:59:08 0.3 C 3.07 g/m*3 0.3 C 0 km/h
1585 22-03-2009 05:11:08 0.1 C 3.12 g/m*3 0.1 C 0 km/h
1586 22-03-2009 05:23:08 0.1 C 3.12 g/m*3 0.1 C 0 km/h
1587 22-03-2009 05:35:08 0.3 C 3.12 g/m*3 0.3 C 0 km/h
1588 22-03-2009 05:47:08 -0.1 C 3.08 g/m*3 -0.1 C 0 km/h
1589 22-03-2009 05:59:08 -0.3 C 3.13 g/m*3 -0.3 C 0 km/h
1590 22-03-2009 06:11:08 -0.4 C 3.16 g/m*3 -0.4 C 0 km/h
1591 22-03-2009 06:23:08 -0.4 C 3.2 g/m*3 -0.4 C 0 km/h
1592 22-03-2009 06:35:09 -0.4 C 3.2 g/m*3 -0.4 C 0 km/h
1593 22-03-2009 06:47:09 -0.4 C 3.2 g/m*3 -0.4 C 0 km/h
1594 22-03-2009 06:59:09 -0.3 C 3.27 g/m*3 -0.3 C 0 km/h
1595 22-03-2009 07:11:07 -0.3 C 3.23 g/m*3 -0.3 C 0 km/h
1596 22-03-2009 07:23:07 0 C 3.29 g/m*3 0 C 0 km/h
1597 22-03-2009 07:35:07 0.3 C 3.31 g/m*3 0.3 C 0 km/h
1598 22-03-2009 07:47:06 0.7 C 3.41 g/m*3 0.7 C 0 km/h
1599 22-03-2009 07:59:06 1 C 3.43 g/m*3 1 C 0 km/h
1600 22-03-2009 08:11:07 1.1 C 3.5 g/m*3 1.1 C 0 km/h
Sensor: Nr:Datum:Temp:Abs-Feuchte:Windchill:Wind:
Aussen-T/F 1601 22-03-2009 08:23:06 1.1 C 3.5 g/m*3 1.1 C 0 km/h
1602 22-03-2009 08:35:06 1.4 C 3.57 g/m*3 1.4 C 0 km/h
1603 22-03-2009 08:47:06 1.6 C 3.57 g/m*3 1.6 C 0 km/h
1604 22-03-2009 08:59:06 1.7 C 3.7 g/m*3 1.7 C 0 km/h
1605 22-03-2009 09:11:06 1.8 C 3.78 g/m*3 1.8 C 0 km/h
1606 22-03-2009 09:23:06 1.9 C 3.97 g/m*3 1.9 C 0 km/h
1607 22-03-2009 09:35:05 2.1 C 4.03 g/m*3 2.1 C 0 km/h
1608 22-03-2009 09:47:06 2.3 C 4.03 g/m*3 2.3 C 0 km/h
1609 22-03-2009 09:59:06 2.1 C 3.86 g/m*3 2.1 C 0 km/h
1610 22-03-2009 10:11:05 2.5 C 4.02 g/m*3 2.5 C 0 km/h
1611 22-03-2009 10:23:05 2.5 C 3.97 g/m*3 2.5 C 0 km/h
1612 22-03-2009 10:35:05 2.7 C 4.02 g/m*3 2.7 C 0 km/h
1613 22-03-2009 10:47:05 2.8 C 3.99 g/m*3 2.8 C 0 km/h
1614 22-03-2009 10:59:05 3.1 C 4.01 g/m*3 3.1 C 0 km/h
1615 22-03-2009 11:11:04 3.3 C 4 g/m*3 3.3 C 0 km/h
1616 22-03-2009 11:23:05 3.7 C 4.05 g/m*3 3.7 C 0 km/h
1617 22-03-2009 11:35:04 4.1 C 4.16 g/m*3 4.1 C 0 km/h
1618 22-03-2009 11:47:04 4.4 C 4.31 g/m*3 4.4 C 0 km/h
1619 22-03-2009 11:59:04 5 C 4.69 g/m*3 5 C 0 km/h
1620 22-03-2009 12:11:04 5.8 C 5.37 g/m*3 5.8 C 0 km/h
1621 22-03-2009 12:23:04 6.2 C 5.44 g/m*3 6.2 C 0 km/h
1622 22-03-2009 12:35:04 6.7 C 5.47 g/m*3 6.7 C 0 km/h
1623 22-03-2009 12:47:04 7 C 5.27 g/m*3 7 C 0 km/h
1624 22-03-2009 12:59:04 7.7 C 5.35 g/m*3 7.7 C 0 km/h
1625 22-03-2009 13:11:04 8.3 C 5.14 g/m*3 8.3 C 0 km/h
Sensor: Nr:Datum:Temp:Abs-Feuchte:Windchill:Wind:
Aussen-T/F 1626 22-03-2009 13:23:03 8.9 C 4.56 g/m*3 8.9 C 0 km/h
1627 22-03-2009 13:35:03 9.5 C 4.28 g/m*3 9.5 C 0 km/h
1628 22-03-2009 13:47:03 9.5 C 4.19 g/m*3 9.5 C 0 km/h
1629 22-03-2009 13:59:03 9 C 4.14 g/m*3 9 C 0 km/h
1630 22-03-2009 14:11:03 9.5 C 4.1 g/m*3 9.5 C 0 km/h
1631 22-03-2009 14:23:03 9.3 C 4.04 g/m*3 9.3 C 0 km/h
1632 22-03-2009 14:35:02 9.6 C 4.03 g/m*3 9.6 C 0 km/h
1633 22-03-2009 14:47:03 9.9 C 3.92 g/m*3 9.9 C 0 km/h
1634 22-03-2009 14:59:03 10 C 3.76 g/m*3 10 C 0 km/h
1635 22-03-2009 15:11:02 10.3 C 3.83 g/m*3 10.3 C 0 km/h
1636 22-03-2009 15:23:02 10.4 C 3.76 g/m*3 10.4 C 0 km/h
1637 22-03-2009 15:35:02 10.2 C 3.81 g/m*3 10.2 C 0 km/h
1638 22-03-2009 15:47:02 10.4 C 3.76 g/m*3 10.4 C 0 km/h
1639 22-03-2009 15:59:02 10 C 3.57 g/m*3 10 C 0 km/h
1640 22-03-2009 16:11:02 10.2 C 3.71 g/m*3 10.2 C 0 km/h
1641 22-03-2009 16:23:01 10.2 C 3.71 g/m*3 10.2 C 0 km/h
1642 22-03-2009 16:35:02 10.5 C 3.69 g/m*3 10.5 C 0 km/h
1643 22-03-2009 16:47:01 10.7 C 3.54 g/m*3 10.7 C 0 km/h
1644 22-03-2009 16:59:01 10.4 C 3.47 g/m*3 10.4 C 0 km/h
1645 22-03-2009 17:11:01 10.7 C 3.54 g/m*3 10.7 C 0 km/h
1646 22-03-2009 17:23:01 10.5 C 3.59 g/m*3 10.5 C 0 km/h
1647 22-03-2009 17:35:01 10.3 C 3.54 g/m*3 10.3 C 0 km/h
1648 22-03-2009 17:47:01 10 C 3.57 g/m*3 10 C 0 km/h
1649 22-03-2009 17:59:01 9.9 C 3.64 g/m*3 9.9 C 0 km/h
1650 22-03-2009 18:11:00 9.7 C 3.69 g/m*3 9.7 C 0 km/h
Sensor: Nr:Datum:Temp:Abs-Feuchte:Windchill:Wind:
Aussen-T/F 1651 22-03-2009 18:23:01 9.7 C 3.69 g/m*3 9.7 C 0 km/h
1652 22-03-2009 18:35:00 9.5 C 3.64 g/m*3 9.5 C 0 km/h
1653 22-03-2009 18:47:00 9.3 C 3.68 g/m*3 9.3 C 0 km/h
1654 22-03-2009 18:59:00 9.3 C 3.68 g/m*3 9.3 C 0 km/h
1655 22-03-2009 19:11:00 9.1 C 3.64 g/m*3 9.1 C 0 km/h
1656 22-03-2009 19:23:00 8.9 C 3.77 g/m*3 8.9 C 0 km/h
1657 22-03-2009 19:35:00 8.9 C 3.77 g/m*3 8.9 C 0 km/h
1658 22-03-2009 19:58:59 8.6 C 3.78 g/m*3 8.6 C 0 km/h
1659 22-03-2009 19:59:00 8.4 C 3.82 g/m*3 8.4 C 0 km/h
1660 22-03-2009 20:11:00 8.4 C 3.82 g/m*3 8.4 C 0 km/h
1661 22-03-2009 20:23:59 8.4 C 3.82 g/m*3 8.4 C 0 km/h
1662 22-03-2009 20:35:59 8.4 C 3.82 g/m*3 8.4 C 0 km/h
1663 22-03-2009 20:47:59 8.4 C 3.82 g/m*3 8.4 C 0 km/h
1664 22-03-2009 20:59:58 8.5 C 3.84 g/m*3 8.5 C 0 km/h
1665 22-03-2009 21:11:58 8.4 C 3.82 g/m*3 8.4 C 0 km/h
1666 22-03-2009 21:23:59 8.3 C 3.88 g/m*3 8.3 C 0 km/h
1667 22-03-2009 21:35:59 8.2 C 3.85 g/m*3 8.2 C 0 km/h
1668 22-03-2009 21:47:59 8.1 C 3.83 g/m*3 8.1 C 0 km/h
1669 22-03-2009 22:00:59 8 C 3.89 g/m*3 8 C 0 km/h
1670 22-03-2009 22:12:59 7.7 C 4.3 g/m*3 7.7 C 0 km/h
1671 22-03-2009 22:24:59 7.7 C 4.38 g/m*3 7.7 C 0 km/h
1672 22-03-2009 22:36:59 7.5 C 4.64 g/m*3 7.5 C 0 km/h
1673 22-03-2009 22:48:59 7.3 C 4.66 g/m*3 7.3 C 0 km/h
1674 22-03-2009 23:00:59 7.5 C 4.64 g/m*3 7.5 C 0 km/h
1675 22-03-2009 23:12:59 7.5 C 4.56 g/m*3 7.5 C 0 km/h
Sensor: Nr:Datum:Temp:Abs-Feuchte:Windchill:Wind:
Aussen-T/F 1676 22-03-2009 23:24:59 7.6 C 4.59 g/m*3 7.6 C 0 km/h
1677 22-03-2009 23:37:00 7.5 C 4.72 g/m*3 7.5 C 0 km/h
1678 22-03-2009 23:49:00 7.6 C 4.67 g/m*3 7.6 C 0 km/h
1679 23-03-2009 00:01:00 7.5 C 4.64 g/m*3 7.5 C 0 km/h
1680 23-03-2009 00:13:00 7.5 C 4.64 g/m*3 7.5 C 0 km/h
1681 23-03-2009 00:24:00 7.5 C 4.64 g/m*3 7.5 C 0 km/h
1682 23-03-2009 00:36:00 7.5 C 4.72 g/m*3 7.5 C 0 km/h
1683 23-03-2009 00:48:00 7.5 C 4.72 g/m*3 7.5 C 0 km/h
1684 23-03-2009 01:00:00 7.5 C 4.72 g/m*3 7.5 C 0 km/h
1685 23-03-2009 01:12:00 7.5 C 4.64 g/m*3 7.5 C 0 km/h
1686 23-03-2009 01:24:00 7.5 C 4.64 g/m*3 7.5 C 0 km/h
1687 23-03-2009 01:36:00 7.6 C 4.67 g/m*3 7.6 C 0 km/h
1688 23-03-2009 01:48:00 7.6 C 4.67 g/m*3 7.6 C 0 km/h
1689 23-03-2009 02:00:00 7.6 C 4.67 g/m*3 7.6 C 0 km/h
1690 23-03-2009 02:12:00 7.5 C 4.64 g/m*3 7.5 C 0 km/h
1691 23-03-2009 02:24:00 7.5 C 4.72 g/m*3 7.5 C 0 km/h
1692 23-03-2009 02:36:00 7.6 C 4.75 g/m*3 7.6 C 0 km/h
1693 23-03-2009 02:48:00 7.6 C 4.75 g/m*3 7.6 C 0 km/h
1694 23-03-2009 03:00:00 7.7 C 4.78 g/m*3 7.7 C 0 km/h
1695 23-03-2009 03:12:00 7.6 C 4.75 g/m*3 7.6 C 0 km/h
1696 23-03-2009 03:24:00 7.5 C 4.72 g/m*3 7.5 C 0 km/h
1697 23-03-2009 03:36:01 7.5 C 4.72 g/m*3 7.5 C 0 km/h
1698 23-03-2009 03:48:01 7.6 C 4.75 g/m*3 7.6 C 0 km/h
1699 23-03-2009 04:00:01 7.7 C 4.87 g/m*3 7.7 C 0 km/h
1700 23-03-2009 04:12:01 7.9 C 4.93 g/m*3 7.9 C 0 km/h
Sensor: Nr:Datum:Temp:Abs-Feuchte:Windchill:Wind:
Aussen-T/F 1701 23-03-2009 04:24:01 7.8 C 4.9 g/m*3 7.8 C 0 km/h
1702 23-03-2009 04:36:01 7.8 C 4.9 g/m*3 7.8 C 0 km/h
1703 23-03-2009 04:48:01 7.8 C 4.9 g/m*3 7.8 C 0 km/h
1704 23-03-2009 05:00:01 7.8 C 4.9 g/m*3 7.8 C 0 km/h
1705 23-03-2009 05:12:01 7.8 C 4.9 g/m*3 7.8 C 0 km/h
1706 23-03-2009 05:24:01 7.8 C 4.9 g/m*3 7.8 C 0 km/h
1707 23-03-2009 05:36:01 7.8 C 4.9 g/m*3 7.8 C 0 km/h
1708 23-03-2009 05:48:01 7.9 C 4.85 g/m*3 7.9 C 0 km/h
1709 23-03-2009 06:00:01 7.7 C 4.87 g/m*3 7.7 C 0 km/h
1710 23-03-2009 06:12:01 7.6 C 4.83 g/m*3 7.6 C 0 km/h
1711 23-03-2009 06:24:01 7.6 C 4.83 g/m*3 7.6 C 0 km/h
1712 23-03-2009 06:36:01 7.5 C 4.8 g/m*3 7.5 C 0 km/h
1713 23-03-2009 06:48:01 7.5 C 4.88 g/m*3 7.5 C 0 km/h
1714 23-03-2009 07:00:59 7.6 C 4.83 g/m*3 7.6 C 0 km/h
1715 23-03-2009 07:12:59 7.6 C 4.83 g/m*3 7.6 C 0 km/h
1716 23-03-2009 07:24:59 7.6 C 4.91 g/m*3 7.6 C 0 km/h
1717 23-03-2009 07:36:59 7.6 C 4.83 g/m*3 7.6 C 0 km/h
1718 23-03-2009 07:48:58 7.7 C 4.87 g/m*3 7.7 C 0 km/h
1719 23-03-2009 08:00:59 7.9 C 4.93 g/m*3 7.9 C 0 km/h
1720 23-03-2009 08:12:59 8 C 4.8 g/m*3 8 C 0 km/h
1721 23-03-2009 08:24:58 8.1 C 4.83 g/m*3 8.1 C 0 km/h
1722 23-03-2009 08:36:58 8.1 C 4.83 g/m*3 8.1 C 0 km/h
1723 23-03-2009 08:48:57 8.2 C 4.86 g/m*3 8.2 C 0 km/h
1724 23-03-2009 09:00:58 8.2 C 4.86 g/m*3 8.2 C 0 km/h
1725 23-03-2009 09:12:58 8.2 C 4.86 g/m*3 8.2 C 0 km/h
Sensor: Nr:Datum:Temp:Abs-Feuchte:Windchill:Wind:
Aussen-T/F 1726 23-03-2009 09:24:58 8.3 C 4.89 g/m*3 8.3 C 0 km/h
1727 23-03-2009 09:36:57 8.4 C 4.75 g/m*3 8.4 C 0 km/h
1728 23-03-2009 09:48:58 8.7 C 4.76 g/m*3 8.7 C 0 km/h
1729 23-03-2009 10:00:57 8.9 C 4.56 g/m*3 8.9 C 0 km/h
1730 23-03-2009 10:12:57 9 C 4.41 g/m*3 9 C 0 km/h
1731 23-03-2009 10:24:57 9.1 C 4.44 g/m*3 9.1 C 0 km/h
1732 23-03-2009 10:36:56 9.2 C 4.38 g/m*3 9.2 C 0 km/h
1733 23-03-2009 10:48:57 9.3 C 4.31 g/m*3 9.3 C 0 km/h
1734 23-03-2009 11:00:57 9.4 C 4.25 g/m*3 9.4 C 0 km/h
1735 23-03-2009 11:12:57 9.7 C 4.24 g/m*3 9.7 C 0 km/h
1736 23-03-2009 11:24:56 9.8 C 4.18 g/m*3 9.8 C 0 km/h
1737 23-03-2009 11:36:57 9.9 C 4.11 g/m*3 9.9 C 0 km/h
1738 23-03-2009 11:48:56 9.9 C 4.01 g/m*3 9.9 C 0 km/h
1739 23-03-2009 12:00:56 10.2 C 4 g/m*3 10.2 C 0 km/h
1740 23-03-2009 12:12:56 10.7 C 3.93 g/m*3 10.7 C 0 km/h
1741 23-03-2009 12:24:56 10.8 C 3.95 g/m*3 10.8 C 0 km/h
1742 23-03-2009 12:36:56 11.6 C 3.85 g/m*3 11.6 C 0 km/h
1743 23-03-2009 12:48:55 12 C 3.73 g/m*3 12 C 0 km/h
1744 23-03-2009 13:00:55 11.8 C 3.79 g/m*3 11.8 C 0 km/h
1745 23-03-2009 13:12:55 11.6 C 3.85 g/m*3 11.6 C 0 km/h
1746 23-03-2009 13:24:56 11.9 C 3.92 g/m*3 11.9 C 0 km/h
1747 23-03-2009 13:36:55 11.9 C 3.92 g/m*3 11.9 C 0 km/h
1748 23-03-2009 13:48:55 11.6 C 3.95 g/m*3 11.6 C 0 km/h
1749 23-03-2009 14:00:55 11.6 C 4.05 g/m*3 11.6 C 0 km/h
1750 23-03-2009 14:12:55 11.6 C 4.16 g/m*3 11.6 C 0 km/h
Sensor: Nr:Datum:Temp:Abs-Feuchte:Windchill:Wind:
Aussen-T/F 1751 23-03-2009 14:24:55 11.4 C 4.11 g/m*3 11.4 C 0 km/h
1752 23-03-2009 14:36:54 11.3 C 4.08 g/m*3 11.3 C 0 km/h
1753 23-03-2009 14:48:54 11.3 C 4.08 g/m*3 11.3 C 0 km/h
1754 23-03-2009 15:00:55 10.4 C 4.53 g/m*3 10.4 C 0 km/h
1755 23-03-2009 15:12:55 9.8 C 4.82 g/m*3 9.8 C 0 km/h
1756 23-03-2009 15:24:54 9.5 C 5.1 g/m*3 9.5 C 0 km/h
1757 23-03-2009 15:36:54 9.6 C 5.13 g/m*3 9.6 C 0 km/h
1758 23-03-2009 15:48:54 9.9 C 5.14 g/m*3 9.9 C 0 km/h
1759 23-03-2009 16:00:54 9.6 C 5.31 g/m*3 9.6 C 0 km/h
1760 23-03-2009 16:12:54 9.7 C 5.25 g/m*3 9.7 C 0 km/h
1761 23-03-2009 16:24:53 9.5 C 5.37 g/m*3 9.5 C 0 km/h
1762 23-03-2009 16:36:53 9.5 C 5.28 g/m*3 9.5 C 0 km/h
1763 23-03-2009 16:48:53 9.4 C 5.34 g/m*3 9.4 C 0 km/h
1764 23-03-2009 17:00:53 9.2 C 5.36 g/m*3 9.2 C 0 km/h
1765 23-03-2009 17:12:53 9.1 C 5.41 g/m*3 9.1 C 0 km/h
1766 23-03-2009 17:24:53 9.1 C 5.32 g/m*3 9.1 C 0 km/h
1767 23-03-2009 17:36:53 8.6 C 5.59 g/m*3 8.6 C 0 km/h
1768 23-03-2009 17:48:53 8.5 C 5.72 g/m*3 8.5 C 0 km/h
1769 23-03-2009 18:00:52 8.3 C 5.9 g/m*3 8.3 C 0 km/h
1770 23-03-2009 18:12:52 7.9 C 6.08 g/m*3 7.9 C 0 km/h
1771 23-03-2009 18:24:53 7.6 C 6.12 g/m*3 7.6 C 0 km/h
1772 23-03-2009 18:36:52 7.6 C 6.2 g/m*3 7.6 C 0 km/h
1773 23-03-2009 18:48:52 7.7 C 6.16 g/m*3 7.7 C 0 km/h
1774 23-03-2009 19:00:52 7.8 C 6.2 g/m*3 7.8 C 0 km/h
1775 23-03-2009 19:12:52 7.7 C 6.08 g/m*3 7.7 C 0 km/h
Sensor: Nr:Datum:Temp:Abs-Feuchte:Windchill:Wind:
Aussen-T/F 1776 23-03-2009 19:24:52 7.6 C 6.12 g/m*3 7.6 C 0 km/h
1777 23-03-2009 19:36:52 7.4 C 6.12 g/m*3 7.4 C 0 km/h
1778 23-03-2009 19:48:51 4.4 C 4.83 g/m*3 4.4 C 0 km/h
1779 23-03-2009 20:00:52 3.9 C 5.18 g/m*3 3.9 C 0 km/h
1780 23-03-2009 20:12:52 3.8 C 5.27 g/m*3 3.8 C 0 km/h
1781 23-03-2009 20:24:51 3.6 C 5.26 g/m*3 3.6 C 0 km/h
1782 23-03-2009 20:36:51 3.3 C 5.22 g/m*3 3.3 C 0 km/h
1783 23-03-2009 20:48:51 3.5 C 5.35 g/m*3 3.5 C 0 km/h
1784 23-03-2009 21:00:50 3.5 C 5.35 g/m*3 3.5 C 0 km/h
1785 23-03-2009 21:12:50 3.5 C 5.23 g/m*3 3.5 C 0 km/h
1786 23-03-2009 21:24:51 3.8 C 5.27 g/m*3 3.8 C 0 km/h
1787 23-03-2009 21:36:51 3.8 C 5.14 g/m*3 3.8 C 0 km/h
1788 23-03-2009 21:48:50 3.6 C 4.95 g/m*3 3.6 C 0 km/h
1789 23-03-2009 22:00:51 3.7 C 4.92 g/m*3 3.7 C 0 km/h
1790 23-03-2009 22:12:51 3.8 C 4.77 g/m*3 3.8 C 0 km/h
1791 23-03-2009 22:24:50 3.7 C 4.67 g/m*3 3.7 C 0 km/h
1792 23-03-2009 22:36:50 3.5 C 4.61 g/m*3 3.5 C 0 km/h
1793 23-03-2009 22:49:50 3.7 C 4.55 g/m*3 3.7 C 0 km/h
1794 23-03-2009 23:01:50 3.6 C 4.39 g/m*3 3.6 C 0 km/h
1795 23-03-2009 23:13:50 3.5 C 4.43 g/m*3 3.5 C 0 km/h
1796 23-03-2009 23:25:50 3.3 C 4.49 g/m*3 3.3 C 0 km/h
1797 23-03-2009 23:37:50 3.3 C 4.49 g/m*3 3.3 C 0 km/h
1798 23-03-2009 23:49:50 3.1 C 4.31 g/m*3 3.1 C 0 km/h
1799 24-03-2009 00:01:50 3.1 C 4.31 g/m*3 3.1 C 0 km/h
1800 24-03-2009 00:13:50 2.9 C 4.25 g/m*3 2.9 C 0 km/h
Sensor: Nr:Datum:Temp:Abs-Feuchte:Windchill:Wind:
Aussen-T/F 1801 24-03-2009 00:25:50 2.9 C 4.25 g/m*3 2.9 C 0 km/h
1802 24-03-2009 00:37:51 3 C 4.04 g/m*3 3 C 0 km/h
1803 24-03-2009 00:49:51 3.1 C 4.07 g/m*3 3.1 C 0 km/h
1804 24-03-2009 01:01:51 3.1 C 4.01 g/m*3 3.1 C 0 km/h
1805 24-03-2009 01:13:51 2.8 C 4.05 g/m*3 2.8 C 0 km/h
1806 24-03-2009 01:25:51 2.5 C 4.08 g/m*3 2.5 C 0 km/h
1807 24-03-2009 01:37:51 2.4 C 4.11 g/m*3 2.4 C 0 km/h
1808 24-03-2009 01:49:51 2.6 C 4.17 g/m*3 2.6 C 0 km/h
1809 24-03-2009 02:01:51 2.7 C 4.14 g/m*3 2.7 C 0 km/h
1810 24-03-2009 02:13:51 3 C 4.1 g/m*3 3 C 0 km/h
1811 24-03-2009 02:25:51 3.3 C 4.06 g/m*3 3.3 C 0 km/h
1812 24-03-2009 02:37:51 3.3 C 4.06 g/m*3 3.3 C 0 km/h
1813 24-03-2009 02:49:51 3.5 C 4 g/m*3 3.5 C 0 km/h
1814 24-03-2009 03:01:51 3.6 C 4.02 g/m*3 3.6 C 0 km/h
1815 24-03-2009 03:13:51 3.8 C 3.95 g/m*3 3.8 C 0 km/h
1816 24-03-2009 03:25:51 3.2 C 4.16 g/m*3 3.2 C 0 km/h
1817 24-03-2009 03:37:51 2.8 C 4.46 g/m*3 2.8 C 0 km/h
1818 24-03-2009 03:49:51 2.7 C 4.49 g/m*3 2.7 C 0 km/h
1819 24-03-2009 04:01:51 2.6 C 4.51 g/m*3 2.6 C 0 km/h
1820 24-03-2009 04:13:51 2.7 C 4.54 g/m*3 2.7 C 0 km/h
1821 24-03-2009 04:25:51 3 C 4.46 g/m*3 3 C 0 km/h
1822 24-03-2009 04:37:52 3.1 C 4.31 g/m*3 3.1 C 0 km/h
1823 24-03-2009 04:49:52 3.3 C 4.25 g/m*3 3.3 C 0 km/h
1824 24-03-2009 05:01:52 2.8 C 4.34 g/m*3 2.8 C 0 km/h
1825 24-03-2009 05:13:52 2.9 C 4.49 g/m*3 2.9 C 0 km/h
Sensor: Nr:Datum:Temp:Abs-Feuchte:Windchill:Wind:
Aussen-T/F 1826 24-03-2009 05:25:52 3 C 4.22 g/m*3 3 C 0 km/h
1827 24-03-2009 05:37:52 3.2 C 4.22 g/m*3 3.2 C 0 km/h
1828 24-03-2009 05:49:52 3.1 C 4.19 g/m*3 3.1 C 0 km/h
1829 24-03-2009 06:01:52 3.1 C 4.13 g/m*3 3.1 C 0 km/h
1830 24-03-2009 06:13:52 3.2 C 4.04 g/m*3 3.2 C 0 km/h
1831 24-03-2009 06:25:52 3.1 C 4.07 g/m*3 3.1 C 0 km/h
1832 24-03-2009 06:37:52 3.1 C 4.13 g/m*3 3.1 C 0 km/h
1833 24-03-2009 06:49:52 3.1 C 4.25 g/m*3 3.1 C 0 km/h
1834 24-03-2009 07:01:50 3.1 C 4.25 g/m*3 3.1 C 0 km/h
1835 24-03-2009 07:13:50 3.2 C 4.28 g/m*3 3.2 C 0 km/h
1836 24-03-2009 07:25:50 3.3 C 4.25 g/m*3 3.3 C 0 km/h
1837 24-03-2009 07:37:50 3.3 C 4.19 g/m*3 3.3 C 0 km/h
1838 24-03-2009 07:49:50 3.5 C 4.24 g/m*3 3.5 C 0 km/h
1839 24-03-2009 08:01:51 3.7 C 4.24 g/m*3 3.7 C 0 km/h
1840 24-03-2009 08:13:50 3.7 C 4.24 g/m*3 3.7 C 0 km/h
1841 24-03-2009 08:25:50 3.7 C 4.11 g/m*3 3.7 C 0 km/h
1842 24-03-2009 08:37:49 4.2 C 4.06 g/m*3 4.2 C 0 km/h
1843 24-03-2009 08:49:49 4.3 C 3.89 g/m*3 4.3 C 0 km/h
1844 24-03-2009 09:01:49 4.1 C 3.84 g/m*3 4.1 C 0 km/h
1845 24-03-2009 09:13:49 4.2 C 3.74 g/m*3 4.2 C 0 km/h
1846 24-03-2009 09:25:49 4.4 C 3.79 g/m*3 4.4 C 0 km/h
1847 24-03-2009 09:37:49 4.6 C 3.64 g/m*3 4.6 C 0 km/h
1848 24-03-2009 09:49:48 4.8 C 3.55 g/m*3 4.8 C 0 km/h
1849 24-03-2009 10:01:49 5 C 3.6 g/m*3 5 C 0 km/h
1850 24-03-2009 10:13:48 5.6 C 3.68 g/m*3 5.6 C 0 km/h
Sensor: Nr:Datum:Temp:Abs-Feuchte:Windchill:Wind:
Aussen-T/F 1851 24-03-2009 10:25:48 5.9 C 3.53 g/m*3 5.9 C 0 km/h
1852 24-03-2009 10:37:48 5 C 3.74 g/m*3 5 C 0 km/h
1853 24-03-2009 10:49:48 3.2 C 4.34 g/m*3 3.2 C 0 km/h
1854 24-03-2009 11:01:48 3.3 C 4.79 g/m*3 3.3 C 0 km/h
1855 24-03-2009 11:13:47 4.3 C 5.25 g/m*3 4.3 C 0 km/h
1856 24-03-2009 11:25:47 4.6 C 5.16 g/m*3 4.6 C 0 km/h
1857 24-03-2009 11:37:47 5.1 C 4.99 g/m*3 5.1 C 0 km/h
1858 24-03-2009 11:49:47 5.5 C 4.57 g/m*3 5.5 C 0 km/h
1859 24-03-2009 12:01:48 4.4 C 4.51 g/m*3 4.4 C 0 km/h
1860 24-03-2009 12:13:47 5.1 C 4.92 g/m*3 5.1 C 0 km/h
1861 24-03-2009 12:25:47 5.9 C 4.9 g/m*3 5.9 C 0 km/h
1862 24-03-2009 12:37:47 6.4 C 4.32 g/m*3 6.4 C 0 km/h
1863 24-03-2009 12:49:47 6.8 C 4.44 g/m*3 6.8 C 0 km/h
1864 24-03-2009 13:01:49 7.1 C 4.13 g/m*3 7.1 C 0 km/h
1865 24-03-2009 13:13:46 7.1 C 3.98 g/m*3 7.1 C 0 km/h
1866 24-03-2009 13:25:46 6.9 C 3.62 g/m*3 6.9 C 0 km/h
1867 24-03-2009 13:37:46 6.9 C 3.54 g/m*3 6.9 C 0 km/h
1868 24-03-2009 13:49:46 6.6 C 3.62 g/m*3 6.6 C 0 km/h
1869 24-03-2009 14:01:46 5.6 C 4.1 g/m*3 5.6 C 0 km/h
1870 24-03-2009 14:13:46 5.4 C 4.47 g/m*3 5.4 C 0 km/h
1871 24-03-2009 14:25:46 6.8 C 4.36 g/m*3 6.8 C 0 km/h
1872 24-03-2009 14:37:46 7.9 C 4.19 g/m*3 7.9 C 0 km/h
1873 24-03-2009 14:49:45 7 C 3.87 g/m*3 7 C 0 km/h
1874 24-03-2009 15:01:46 6.1 C 4.31 g/m*3 6.1 C 0 km/h
1875 24-03-2009 15:13:45 4.6 C 4.5 g/m*3 4.6 C 0 km/h
Sensor: Nr:Datum:Temp:Abs-Feuchte:Windchill:Wind:
Aussen-T/F 1876 24-03-2009 15:25:45 4.6 C 4.96 g/m*3 4.6 C 0 km/h
1877 24-03-2009 15:37:45 5.8 C 5.3 g/m*3 5.8 C 0 km/h
1878 24-03-2009 15:49:45 6.4 C 5.22 g/m*3 6.4 C 0 km/h
1879 24-03-2009 16:01:45 5.5 C 4.71 g/m*3 5.5 C 0 km/h
1880 24-03-2009 16:13:45 5 C 4.89 g/m*3 5 C 0 km/h
1881 24-03-2009 16:25:45 5.3 C 4.99 g/m*3 5.3 C 0 km/h
1882 24-03-2009 16:37:44 6.5 C 5.02 g/m*3 6.5 C 0 km/h
1883 24-03-2009 16:49:44 5 C 4.55 g/m*3 5 C 0 km/h
1884 24-03-2009 17:01:44 4.7 C 4.66 g/m*3 4.7 C 0 km/h
1885 24-03-2009 17:13:44 5.1 C 4.38 g/m*3 5.1 C 0 km/h
1886 24-03-2009 17:25:44 5.9 C 4.4 g/m*3 5.9 C 0 km/h
1887 24-03-2009 17:37:44 6.1 C 4.09 g/m*3 6.1 C 0 km/h
1888 24-03-2009 17:49:43 5.2 C 3.99 g/m*3 5.2 C 0 km/h
1889 24-03-2009 18:01:44 3.6 C 4.15 g/m*3 3.6 C 0 km/h
1890 24-03-2009 18:13:44 3.6 C 4.27 g/m*3 3.6 C 0 km/h
1891 24-03-2009 18:25:44 3.5 C 4.37 g/m*3 3.5 C 0 km/h
1892 24-03-2009 18:37:43 3.4 C 4.46 g/m*3 3.4 C 0 km/h
1893 24-03-2009 18:49:44 3.1 C 4.37 g/m*3 3.1 C 0 km/h
1894 24-03-2009 19:01:43 2.9 C 4.49 g/m*3 2.9 C 0 km/h
1895 24-03-2009 19:13:43 2.7 C 4.43 g/m*3 2.7 C 0 km/h
1896 24-03-2009 19:25:44 2.5 C 4.43 g/m*3 2.5 C 0 km/h
1897 24-03-2009 19:37:42 2.5 C 4.48 g/m*3 2.5 C 0 km/h
1898 24-03-2009 19:49:43 2.3 C 4.37 g/m*3 2.3 C 0 km/h
1899 24-03-2009 20:01:43 2.2 C 4.34 g/m*3 2.2 C 0 km/h
1900 24-03-2009 20:13:42 2.2 C 4.22 g/m*3 2.2 C 0 km/h
Sensor: Nr:Datum:Temp:Abs-Feuchte:Windchill:Wind:
Aussen-T/F 1901 24-03-2009 20:25:42 2.1 C 4.14 g/m*3 2.1 C 0 km/h
1902 24-03-2009 20:37:43 2 C 4.06 g/m*3 2 C 0 km/h
1903 24-03-2009 20:49:42 1.8 C 4 g/m*3 1.8 C 0 km/h
1904 24-03-2009 21:01:42 1.4 C 3.95 g/m*3 1.4 C 0 km/h
1905 24-03-2009 21:13:41 1.3 C 4.03 g/m*3 1.3 C 0 km/h
1906 24-03-2009 21:25:41 1.2 C 4.05 g/m*3 1.2 C 0 km/h
1907 24-03-2009 21:37:42 1.1 C 4.08 g/m*3 1.1 C 0 km/h
1908 24-03-2009 21:50:43 1 C 4.05 g/m*3 1 C 0 km/h
1909 24-03-2009 22:02:43 0.9 C 4.07 g/m*3 0.9 C 0 km/h
1910 24-03-2009 22:14:43 0.7 C 3.97 g/m*3 0.7 C 0 km/h
1911 24-03-2009 22:26:43 1 C 3.84 g/m*3 1 C 0 km/h
1912 24-03-2009 22:38:43 1 C 3.74 g/m*3 1 C 0 km/h
1913 24-03-2009 22:50:43 0.7 C 3.66 g/m*3 0.7 C 0 km/h
1914 24-03-2009 23:02:43 0.4 C 3.64 g/m*3 0.4 C 0 km/h
1915 24-03-2009 23:14:43 0.4 C 3.69 g/m*3 0.4 C 0 km/h
1916 24-03-2009 23:26:43 0.2 C 3.68 g/m*3 0.2 C 0 km/h
1917 24-03-2009 23:38:43 0.2 C 3.68 g/m*3 0.2 C 0 km/h
1918 24-03-2009 23:50:43 0 C 3.63 g/m*3 0 C 0 km/h
1919 25-03-2009 00:02:43 0 C 3.68 g/m*3 0 C 0 km/h
1920 25-03-2009 00:14:43 0.1 C 3.71 g/m*3 0.1 C 0 km/h
1921 25-03-2009 00:26:43 0.2 C 3.68 g/m*3 0.2 C 0 km/h
1922 25-03-2009 00:38:44 0.2 C 3.68 g/m*3 0.2 C 0 km/h
1923 25-03-2009 00:50:44 0.3 C 3.61 g/m*3 0.3 C 0 km/h
1924 25-03-2009 01:02:44 0.2 C 3.59 g/m*3 0.2 C 0 km/h
1925 25-03-2009 01:14:44 0.2 C 3.59 g/m*3 0.2 C 0 km/h
Sensor: Nr:Datum:Temp:Abs-Feuchte:Windchill:Wind:
Aussen-T/F 1926 25-03-2009 01:26:44 0.1 C 3.56 g/m*3 0.1 C 0 km/h
1927 25-03-2009 01:38:44 0.2 C 3.64 g/m*3 0.2 C 0 km/h
1928 25-03-2009 01:50:44 0 C 3.63 g/m*3 0 C 0 km/h
1929 25-03-2009 02:02:44 0.1 C 3.71 g/m*3 0.1 C 0 km/h
1930 25-03-2009 02:14:44 0.2 C 3.78 g/m*3 0.2 C 0 km/h
1931 25-03-2009 02:26:44 0.4 C 3.84 g/m*3 0.4 C 0 km/h
1932 25-03-2009 02:38:44 0.2 C 3.78 g/m*3 0.2 C 0 km/h
1933 25-03-2009 02:50:44 0.2 C 3.78 g/m*3 0.2 C 0 km/h
1934 25-03-2009 03:02:44 0.3 C 3.86 g/m*3 0.3 C 0 km/h
1935 25-03-2009 03:14:44 0.6 C 3.94 g/m*3 0.6 C 0 km/h
1936 25-03-2009 03:26:44 0.9 C 3.97 g/m*3 0.9 C 0 km/h
1937 25-03-2009 03:38:44 1.1 C 3.97 g/m*3 1.1 C 0 km/h
1938 25-03-2009 03:50:44 1.1 C 3.92 g/m*3 1.1 C 0 km/h
1939 25-03-2009 04:02:44 1.1 C 3.97 g/m*3 1.1 C 0 km/h
1940 25-03-2009 04:14:44 1.2 C 4 g/m*3 1.2 C 0 km/h
1941 25-03-2009 04:26:45 1.3 C 3.97 g/m*3 1.3 C 0 km/h
1942 25-03-2009 04:38:45 1.3 C 3.97 g/m*3 1.3 C 0 km/h
1943 25-03-2009 04:50:45 1.5 C 4.03 g/m*3 1.5 C 0 km/h
1944 25-03-2009 05:02:45 1.6 C 4.06 g/m*3 1.6 C 0 km/h
1945 25-03-2009 05:14:45 1.8 C 4.06 g/m*3 1.8 C 0 km/h
1946 25-03-2009 05:26:45 1.8 C 4.06 g/m*3 1.8 C 0 km/h
1947 25-03-2009 05:38:45 2.2 C 4.06 g/m*3 2.2 C 0 km/h
1948 25-03-2009 05:50:45 2.4 C 4.11 g/m*3 2.4 C 0 km/h
1949 25-03-2009 06:02:45 2.3 C 4.08 g/m*3 2.3 C 0 km/h
1950 25-03-2009 06:14:45 2.1 C 4.2 g/m*3 2.1 C 0 km/h
Sensor: Nr:Datum:Temp:Abs-Feuchte:Windchill:Wind:
Aussen-T/F 1951 25-03-2009 06:26:45 1.6 C 4.27 g/m*3 1.6 C 0 km/h
1952 25-03-2009 06:38:43 1.7 C 4.46 g/m*3 1.7 C 0 km/h
1953 25-03-2009 06:50:42 1.8 C 4.6 g/m*3 1.8 C 0 km/h
1954 25-03-2009 07:02:43 1.8 C 4.71 g/m*3 1.8 C 0 km/h
1955 25-03-2009 07:14:43 1.8 C 4.71 g/m*3 1.8 C 0 km/h
1956 25-03-2009 07:26:43 1.9 C 4.8 g/m*3 1.9 C 0 km/h
1957 25-03-2009 07:38:42 1.9 C 4.75 g/m*3 1.9 C 0 km/h
1958 25-03-2009 07:50:42 1.9 C 4.75 g/m*3 1.9 C 0 km/h
1959 25-03-2009 08:02:42 2.1 C 4.76 g/m*3 2.1 C 0 km/h
1960 25-03-2009 08:14:41 2.3 C 4.82 g/m*3 2.3 C 0 km/h
1961 25-03-2009 08:26:41 2.3 C 4.76 g/m*3 2.3 C 0 km/h
1962 25-03-2009 08:38:42 2.4 C 4.74 g/m*3 2.4 C 0 km/h
1963 25-03-2009 08:50:41 2.3 C 4.65 g/m*3 2.3 C 0 km/h
1964 25-03-2009 09:02:41 2.5 C 4.66 g/m*3 2.5 C 0 km/h
1965 25-03-2009 09:14:42 2.6 C 4.63 g/m*3 2.6 C 0 km/h
1966 25-03-2009 09:26:42 2.9 C 4.61 g/m*3 2.9 C 0 km/h
1967 25-03-2009 09:38:41 3 C 4.46 g/m*3 3 C 0 km/h
1968 25-03-2009 09:50:41 3.1 C 4.49 g/m*3 3.1 C 0 km/h
1969 25-03-2009 10:02:41 3.3 C 4.49 g/m*3 3.3 C 0 km/h
1970 25-03-2009 10:14:41 3.3 C 4.49 g/m*3 3.3 C 0 km/h
1971 25-03-2009 10:26:41 3.1 C 4.49 g/m*3 3.1 C 0 km/h
1972 25-03-2009 10:38:41 3.3 C 4.55 g/m*3 3.3 C 0 km/h
1973 25-03-2009 10:50:40 3.8 C 4.52 g/m*3 3.8 C 0 km/h
1974 25-03-2009 11:02:41 3.8 C 4.52 g/m*3 3.8 C 0 km/h
1975 25-03-2009 11:14:40 4 C 4.39 g/m*3 4 C 0 km/h
Sensor: Nr:Datum:Temp:Abs-Feuchte:Windchill:Wind:
Aussen-T/F 1976 25-03-2009 11:26:40 4 C 4.45 g/m*3 4 C 0 km/h
1977 25-03-2009 11:38:40 4.3 C 4.48 g/m*3 4.3 C 0 km/h
1978 25-03-2009 11:50:40 4.2 C 4.45 g/m*3 4.2 C 0 km/h
1979 25-03-2009 12:02:40 4.2 C 4.45 g/m*3 4.2 C 0 km/h
1980 25-03-2009 12:14:39 4.7 C 4.53 g/m*3 4.7 C 0 km/h
1981 25-03-2009 12:26:39 4.4 C 4.37 g/m*3 4.4 C 0 km/h
1982 25-03-2009 12:38:39 4.3 C 4.54 g/m*3 4.3 C 0 km/h
1983 25-03-2009 12:50:39 4.4 C 4.51 g/m*3 4.4 C 0 km/h
1984 25-03-2009 13:02:39 4.3 C 4.54 g/m*3 4.3 C 0 km/h
1985 25-03-2009 13:14:39 4.4 C 4.57 g/m*3 4.4 C 0 km/h
1986 25-03-2009 13:26:39 5.3 C 4.71 g/m*3 5.3 C 0 km/h
1987 25-03-2009 13:38:39 5.9 C 4.69 g/m*3 5.9 C 0 km/h
1988 25-03-2009 13:50:39 5.6 C 4.52 g/m*3 5.6 C 0 km/h
1989 25-03-2009 14:02:38 5.6 C 4.6 g/m*3 5.6 C 0 km/h
1990 25-03-2009 14:14:39 6.1 C 4.6 g/m*3 6.1 C 0 km/h
1991 25-03-2009 14:26:40 6 C 4.5 g/m*3 6 C 0 km/h
1992 25-03-2009 14:38:38 6 C 4.5 g/m*3 6 C 0 km/h
1993 25-03-2009 14:50:38 6.1 C 4.6 g/m*3 6.1 C 0 km/h
1994 25-03-2009 15:02:37 5.7 C 4.63 g/m*3 5.7 C 0 km/h
1995 25-03-2009 15:14:38 5 C 4.89 g/m*3 5 C 0 km/h
1996 25-03-2009 15:26:38 4.7 C 5.13 g/m*3 4.7 C 0 km/h
1997 25-03-2009 15:38:38 5.3 C 5.41 g/m*3 5.3 C 0 km/h
1998 25-03-2009 15:50:37 5.4 C 5.44 g/m*3 5.4 C 0 km/h
1999 25-03-2009 16:02:38 5.7 C 5.41 g/m*3 5.7 C 0 km/h
2000 25-03-2009 16:14:37 6.5 C 5.47 g/m*3 6.5 C 0 km/h
Sensor: Nr:Datum:Temp:Abs-Feuchte:Windchill:Wind:
Aussen-T/F 2001 25-03-2009 16:26:37 6.9 C 5.31 g/m*3 6.9 C 0 km/h
2002 25-03-2009 16:38:37 6.9 C 5.08 g/m*3 6.9 C 0 km/h
2003 25-03-2009 16:50:37 6.4 C 4.99 g/m*3 6.4 C 0 km/h
2004 25-03-2009 17:02:37 5.8 C 5.09 g/m*3 5.8 C 0 km/h
2005 25-03-2009 17:14:37 4.7 C 5.2 g/m*3 4.7 C 0 km/h
2006 25-03-2009 17:26:37 4.5 C 5.32 g/m*3 4.5 C 0 km/h
2007 25-03-2009 17:38:36 4.6 C 5.49 g/m*3 4.6 C 0 km/h
2008 25-03-2009 17:50:37 4.9 C 5.74 g/m*3 4.9 C 0 km/h
2009 25-03-2009 18:02:36 4.8 C 5.7 g/m*3 4.8 C 0 km/h
2010 25-03-2009 18:14:36 4.8 C 5.7 g/m*3 4.8 C 0 km/h
2011 25-03-2009 18:26:36 4.7 C 5.6 g/m*3 4.7 C 0 km/h
2012 25-03-2009 18:38:36 4.5 C 5.59 g/m*3 4.5 C 0 km/h
2013 25-03-2009 18:50:36 4.2 C 5.41 g/m*3 4.2 C 0 km/h
2014 25-03-2009 19:02:35 4 C 5.34 g/m*3 4 C 0 km/h
2015 25-03-2009 19:14:36 3.8 C 5.4 g/m*3 3.8 C 0 km/h
2016 25-03-2009 19:26:37 3.7 C 5.42 g/m*3 3.7 C 0 km/h
2017 25-03-2009 19:38:35 3.6 C 5.45 g/m*3 3.6 C 0 km/h
2018 25-03-2009 19:50:36 3.5 C 5.41 g/m*3 3.5 C 0 km/h
2019 25-03-2009 20:02:35 3.6 C 5.51 g/m*3 3.6 C 0 km/h
2020 25-03-2009 20:14:35 3.5 C 5.47 g/m*3 3.5 C 0 km/h
2021 25-03-2009 20:26:35 3.6 C 5.57 g/m*3 3.6 C 0 km/h
2022 25-03-2009 20:38:35 3.6 C 5.57 g/m*3 3.6 C 0 km/h
2023 25-03-2009 20:50:35 3.6 C 5.57 g/m*3 3.6 C 0 km/h
2024 25-03-2009 21:02:34 3.5 C 5.53 g/m*3 3.5 C 0 km/h
2025 25-03-2009 21:14:34 3.5 C 5.53 g/m*3 3.5 C 0 km/h
Sensor: Nr:Datum:Temp:Abs-Feuchte:Windchill:Wind:
Aussen-T/F 2026 25-03-2009 21:26:34 3.6 C 5.63 g/m*3 3.6 C 0 km/h
2027 25-03-2009 21:38:35 3.7 C 5.67 g/m*3 3.7 C 0 km/h
2028 25-03-2009 21:50:34 3.7 C 5.67 g/m*3 3.7 C 0 km/h
2029 25-03-2009 22:02:35 3.7 C 5.67 g/m*3 3.7 C 0 km/h
2030 25-03-2009 22:14:33 3.7 C 5.67 g/m*3 3.7 C 0 km/h
2031 25-03-2009 22:26:33 3.8 C 5.71 g/m*3 3.8 C 0 km/h
2032 25-03-2009 22:38:34 3.9 C 5.68 g/m*3 3.9 C 0 km/h
2033 25-03-2009 22:50:33 3.9 C 5.62 g/m*3 3.9 C 0 km/h
2034 25-03-2009 23:02:33 3.9 C 5.62 g/m*3 3.9 C 0 km/h
2035 25-03-2009 23:14:34 4.1 C 5.63 g/m*3 4.1 C 0 km/h
2036 25-03-2009 23:26:34 4.3 C 5.64 g/m*3 4.3 C 0 km/h
2037 25-03-2009 23:38:33 4.4 C 5.48 g/m*3 4.4 C 0 km/h
2038 25-03-2009 23:50:33 4.4 C 5.35 g/m*3 4.4 C 0 km/h
2039 26-03-2009 00:02:33 4.3 C 5.25 g/m*3 4.3 C 0 km/h
2040 26-03-2009 00:14:32 4.2 C 5.28 g/m*3 4.2 C 0 km/h
2041 26-03-2009 00:26:32 4 C 5.28 g/m*3 4 C 0 km/h
2042 26-03-2009 00:38:33 4 C 5.28 g/m*3 4 C 0 km/h
2043 26-03-2009 00:50:32 4.1 C 5.31 g/m*3 4.1 C 0 km/h
2044 26-03-2009 01:02:32 4.2 C 5.28 g/m*3 4.2 C 0 km/h
2045 26-03-2009 01:14:32 4.3 C 5.25 g/m*3 4.3 C 0 km/h
2046 26-03-2009 01:26:32 4.3 C 5.25 g/m*3 4.3 C 0 km/h
2047 26-03-2009 01:38:32 4.2 C 5.22 g/m*3 4.2 C 0 km/h
2048 26-03-2009 01:50:31 4.2 C 5.22 g/m*3 4.2 C 0 km/h
2049 26-03-2009 02:02:32 4.2 C 5.22 g/m*3 4.2 C 0 km/h
2050 26-03-2009 02:14:31 4.1 C 5.25 g/m*3 4.1 C 0 km/h
Sensor: Nr:Datum:Temp:Abs-Feuchte:Windchill:Wind:
Aussen-T/F 2051 26-03-2009 02:26:31 4 C 5.34 g/m*3 4 C 0 km/h
2052 26-03-2009 02:38:31 4 C 5.4 g/m*3 4 C 0 km/h
2053 26-03-2009 02:51:32 4 C 5.4 g/m*3 4 C 0 km/h
2054 26-03-2009 03:03:32 4 C 5.4 g/m*3 4 C 0 km/h
2055 26-03-2009 03:15:32 4 C 5.4 g/m*3 4 C 0 km/h
2056 26-03-2009 03:27:32 4 C 5.34 g/m*3 4 C 0 km/h
2057 26-03-2009 03:39:32 4.1 C 5.38 g/m*3 4.1 C 0 km/h
2058 26-03-2009 03:51:32 4.1 C 5.31 g/m*3 4.1 C 0 km/h
2059 26-03-2009 04:03:32 4.1 C 5.25 g/m*3 4.1 C 0 km/h
2060 26-03-2009 04:15:31 4.1 C 5.18 g/m*3 4.1 C 0 km/h
2061 26-03-2009 04:27:31 4.2 C 5.09 g/m*3 4.2 C 0 km/h
2062 26-03-2009 04:39:31 4.2 C 5.03 g/m*3 4.2 C 0 km/h
2063 26-03-2009 04:51:31 4.2 C 5.03 g/m*3 4.2 C 0 km/h
2064 26-03-2009 05:03:31 4.2 C 5.03 g/m*3 4.2 C 0 km/h
2065 26-03-2009 05:15:31 4.1 C 5.06 g/m*3 4.1 C 0 km/h
2066 26-03-2009 05:27:31 4.2 C 5.09 g/m*3 4.2 C 0 km/h
2067 26-03-2009 05:39:31 4.3 C 5.06 g/m*3 4.3 C 0 km/h
2068 26-03-2009 05:51:31 4.3 C 5.06 g/m*3 4.3 C 0 km/h
2069 26-03-2009 06:03:30 4.2 C 5.03 g/m*3 4.2 C 0 km/h
2070 26-03-2009 06:15:31 4 C 4.96 g/m*3 4 C 0 km/h
2071 26-03-2009 06:27:32 4.1 C 4.99 g/m*3 4.1 C 0 km/h
2072 26-03-2009 06:39:30 4 C 4.96 g/m*3 4 C 0 km/h
2073 26-03-2009 06:51:30 3.8 C 4.96 g/m*3 3.8 C 0 km/h
2074 26-03-2009 07:03:30 3.8 C 4.96 g/m*3 3.8 C 0 km/h
2075 26-03-2009 07:15:30 4.2 C 5.09 g/m*3 4.2 C 0 km/h
Sensor: Nr:Datum:Temp:Abs-Feuchte:Windchill:Wind:
Aussen-T/F 2076 26-03-2009 07:27:30 4.5 C 5.06 g/m*3 4.5 C 0 km/h
2077 26-03-2009 07:39:30 4.5 C 4.93 g/m*3 4.5 C 0 km/h
2078 26-03-2009 07:51:30 4.7 C 4.93 g/m*3 4.7 C 0 km/h
2079 26-03-2009 08:03:30 5 C 4.89 g/m*3 5 C 0 km/h
2080 26-03-2009 08:15:29 5.3 C 4.99 g/m*3 5.3 C 0 km/h
2081 26-03-2009 08:27:29 5.5 C 4.99 g/m*3 5.5 C 0 km/h
2082 26-03-2009 08:39:29 6.1 C 5.04 g/m*3 6.1 C 0 km/h
2083 26-03-2009 08:51:29 6.4 C 5.07 g/m*3 6.4 C 0 km/h
2084 26-03-2009 09:03:29 6.5 C 5.1 g/m*3 6.5 C 0 km/h
2085 26-03-2009 09:15:29 6.6 C 5.06 g/m*3 6.6 C 0 km/h
2086 26-03-2009 09:27:29 7 C 5.11 g/m*3 7 C 0 km/h
2087 26-03-2009 09:39:29 7.4 C 5.17 g/m*3 7.4 C 0 km/h
2088 26-03-2009 09:51:29 7.8 C 5.14 g/m*3 7.8 C 0 km/h
2089 26-03-2009 10:03:29 7.9 C 5.09 g/m*3 7.9 C 0 km/h
2090 26-03-2009 10:15:28 7.7 C 5.03 g/m*3 7.7 C 0 km/h
2091 26-03-2009 10:27:28 7.8 C 4.98 g/m*3 7.8 C 0 km/h
2092 26-03-2009 10:39:28 8.2 C 5.02 g/m*3 8.2 C 0 km/h
2093 26-03-2009 10:51:28 8.5 C 4.95 g/m*3 8.5 C 0 km/h
2094 26-03-2009 11:03:28 9.1 C 5.06 g/m*3 9.1 C 0 km/h
2095 26-03-2009 11:15:27 8.8 C 4.96 g/m*3 8.8 C 0 km/h
2096 26-03-2009 11:27:27 8.4 C 5.01 g/m*3 8.4 C 0 km/h
2097 26-03-2009 11:39:28 8.4 C 5.09 g/m*3 8.4 C 0 km/h
2098 26-03-2009 11:51:27 9 C 5.11 g/m*3 9 C 0 km/h
2099 26-03-2009 12:03:27 9.3 C 4.94 g/m*3 9.3 C 0 km/h
2100 26-03-2009 12:15:27 9.2 C 5 g/m*3 9.2 C 0 km/h
Sensor: Nr:Datum:Temp:Abs-Feuchte:Windchill:Wind:
Aussen-T/F 2101 26-03-2009 12:27:27 9 C 4.94 g/m*3 9 C 0 km/h
2102 26-03-2009 12:39:27 8.6 C 5.16 g/m*3 8.6 C 0 km/h
2103 26-03-2009 12:51:27 8.2 C 5.19 g/m*3 8.2 C 0 km/h
2104 26-03-2009 13:03:26 8 C 5.29 g/m*3 8 C 0 km/h
2105 26-03-2009 13:15:27 7.7 C 5.35 g/m*3 7.7 C 0 km/h
2106 26-03-2009 13:27:27 7.6 C 5.48 g/m*3 7.6 C 0 km/h
2107 26-03-2009 13:39:26 7.5 C 5.6 g/m*3 7.5 C 0 km/h
2108 26-03-2009 13:51:26 7.2 C 5.73 g/m*3 7.2 C 0 km/h
2109 26-03-2009 14:03:26 7 C 5.81 g/m*3 7 C 0 km/h
2110 26-03-2009 14:15:26 7 C 5.97 g/m*3 7 C 0 km/h
2111 26-03-2009 14:27:26 7.2 C 5.89 g/m*3 7.2 C 0 km/h
2112 26-03-2009 14:39:26 7.3 C 5.77 g/m*3 7.3 C 0 km/h
2113 26-03-2009 14:51:25 7.1 C 5.69 g/m*3 7.1 C 0 km/h
2114 26-03-2009 15:03:26 7.1 C 5.69 g/m*3 7.1 C 0 km/h
2115 26-03-2009 15:15:25 7.1 C 5.62 g/m*3 7.1 C 0 km/h
2116 26-03-2009 15:27:25 7.1 C 5.62 g/m*3 7.1 C 0 km/h
2117 26-03-2009 15:39:25 7.3 C 5.61 g/m*3 7.3 C 0 km/h
2118 26-03-2009 15:51:25 7.3 C 5.53 g/m*3 7.3 C 0 km/h
2119 26-03-2009 16:03:25 7.2 C 5.65 g/m*3 7.2 C 0 km/h
2120 26-03-2009 16:15:25 7.3 C 5.61 g/m*3 7.3 C 0 km/h
2121 26-03-2009 16:27:25 7.4 C 5.65 g/m*3 7.4 C 0 km/h
2122 26-03-2009 16:39:24 7.4 C 5.73 g/m*3 7.4 C 0 km/h
2123 26-03-2009 16:51:25 7.2 C 5.81 g/m*3 7.2 C 0 km/h
2124 26-03-2009 17:03:24 7.1 C 5.93 g/m*3 7.1 C 0 km/h
2125 26-03-2009 17:15:24 7.1 C 5.93 g/m*3 7.1 C 0 km/h
Sensor: Nr:Datum:Temp:Abs-Feuchte:Windchill:Wind:
Aussen-T/F 2126 26-03-2009 17:27:24 7.3 C 5.93 g/m*3 7.3 C 0 km/h
2127 26-03-2009 17:39:24 7.3 C 5.93 g/m*3 7.3 C 0 km/h
2128 26-03-2009 17:51:24 7.3 C 5.93 g/m*3 7.3 C 0 km/h
2129 26-03-2009 18:03:23 7.3 C 6 g/m*3 7.3 C 0 km/h
2130 26-03-2009 18:15:24 7.3 C 5.93 g/m*3 7.3 C 0 km/h
2131 26-03-2009 18:27:24 7.5 C 5.92 g/m*3 7.5 C 0 km/h
2132 26-03-2009 18:39:24 7.5 C 5.84 g/m*3 7.5 C 0 km/h
2133 26-03-2009 18:51:23 7.6 C 5.8 g/m*3 7.6 C 0 km/h
2134 26-03-2009 19:03:23 7.5 C 5.76 g/m*3 7.5 C 0 km/h
2135 26-03-2009 19:15:23 7.5 C 5.68 g/m*3 7.5 C 0 km/h
2136 26-03-2009 19:27:23 7.6 C 5.64 g/m*3 7.6 C 0 km/h
2137 26-03-2009 19:39:23 7.6 C 5.64 g/m*3 7.6 C 0 km/h
2138 26-03-2009 19:51:22 7.4 C 5.65 g/m*3 7.4 C 0 km/h
2139 26-03-2009 20:03:23 7.2 C 5.65 g/m*3 7.2 C 0 km/h
2140 26-03-2009 20:15:22 7.4 C 5.81 g/m*3 7.4 C 0 km/h
2141 26-03-2009 20:27:22 7.7 C 5.84 g/m*3 7.7 C 0 km/h
2142 26-03-2009 20:39:22 7.7 C 5.84 g/m*3 7.7 C 0 km/h
2143 26-03-2009 20:51:22 7.7 C 5.92 g/m*3 7.7 C 0 km/h
2144 26-03-2009 21:03:22 7.6 C 5.96 g/m*3 7.6 C 0 km/h
2145 26-03-2009 21:15:22 7.6 C 6.04 g/m*3 7.6 C 0 km/h
2146 26-03-2009 21:27:22 7.7 C 6.08 g/m*3 7.7 C 0 km/h
2147 26-03-2009 21:39:21 7.7 C 6.08 g/m*3 7.7 C 0 km/h
2148 26-03-2009 21:51:22 7.7 C 6 g/m*3 7.7 C 0 km/h
2149 26-03-2009 22:04:21 7.6 C 6.12 g/m*3 7.6 C 0 km/h
2150 26-03-2009 22:16:21 7.5 C 6.32 g/m*3 7.5 C 0 km/h
Sensor: Nr:Datum:Temp:Abs-Feuchte:Windchill:Wind:
Aussen-T/F 2151 26-03-2009 22:28:21 7.5 C 6.4 g/m*3 7.5 C 0 km/h
2152 26-03-2009 22:40:21 7.6 C 6.36 g/m*3 7.6 C 0 km/h
2153 26-03-2009 22:52:21 7.9 C 6.32 g/m*3 7.9 C 0 km/h
2154 26-03-2009 23:04:21 8 C 6.2 g/m*3 8 C 0 km/h
2155 26-03-2009 23:16:21 8 C 6.2 g/m*3 8 C 0 km/h
2156 26-03-2009 23:28:21 7.9 C 6.32 g/m*3 7.9 C 0 km/h
2157 26-03-2009 23:40:21 7.9 C 6.41 g/m*3 7.9 C 0 km/h
2158 26-03-2009 23:52:21 7.6 C 6.44 g/m*3 7.6 C 0 km/h
2159 27-03-2009 00:04:21 7.5 C 6.56 g/m*3 7.5 C 0 km/h
2160 27-03-2009 00:16:21 7.5 C 6.64 g/m*3 7.5 C 0 km/h
2161 27-03-2009 00:28:22 7.6 C 6.69 g/m*3 7.6 C 0 km/h
2162 27-03-2009 00:40:22 7.6 C 6.69 g/m*3 7.6 C 0 km/h
2163 27-03-2009 00:52:22 7.6 C 6.69 g/m*3 7.6 C 0 km/h
2164 27-03-2009 01:04:22 7.6 C 6.69 g/m*3 7.6 C 0 km/h
2165 27-03-2009 01:16:22 7.4 C 6.76 g/m*3 7.4 C 0 km/h
2166 27-03-2009 01:28:22 7.4 C 6.84 g/m*3 7.4 C 0 km/h
2167 27-03-2009 01:40:22 7.3 C 6.95 g/m*3 7.3 C 0 km/h
2168 27-03-2009 01:52:22 7.4 C 7 g/m*3 7.4 C 0 km/h
2169 27-03-2009 02:04:22 7.4 C 7 g/m*3 7.4 C 0 km/h
2170 27-03-2009 02:16:22 7.3 C 6.95 g/m*3 7.3 C 0 km/h
2171 27-03-2009 02:28:22 7.2 C 6.83 g/m*3 7.2 C 0 km/h
2172 27-03-2009 02:40:22 7.3 C 6.72 g/m*3 7.3 C 0 km/h
2173 27-03-2009 02:52:22 7.4 C 6.6 g/m*3 7.4 C 0 km/h
2174 27-03-2009 03:04:22 7.6 C 6.53 g/m*3 7.6 C 0 km/h
2175 27-03-2009 03:16:22 7.5 C 6.4 g/m*3 7.5 C 0 km/h
Sensor: Nr:Datum:Temp:Abs-Feuchte:Windchill:Wind:
Aussen-T/F 2176 27-03-2009 03:28:22 7.5 C 6.4 g/m*3 7.5 C 0 km/h
2177 27-03-2009 03:40:22 7.5 C 6.4 g/m*3 7.5 C 0 km/h
2178 27-03-2009 03:52:22 7.4 C 6.36 g/m*3 7.4 C 0 km/h
2179 27-03-2009 04:04:22 7.4 C 6.52 g/m*3 7.4 C 0 km/h
2180 27-03-2009 04:16:23 7.3 C 6.48 g/m*3 7.3 C 0 km/h
2181 27-03-2009 04:28:23 7.3 C 6.56 g/m*3 7.3 C 0 km/h
2182 27-03-2009 04:40:23 7.1 C 6.55 g/m*3 7.1 C 0 km/h
2183 27-03-2009 04:52:23 7 C 6.51 g/m*3 7 C 0 km/h
2184 27-03-2009 05:04:23 6.9 C 6.62 g/m*3 6.9 C 0 km/h
2185 27-03-2009 05:16:23 7 C 6.43 g/m*3 7 C 0 km/h
2186 27-03-2009 05:28:23 7 C 6.35 g/m*3 7 C 0 km/h
2187 27-03-2009 05:40:23 7.1 C 6.16 g/m*3 7.1 C 0 km/h
2188 27-03-2009 05:52:23 7.1 C 5.85 g/m*3 7.1 C 0 km/h
2189 27-03-2009 06:04:23 7.3 C 5.53 g/m*3 7.3 C 0 km/h
2190 27-03-2009 06:16:23 7.2 C 5.26 g/m*3 7.2 C 0 km/h
2191 27-03-2009 06:28:23 7 C 5.19 g/m*3 7 C 0 km/h
2192 27-03-2009 06:40:23 7 C 5.27 g/m*3 7 C 0 km/h
2193 27-03-2009 06:52:23 6.9 C 5.47 g/m*3 6.9 C 0 km/h
2194 27-03-2009 07:04:21 7 C 5.5 g/m*3 7 C 0 km/h
2195 27-03-2009 07:16:22 7.1 C 5.46 g/m*3 7.1 C 0 km/h
2196 27-03-2009 07:28:22 7.2 C 5.18 g/m*3 7.2 C 0 km/h
2197 27-03-2009 07:40:21 7.3 C 5.14 g/m*3 7.3 C 0 km/h
2198 27-03-2009 07:52:21 7.3 C 5.21 g/m*3 7.3 C 0 km/h
2199 27-03-2009 08:04:21 7.5 C 5.2 g/m*3 7.5 C 0 km/h
2200 27-03-2009 08:16:21 7.6 C 5.08 g/m*3 7.6 C 0 km/h
Sensor: Nr:Datum:Temp:Abs-Feuchte:Windchill:Wind:
Aussen-T/F 2201 27-03-2009 08:28:21 7.8 C 5.06 g/m*3 7.8 C 0 km/h
2202 27-03-2009 08:40:21 8 C 4.96 g/m*3 8 C 0 km/h
2203 27-03-2009 08:52:21 8 C 4.96 g/m*3 8 C 0 km/h
2204 27-03-2009 09:04:21 8.1 C 4.99 g/m*3 8.1 C 0 km/h
2205 27-03-2009 09:16:20 8 C 4.88 g/m*3 8 C 0 km/h
2206 27-03-2009 09:28:20 7.9 C 4.93 g/m*3 7.9 C 0 km/h
2207 27-03-2009 09:40:20 8.4 C 4.84 g/m*3 8.4 C 0 km/h
2208 27-03-2009 09:52:20 8.5 C 4.78 g/m*3 8.5 C 0 km/h
2209 27-03-2009 10:04:20 8.5 C 4.7 g/m*3 8.5 C 0 km/h
2210 27-03-2009 10:16:19 7 C 5.11 g/m*3 7 C 0 km/h
2211 27-03-2009 10:28:19 7.2 C 5.65 g/m*3 7.2 C 0 km/h
2212 27-03-2009 10:40:20 7.7 C 5.76 g/m*3 7.7 C 0 km/h
2213 27-03-2009 10:52:19 8.3 C 5.14 g/m*3 8.3 C 0 km/h
2214 27-03-2009 11:04:19 8.4 C 4.58 g/m*3 8.4 C 0 km/h
2215 27-03-2009 11:16:19 8.5 C 4.35 g/m*3 8.5 C 0 km/h
2216 27-03-2009 11:28:19 7.9 C 4.76 g/m*3 7.9 C 0 km/h
2217 27-03-2009 11:40:19 8.1 C 4.99 g/m*3 8.1 C 0 km/h
2218 27-03-2009 11:52:19 9 C 4.67 g/m*3 9 C 0 km/h
2219 27-03-2009 12:04:18 9.3 C 4.31 g/m*3 9.3 C 0 km/h
2220 27-03-2009 12:16:19 9.3 C 4.13 g/m*3 9.3 C 0 km/h
2221 27-03-2009 12:28:19 8.8 C 4 g/m*3 8.8 C 0 km/h
2222 27-03-2009 12:40:18 8.9 C 4.2 g/m*3 8.9 C 0 km/h
2223 27-03-2009 12:52:18 9.1 C 3.99 g/m*3 9.1 C 0 km/h
2224 27-03-2009 13:04:19 9.7 C 3.87 g/m*3 9.7 C 0 km/h
2225 27-03-2009 13:16:18 9.7 C 3.69 g/m*3 9.7 C 0 km/h
Sensor: Nr:Datum:Temp:Abs-Feuchte:Windchill:Wind:
Aussen-T/F 2226 27-03-2009 13:28:18 9.6 C 3.39 g/m*3 9.6 C 0 km/h
2227 27-03-2009 13:40:18 9.7 C 3.41 g/m*3 9.7 C 0 km/h
2228 27-03-2009 13:52:18 9.8 C 3.43 g/m*3 9.8 C 0 km/h
2229 27-03-2009 14:04:18 10.4 C 3.37 g/m*3 10.4 C 0 km/h
2230 27-03-2009 14:16:17 10.3 C 3.35 g/m*3 10.3 C 0 km/h
2231 27-03-2009 14:28:17 10.3 C 3.35 g/m*3 10.3 C 0 km/h
2232 27-03-2009 14:40:17 10.2 C 3.43 g/m*3 10.2 C 0 km/h
2233 27-03-2009 14:52:17 10.1 C 3.69 g/m*3 10.1 C 0 km/h
2234 27-03-2009 15:04:17 9.7 C 3.69 g/m*3 9.7 C 0 km/h
2235 27-03-2009 15:16:17 9.6 C 3.85 g/m*3 9.6 C 0 km/h
2236 27-03-2009 15:28:17 9.7 C 3.69 g/m*3 9.7 C 0 km/h
2237 27-03-2009 15:40:17 9.8 C 3.8 g/m*3 9.8 C 0 km/h
2238 27-03-2009 15:52:17 9.6 C 3.76 g/m*3 9.6 C 0 km/h
2239 27-03-2009 16:04:16 8.5 C 3.84 g/m*3 8.5 C 0 km/h
2240 27-03-2009 16:16:16 7.9 C 3.94 g/m*3 7.9 C 0 km/h
2241 27-03-2009 16:28:16 7.9 C 4.11 g/m*3 7.9 C 0 km/h
2242 27-03-2009 16:40:16 7.4 C 4.37 g/m*3 7.4 C 0 km/h
2243 27-03-2009 16:52:16 6.9 C 5.08 g/m*3 6.9 C 0 km/h
2244 27-03-2009 17:04:15 6.6 C 5.36 g/m*3 6.6 C 0 km/h
2245 27-03-2009 17:16:16 6.6 C 5.13 g/m*3 6.6 C 0 km/h
2246 27-03-2009 17:28:16 6.3 C 5.33 g/m*3 6.3 C 0 km/h
2247 27-03-2009 17:40:16 5.9 C 5.34 g/m*3 5.9 C 0 km/h
2248 27-03-2009 17:52:15 5.2 C 5.23 g/m*3 5.2 C 0 km/h
2249 27-03-2009 18:04:16 5 C 5.37 g/m*3 5 C 0 km/h
2250 27-03-2009 18:16:15 4.9 C 5.54 g/m*3 4.9 C 0 km/h
Sensor: Nr:Datum:Temp:Abs-Feuchte:Windchill:Wind:
Aussen-T/F 2251 27-03-2009 18:28:15 4.9 C 5.54 g/m*3 4.9 C 0 km/h
2252 27-03-2009 18:40:15 5.1 C 5.47 g/m*3 5.1 C 0 km/h
2253 27-03-2009 18:52:15 5.6 C 5.23 g/m*3 5.6 C 0 km/h
2254 27-03-2009 19:04:15 5.7 C 4.84 g/m*3 5.7 C 0 km/h
2255 27-03-2009 19:16:14 5.9 C 4.76 g/m*3 5.9 C 0 km/h
2256 27-03-2009 19:28:14 6 C 4.79 g/m*3 6 C 0 km/h
2257 27-03-2009 19:40:02 5.8 C 4.94 g/m*3 5.8 C 0 km/h
2258 27-03-2009 19:52:01 5.8 C 5.01 g/m*3 5.8 C 0 km/h
2259 27-03-2009 20:04:02 5.6 C 5.09 g/m*3 5.6 C 0 km/h
2260 27-03-2009 20:16:01 5.6 C 5.16 g/m*3 5.6 C 0 km/h
2261 27-03-2009 20:28:01 5.5 C 5.13 g/m*3 5.5 C 0 km/h
2262 27-03-2009 20:40:01 5.3 C 5.13 g/m*3 5.3 C 0 km/h
2263 27-03-2009 20:52:01 5 C 5.1 g/m*3 5 C 0 km/h
2264 27-03-2009 21:04:02 4.8 C 5.1 g/m*3 4.8 C 0 km/h
2265 27-03-2009 21:16:01 4.8 C 5.16 g/m*3 4.8 C 0 km/h
2266 27-03-2009 21:28:01 4.9 C 5.27 g/m*3 4.9 C 0 km/h
2267 27-03-2009 21:40:01 4.7 C 5.26 g/m*3 4.7 C 0 km/h
2268 27-03-2009 21:52:01 5.2 C 5.37 g/m*3 5.2 C 0 km/h
2269 27-03-2009 22:04:01 5.7 C 5.34 g/m*3 5.7 C 0 km/h
2270 27-03-2009 22:16:00 5.8 C 5.16 g/m*3 5.8 C 0 km/h
2271 27-03-2009 22:28:00 5.7 C 5.12 g/m*3 5.7 C 0 km/h
2272 27-03-2009 22:40:01 5.6 C 5.16 g/m*3 5.6 C 0 km/h
2273 27-03-2009 22:53:01 5.6 C 5.23 g/m*3 5.6 C 0 km/h
2274 27-03-2009 23:05:01 5.3 C 5.2 g/m*3 5.3 C 0 km/h
2275 27-03-2009 23:17:01 5.1 C 5.27 g/m*3 5.1 C 0 km/h
Sensor: Nr:Datum:Temp:Abs-Feuchte:Windchill:Wind:
Aussen-T/F 2276 27-03-2009 23:29:01 4.8 C 5.43 g/m*3 4.8 C 0 km/h
2277 27-03-2009 23:41:01 4.8 C 5.57 g/m*3 4.8 C 0 km/h
2278 27-03-2009 23:53:01 4.8 C 5.63 g/m*3 4.8 C 0 km/h
2279 28-03-2009 00:05:01 4.9 C 5.74 g/m*3 4.9 C 0 km/h
2280 28-03-2009 00:17:01 4.8 C 5.77 g/m*3 4.8 C 0 km/h
2281 28-03-2009 00:29:01 4.7 C 5.8 g/m*3 4.7 C 0 km/h
2282 28-03-2009 00:41:01 4.4 C 5.75 g/m*3 4.4 C 0 km/h
2283 28-03-2009 00:53:01 4 C 5.59 g/m*3 4 C 0 km/h
2284 28-03-2009 01:05:01 3.6 C 5.45 g/m*3 3.6 C 0 km/h
2285 28-03-2009 01:17:01 3.6 C 5.51 g/m*3 3.6 C 0 km/h
2286 28-03-2009 01:29:02 3.4 C 5.44 g/m*3 3.4 C 0 km/h
2287 28-03-2009 01:41:02 3.3 C 5.4 g/m*3 3.3 C 0 km/h
2288 28-03-2009 01:53:02 3.4 C 5.5 g/m*3 3.4 C 0 km/h
2289 28-03-2009 02:05:02 3.4 C 5.5 g/m*3 3.4 C 0 km/h
2290 28-03-2009 02:17:02 3.5 C 5.6 g/m*3 3.5 C 0 km/h
2291 28-03-2009 02:29:02 3.7 C 5.67 g/m*3 3.7 C 0 km/h
2292 28-03-2009 02:41:02 3.7 C 5.73 g/m*3 3.7 C 0 km/h
2293 28-03-2009 02:53:02 3.8 C 5.77 g/m*3 3.8 C 0 km/h
2294 28-03-2009 03:05:02 3.8 C 5.77 g/m*3 3.8 C 0 km/h
2295 28-03-2009 03:17:02 3.9 C 5.81 g/m*3 3.9 C 0 km/h
2296 28-03-2009 03:29:02 4 C 5.85 g/m*3 4 C 0 km/h
2297 28-03-2009 03:41:02 4.1 C 5.89 g/m*3 4.1 C 0 km/h
2298 28-03-2009 03:53:02 4.2 C 5.93 g/m*3 4.2 C 0 km/h
2299 28-03-2009 04:05:02 4.3 C 6.03 g/m*3 4.3 C 0 km/h
2300 28-03-2009 04:17:02 4.3 C 6.03 g/m*3 4.3 C 0 km/h
Sensor: Nr:Datum:Temp:Abs-Feuchte:Windchill:Wind:
Aussen-T/F 2301 28-03-2009 04:29:02 4.3 C 6.03 g/m*3 4.3 C 0 km/h
2302 28-03-2009 04:41:02 4.3 C 6.03 g/m*3 4.3 C 0 km/h
2303 28-03-2009 04:53:02 4.3 C 6.03 g/m*3 4.3 C 0 km/h
2304 28-03-2009 05:05:02 4.3 C 6.03 g/m*3 4.3 C 0 km/h
2305 28-03-2009 05:17:03 4.3 C 6.03 g/m*3 4.3 C 0 km/h
2306 28-03-2009 05:29:03 4.4 C 6.07 g/m*3 4.4 C 0 km/h
2307 28-03-2009 05:41:03 4.6 C 6.15 g/m*3 4.6 C 0 km/h
2308 28-03-2009 05:53:03 4.7 C 6.19 g/m*3 4.7 C 0 km/h
2309 28-03-2009 06:05:03 4.8 C 6.24 g/m*3 4.8 C 0 km/h
2310 28-03-2009 06:17:03 4.8 C 6.17 g/m*3 4.8 C 0 km/h
2311 28-03-2009 06:29:03 4.9 C 6.21 g/m*3 4.9 C 0 km/h
2312 28-03-2009 06:41:03 5 C 6.18 g/m*3 5 C 0 km/h
2313 28-03-2009 06:53:03 5.2 C 6.2 g/m*3 5.2 C 0 km/h
2314 28-03-2009 07:05:03 5 C 6.05 g/m*3 5 C 0 km/h
2315 28-03-2009 07:17:03 4.7 C 6 g/m*3 4.7 C 0 km/h
2316 28-03-2009 07:29:03 4.9 C 6.08 g/m*3 4.9 C 0 km/h
2317 28-03-2009 07:41:03 4.8 C 6.04 g/m*3 4.8 C 0 km/h
2318 28-03-2009 07:53:03 5.2 C 6.13 g/m*3 5.2 C 0 km/h
2319 28-03-2009 08:05:03 5.6 C 6.36 g/m*3 5.6 C 0 km/h
2320 28-03-2009 08:17:03 5.8 C 6.45 g/m*3 5.8 C 0 km/h
2321 28-03-2009 08:29:03 5.9 C 6.42 g/m*3 5.9 C 0 km/h
2322 28-03-2009 08:41:03 6.8 C 6.73 g/m*3 6.8 C 0 km/h
2323 28-03-2009 08:53:03 7.6 C 6.28 g/m*3 7.6 C 0 km/h
2324 28-03-2009 09:05:04 8.2 C 5.95 g/m*3 8.2 C 0 km/h
2325 28-03-2009 09:17:04 8.9 C 5.78 g/m*3 8.9 C 0 km/h
Sensor: Nr:Datum:Temp:Abs-Feuchte:Windchill:Wind:
Aussen-T/F 2326 28-03-2009 09:29:04 9 C 5.38 g/m*3 9 C 0 km/h
2327 28-03-2009 09:41:02 8.6 C 5.76 g/m*3 8.6 C 0 km/h
2328 28-03-2009 09:53:01 7.9 C 5.83 g/m*3 7.9 C 0 km/h
2329 28-03-2009 10:05:01 7.7 C 6 g/m*3 7.7 C 0 km/h
2330 28-03-2009 10:17:01 7.6 C 6.2 g/m*3 7.6 C 0 km/h
2331 28-03-2009 10:29:01 7.6 C 6.28 g/m*3 7.6 C 0 km/h
2332 28-03-2009 10:41:01 7.9 C 6.57 g/m*3 7.9 C 0 km/h
2333 28-03-2009 10:53:00 7.9 C 6.65 g/m*3 7.9 C 0 km/h
2334 28-03-2009 11:05:01 7.9 C 6.57 g/m*3 7.9 C 0 km/h
2335 28-03-2009 11:17:00 8.5 C 6.32 g/m*3 8.5 C 0 km/h
2336 28-03-2009 11:29:00 8.6 C 6.02 g/m*3 8.6 C 0 km/h
2337 28-03-2009 11:41:00 8.6 C 5.84 g/m*3 8.6 C 0 km/h
2338 28-03-2009 11:53:02 8.5 C 5.98 g/m*3 8.5 C 0 km/h
2339 28-03-2009 12:05:01 8.3 C 6.07 g/m*3 8.3 C 0 km/h
2340 28-03-2009 12:17:01 8.3 C 6.15 g/m*3 8.3 C 0 km/h
2341 28-03-2009 12:29:01 8.1 C 5.91 g/m*3 8.1 C 0 km/h
2342 28-03-2009 12:41:02 8.5 C 6.06 g/m*3 8.5 C 0 km/h
2343 28-03-2009 12:53:01 9 C 5.55 g/m*3 9 C 0 km/h
2344 28-03-2009 13:05:01 9.1 C 5.59 g/m*3 9.1 C 0 km/h
2345 28-03-2009 13:17:01 9.4 C 5.52 g/m*3 9.4 C 0 km/h
2346 28-03-2009 13:29:01 9.9 C 5.32 g/m*3 9.9 C 0 km/h
2347 28-03-2009 13:41:01 10.3 C 5.17 g/m*3 10.3 C 0 km/h
2348 28-03-2009 13:53:00 8.9 C 5.43 g/m*3 8.9 C 0 km/h
2349 28-03-2009 14:05:01 7 C 5.35 g/m*3 7 C 0 km/h
2350 28-03-2009 14:17:00 7.1 C 5.54 g/m*3 7.1 C 0 km/h
Sensor: Nr:Datum:Temp:Abs-Feuchte:Windchill:Wind:
Aussen-T/F 2351 28-03-2009 14:29:00 8.2 C 5.53 g/m*3 8.2 C 0 km/h
2352 28-03-2009 14:41:00 9.2 C 5.54 g/m*3 9.2 C 0 km/h
2353 28-03-2009 14:53:00 10.5 C 5.24 g/m*3 10.5 C 0 km/h
2354 28-03-2009 15:05:00 11.2 C 5.27 g/m*3 11.2 C 0 km/h
2355 28-03-2009 15:17:00 11.6 C 4.78 g/m*3 11.6 C 0 km/h
2356 28-03-2009 15:29:00 11 C 4.7 g/m*3 11 C 0 km/h
2357 28-03-2009 15:41:59 10.7 C 4.81 g/m*3 10.7 C 0 km/h
2358 28-03-2009 15:53:00 11.2 C 4.26 g/m*3 11.2 C 0 km/h
2359 28-03-2009 16:05:59 10.5 C 4.17 g/m*3 10.5 C 0 km/h
2360 28-03-2009 16:17:59 10.9 C 4.28 g/m*3 10.9 C 0 km/h
2361 28-03-2009 16:29:59 10.3 C 4.21 g/m*3 10.3 C 0 km/h
2362 28-03-2009 16:41:58 10.7 C 4.13 g/m*3 10.7 C 0 km/h
2363 28-03-2009 16:53:59 11.3 C 3.67 g/m*3 11.3 C 0 km/h
2364 28-03-2009 17:05:59 10.6 C 3.51 g/m*3 10.6 C 0 km/h
2365 28-03-2009 17:17:58 10.2 C 3.52 g/m*3 10.2 C 0 km/h
2366 28-03-2009 17:29:58 9.7 C 3.6 g/m*3 9.7 C 0 km/h
2367 28-03-2009 17:41:59 9.7 C 3.5 g/m*3 9.7 C 0 km/h
2368 28-03-2009 17:53:58 9.7 C 3.69 g/m*3 9.7 C 0 km/h
2369 28-03-2009 18:05:58 9.7 C 3.69 g/m*3 9.7 C 0 km/h
2370 28-03-2009 18:17:58 10.5 C 3.59 g/m*3 10.5 C 0 km/h
2371 28-03-2009 18:29:58 10.2 C 3.33 g/m*3 10.2 C 0 km/h
2372 28-03-2009 18:41:58 9.5 C 3.37 g/m*3 9.5 C 0 km/h
2373 28-03-2009 18:53:57 9 C 3.35 g/m*3 9 C 0 km/h
2374 28-03-2009 19:05:58 8.7 C 3.46 g/m*3 8.7 C 0 km/h
2375 28-03-2009 19:17:58 8.2 C 3.43 g/m*3 8.2 C 0 km/h
Sensor: Nr:Datum:Temp:Abs-Feuchte:Windchill:Wind:
Aussen-T/F 2376 28-03-2009 19:29:58 7.9 C 3.7 g/m*3 7.9 C 0 km/h
2377 28-03-2009 19:41:57 7.6 C 3.71 g/m*3 7.6 C 0 km/h
2378 28-03-2009 19:53:57 7.3 C 3.95 g/m*3 7.3 C 0 km/h
2379 28-03-2009 20:05:57 6.9 C 4.16 g/m*3 6.9 C 0 km/h
2380 28-03-2009 20:17:57 6.7 C 4.33 g/m*3 6.7 C 0 km/h
2381 28-03-2009 20:29:57 6.9 C 4.31 g/m*3 6.9 C 0 km/h
2382 28-03-2009 20:41:57 7 C 4.34 g/m*3 7 C 0 km/h
2383 28-03-2009 20:53:57 6.9 C 4.39 g/m*3 6.9 C 0 km/h
2384 28-03-2009 21:05:57 6.4 C 4.32 g/m*3 6.4 C 0 km/h
2385 28-03-2009 21:17:56 6.2 C 4.41 g/m*3 6.2 C 0 km/h
2386 28-03-2009 21:29:56 6 C 4.43 g/m*3 6 C 0 km/h
2387 28-03-2009 21:41:56 6 C 4.43 g/m*3 6 C 0 km/h
2388 28-03-2009 21:53:56 6.4 C 4.55 g/m*3 6.4 C 0 km/h
2389 28-03-2009 22:05:56 6.4 C 4.55 g/m*3 6.4 C 0 km/h
2390 28-03-2009 22:17:56 6.5 C 4.5 g/m*3 6.5 C 0 km/h
2391 28-03-2009 22:29:56 6.9 C 4.46 g/m*3 6.9 C 0 km/h
2392 28-03-2009 22:42:56 7.1 C 4.29 g/m*3 7.1 C 0 km/h
2393 28-03-2009 22:54:56 7.2 C 4.24 g/m*3 7.2 C 0 km/h
2394 28-03-2009 23:06:56 7.2 C 4.24 g/m*3 7.2 C 0 km/h
2395 28-03-2009 23:18:56 6.6 C 4.76 g/m*3 6.6 C 0 km/h
2396 28-03-2009 23:30:57 6 C 5.01 g/m*3 6 C 0 km/h
2397 28-03-2009 23:42:57 5.8 C 5.16 g/m*3 5.8 C 0 km/h
2398 28-03-2009 23:54:57 5.9 C 5.34 g/m*3 5.9 C 0 km/h
2399 29-03-2009 00:06:57 6 C 5.08 g/m*3 6 C 0 km/h
2400 29-03-2009 00:18:57 6.3 C 4.96 g/m*3 6.3 C 0 km/h
Sensor: Nr:Datum:Temp:Abs-Feuchte:Windchill:Wind:
Aussen-T/F 2401 29-03-2009 00:30:57 6.3 C 4.74 g/m*3 6.3 C 0 km/h
2402 29-03-2009 00:42:57 6 C 4.79 g/m*3 6 C 0 km/h
2403 29-03-2009 00:54:57 5.9 C 4.9 g/m*3 5.9 C 0 km/h
2404 29-03-2009 01:06:57 5.9 C 4.98 g/m*3 5.9 C 0 km/h
2405 29-03-2009 01:18:57 5.9 C 4.9 g/m*3 5.9 C 0 km/h
2406 29-03-2009 01:30:57 6 C 4.94 g/m*3 6 C 0 km/h
2407 29-03-2009 01:42:57 5.9 C 4.98 g/m*3 5.9 C 0 km/h
2408 29-03-2009 01:54:57 5.9 C 5.12 g/m*3 5.9 C 0 km/h
2409 29-03-2009 02:06:57 5.7 C 4.98 g/m*3 5.7 C 0 km/h
2410 29-03-2009 02:18:57 5.3 C 4.99 g/m*3 5.3 C 0 km/h
2411 29-03-2009 02:30:57 5.1 C 4.92 g/m*3 5.1 C 0 km/h
2412 29-03-2009 02:42:57 4.8 C 4.96 g/m*3 4.8 C 0 km/h
2413 29-03-2009 02:54:57 4.9 C 5.06 g/m*3 4.9 C 0 km/h
2414 29-03-2009 04:06:57 5 C 5.03 g/m*3 5 C 0 km/h
2415 29-03-2009 04:18:57 5.2 C 5.03 g/m*3 5.2 C 0 km/h
2416 29-03-2009 04:30:58 5.2 C 4.82 g/m*3 5.2 C 0 km/h
2417 29-03-2009 04:42:58 5.2 C 4.68 g/m*3 5.2 C 0 km/h
2418 29-03-2009 04:54:58 5.2 C 4.54 g/m*3 5.2 C 0 km/h
2419 29-03-2009 05:06:58 5.1 C 4.31 g/m*3 5.1 C 0 km/h
2420 29-03-2009 05:18:58 5.1 C 4.24 g/m*3 5.1 C 0 km/h
2421 29-03-2009 05:30:58 5.1 C 4.17 g/m*3 5.1 C 0 km/h
2422 29-03-2009 05:42:58 5.1 C 4.31 g/m*3 5.1 C 0 km/h
2423 29-03-2009 05:54:58 5.2 C 4.27 g/m*3 5.2 C 0 km/h
2424 29-03-2009 06:06:58 5.2 C 4.2 g/m*3 5.2 C 0 km/h
2425 29-03-2009 06:18:58 5.2 C 4.2 g/m*3 5.2 C 0 km/h
Sensor: Nr:Datum:Temp:Abs-Feuchte:Windchill:Wind:
Aussen-T/F 2426 29-03-2009 06:30:58 5.1 C 4.24 g/m*3 5.1 C 0 km/h
2427 29-03-2009 06:42:58 5 C 4.21 g/m*3 5 C 0 km/h
2428 29-03-2009 06:54:58 4.8 C 4.43 g/m*3 4.8 C 0 km/h
2429 29-03-2009 07:06:58 4.6 C 4.43 g/m*3 4.6 C 0 km/h
2430 29-03-2009 07:18:58 4.6 C 4.5 g/m*3 4.6 C 0 km/h
2431 29-03-2009 07:30:58 4.7 C 4.53 g/m*3 4.7 C 0 km/h
2432 29-03-2009 07:42:58 4.5 C 4.47 g/m*3 4.5 C 0 km/h
2433 29-03-2009 07:54:58 4.4 C 4.44 g/m*3 4.4 C 0 km/h
2434 29-03-2009 08:06:58 4.7 C 4.53 g/m*3 4.7 C 0 km/h
2435 29-03-2009 08:18:59 5 C 4.48 g/m*3 5 C 0 km/h
2436 29-03-2009 08:30:59 5.1 C 4.45 g/m*3 5.1 C 0 km/h
2437 29-03-2009 08:42:59 5.1 C 4.45 g/m*3 5.1 C 0 km/h
2438 29-03-2009 08:54:59 5.2 C 4.48 g/m*3 5.2 C 0 km/h
2439 29-03-2009 09:06:59 5.4 C 4.47 g/m*3 5.4 C 0 km/h
2440 29-03-2009 09:18:59 5.5 C 4.57 g/m*3 5.5 C 0 km/h
2441 29-03-2009 09:30:56 5.5 C 4.57 g/m*3 5.5 C 0 km/h
2442 29-03-2009 09:42:56 5.6 C 4.67 g/m*3 5.6 C 0 km/h
2443 29-03-2009 09:54:56 5.1 C 4.99 g/m*3 5.1 C 0 km/h
2444 29-03-2009 10:06:56 5.3 C 5.27 g/m*3 5.3 C 0 km/h
2445 29-03-2009 10:18:01 5.4 C 5.37 g/m*3 5.4 C 0 km/h
2446 29-03-2009 10:30:01 5.9 C 5.55 g/m*3 5.9 C 0 km/h
2447 29-03-2009 10:42:02 6.3 C 5.4 g/m*3 6.3 C 0 km/h
2448 29-03-2009 10:54:01 6.4 C 5.22 g/m*3 6.4 C 0 km/h
2449 29-03-2009 11:06:02 6.2 C 5.07 g/m*3 6.2 C 0 km/h
2450 29-03-2009 11:18:01 6.2 C 5.07 g/m*3 6.2 C 0 km/h
Sensor: Nr:Datum:Temp:Abs-Feuchte:Windchill:Wind:
Aussen-T/F 2451 29-03-2009 11:30:01 6.5 C 5.02 g/m*3 6.5 C 0 km/h
2452 29-03-2009 11:42:01 6.5 C 4.95 g/m*3 6.5 C 0 km/h
2453 29-03-2009 11:54:01 6.7 C 5.01 g/m*3 6.7 C 0 km/h
2454 29-03-2009 12:06:01 6.9 C 5 g/m*3 6.9 C 0 km/h
2455 29-03-2009 12:18:00 7.6 C 5.08 g/m*3 7.6 C 0 km/h
2456 29-03-2009 12:30:00 8.4 C 5.09 g/m*3 8.4 C 0 km/h
2457 29-03-2009 12:42:01 8 C 4.88 g/m*3 8 C 0 km/h
2458 29-03-2009 12:54:00 8.1 C 4.99 g/m*3 8.1 C 0 km/h
2459 29-03-2009 13:06:00 8.9 C 4.99 g/m*3 8.9 C 0 km/h
2460 29-03-2009 13:18:00 7.8 C 4.73 g/m*3 7.8 C 0 km/h
2461 29-03-2009 13:30:00 7.8 C 5.06 g/m*3 7.8 C 0 km/h
2462 29-03-2009 13:42:00 8.5 C 4.95 g/m*3 8.5 C 0 km/h
2463 29-03-2009 13:54:00 8.8 C 4.96 g/m*3 8.8 C 0 km/h
2464 29-03-2009 14:06:00 9 C 4.58 g/m*3 9 C 0 km/h
2465 29-03-2009 14:18:00 7.9 C 4.85 g/m*3 7.9 C 0 km/h
2466 29-03-2009 14:30:00 6.7 C 5.09 g/m*3 6.7 C 0 km/h
2467 29-03-2009 14:42:59 6.6 C 5.44 g/m*3 6.6 C 0 km/h
2468 29-03-2009 14:54:00 6.9 C 5.77 g/m*3 6.9 C 0 km/h
2469 29-03-2009 15:06:59 8.3 C 6.32 g/m*3 8.3 C 0 km/h
2470 29-03-2009 15:18:59 9 C 6.08 g/m*3 9 C 0 km/h
2471 29-03-2009 15:30:58 8.4 C 5.26 g/m*3 8.4 C 0 km/h
2472 29-03-2009 15:42:58 9 C 5.47 g/m*3 9 C 0 km/h
2473 29-03-2009 15:54:59 8.1 C 4.66 g/m*3 8.1 C 0 km/h
2474 29-03-2009 16:06:58 7.4 C 4.61 g/m*3 7.4 C 0 km/h
2475 29-03-2009 16:18:58 7.7 C 4.54 g/m*3 7.7 C 0 km/h
Sensor: Nr:Datum:Temp:Abs-Feuchte:Windchill:Wind:
Aussen-T/F 2476 29-03-2009 16:30:58 8.1 C 4.58 g/m*3 8.1 C 0 km/h
2477 29-03-2009 16:42:58 8.3 C 4.38 g/m*3 8.3 C 0 km/h
2478 29-03-2009 16:54:58 8.4 C 4.16 g/m*3 8.4 C 0 km/h
2479 29-03-2009 17:06:58 9 C 4.14 g/m*3 9 C 0 km/h
2480 29-03-2009 17:18:57 9.5 C 4.28 g/m*3 9.5 C 0 km/h
2481 29-03-2009 17:30:58 9.8 C 4.08 g/m*3 9.8 C 0 km/h
2482 29-03-2009 17:42:58 9 C 3.97 g/m*3 9 C 0 km/h
2483 29-03-2009 17:54:57 8.5 C 3.84 g/m*3 8.5 C 0 km/h
2484 29-03-2009 18:06:58 8.2 C 4.02 g/m*3 8.2 C 0 km/h
2485 29-03-2009 18:18:57 8 C 4.22 g/m*3 8 C 0 km/h
2486 29-03-2009 18:30:57 8 C 4.38 g/m*3 8 C 0 km/h
2487 29-03-2009 18:42:57 7.8 C 4.49 g/m*3 7.8 C 0 km/h
2488 29-03-2009 18:54:57 7.5 C 4.72 g/m*3 7.5 C 0 km/h
2489 29-03-2009 19:06:57 7.3 C 4.82 g/m*3 7.3 C 0 km/h
2490 29-03-2009 19:18:56 7 C 4.8 g/m*3 7 C 0 km/h
2491 29-03-2009 19:30:56 6.3 C 5.26 g/m*3 6.3 C 0 km/h
2492 29-03-2009 19:42:56 6.1 C 5.48 g/m*3 6.1 C 0 km/h
2493 29-03-2009 19:54:56 6 C 5.66 g/m*3 6 C 0 km/h
2494 29-03-2009 20:06:56 5.9 C 5.84 g/m*3 5.9 C 0 km/h
2495 29-03-2009 20:18:56 5.7 C 5.84 g/m*3 5.7 C 0 km/h
2496 29-03-2009 20:30:56 5.5 C 5.83 g/m*3 5.5 C 0 km/h
2497 29-03-2009 20:42:56 5.4 C 5.86 g/m*3 5.4 C 0 km/h
2498 29-03-2009 20:54:56 5.3 C 5.82 g/m*3 5.3 C 0 km/h
2499 29-03-2009 21:06:55 5 C 5.71 g/m*3 5 C 0 km/h
2500 29-03-2009 21:18:56 4.8 C 5.7 g/m*3 4.8 C 0 km/h
Sensor: Nr:Datum:Temp:Abs-Feuchte:Windchill:Wind:
Aussen-T/F 2501 29-03-2009 21:30:55 4.7 C 5.66 g/m*3 4.7 C 0 km/h
2502 29-03-2009 21:42:55 4.5 C 5.59 g/m*3 4.5 C 0 km/h
2503 29-03-2009 21:54:55 4.5 C 5.65 g/m*3 4.5 C 0 km/h
2504 29-03-2009 22:06:55 4.6 C 5.69 g/m*3 4.6 C 0 km/h
2505 29-03-2009 22:18:55 4.6 C 5.69 g/m*3 4.6 C 0 km/h
2506 29-03-2009 22:30:55 4.4 C 5.55 g/m*3 4.4 C 0 km/h
2507 29-03-2009 22:42:55 4.3 C 5.51 g/m*3 4.3 C 0 km/h
2508 29-03-2009 22:54:55 4.3 C 5.45 g/m*3 4.3 C 0 km/h
2509 29-03-2009 23:06:55 4.3 C 5.38 g/m*3 4.3 C 0 km/h
2510 29-03-2009 23:18:54 4.3 C 5.32 g/m*3 4.3 C 0 km/h
2511 29-03-2009 23:31:02 4.1 C 5.18 g/m*3 4.1 C 0 km/h
2512 29-03-2009 23:43:02 3.8 C 5.14 g/m*3 3.8 C 0 km/h
2513 29-03-2009 23:55:02 3.6 C 5.08 g/m*3 3.6 C 0 km/h
2514 30-03-2009 00:07:02 3.5 C 5.04 g/m*3 3.5 C 0 km/h
2515 30-03-2009 00:19:02 3.3 C 4.97 g/m*3 3.3 C 0 km/h
2516 30-03-2009 00:31:02 3.1 C 4.91 g/m*3 3.1 C 0 km/h
2517 30-03-2009 00:43:02 3 C 4.93 g/m*3 3 C 0 km/h
2518 30-03-2009 00:55:02 3 C 4.93 g/m*3 3 C 0 km/h
2519 30-03-2009 01:07:02 2.7 C 4.89 g/m*3 2.7 C 0 km/h
2520 30-03-2009 01:19:02 2.5 C 4.83 g/m*3 2.5 C 0 km/h
2521 30-03-2009 01:31:02 2.3 C 4.82 g/m*3 2.3 C 0 km/h
2522 30-03-2009 01:43:02 2.1 C 4.76 g/m*3 2.1 C 0 km/h
2523 30-03-2009 01:55:02 2 C 4.72 g/m*3 2 C 0 km/h
2524 30-03-2009 02:07:03 2 C 4.78 g/m*3 2 C 0 km/h
2525 30-03-2009 02:19:03 1.9 C 4.8 g/m*3 1.9 C 0 km/h
Sensor: Nr:Datum:Temp:Abs-Feuchte:Windchill:Wind:
Aussen-T/F 2526 30-03-2009 02:31:03 1.8 C 4.77 g/m*3 1.8 C 0 km/h
2527 30-03-2009 02:43:03 1.7 C 4.74 g/m*3 1.7 C 0 km/h
2528 30-03-2009 02:55:03 1.8 C 4.77 g/m*3 1.8 C 0 km/h
2529 30-03-2009 03:07:03 1.5 C 4.73 g/m*3 1.5 C 0 km/h
2530 30-03-2009 03:19:03 1.5 C 4.67 g/m*3 1.5 C 0 km/h
2531 30-03-2009 03:31:03 1.4 C 4.69 g/m*3 1.4 C 0 km/h
2532 30-03-2009 03:43:03 1.3 C 4.66 g/m*3 1.3 C 0 km/h
2533 30-03-2009 03:55:03 1.2 C 4.63 g/m*3 1.2 C 0 km/h
2534 30-03-2009 04:07:03 1.2 C 4.63 g/m*3 1.2 C 0 km/h
2535 30-03-2009 04:19:03 1.2 C 4.63 g/m*3 1.2 C 0 km/h
2536 30-03-2009 04:31:03 1.1 C 4.6 g/m*3 1.1 C 0 km/h
2537 30-03-2009 04:43:03 1.2 C 4.63 g/m*3 1.2 C 0 km/h
2538 30-03-2009 04:55:03 1.3 C 4.66 g/m*3 1.3 C 0 km/h
2539 30-03-2009 05:07:03 1 C 4.57 g/m*3 1 C 0 km/h
2540 30-03-2009 05:19:03 1 C 4.57 g/m*3 1 C 0 km/h
2541 30-03-2009 05:31:03 0.8 C 4.56 g/m*3 0.8 C 0 km/h
2542 30-03-2009 05:43:03 0.7 C 4.53 g/m*3 0.7 C 0 km/h
2543 30-03-2009 05:55:03 0.7 C 4.53 g/m*3 0.7 C 0 km/h
2544 30-03-2009 06:07:04 0.6 C 4.49 g/m*3 0.6 C 0 km/h
2545 30-03-2009 06:19:04 0.4 C 4.43 g/m*3 0.4 C 0 km/h
2546 30-03-2009 06:31:04 0.3 C 4.4 g/m*3 0.3 C 0 km/h
2547 30-03-2009 06:43:04 0.3 C 4.45 g/m*3 0.3 C 0 km/h
2548 30-03-2009 06:55:04 0 C 4.31 g/m*3 0 C 0 km/h
2549 30-03-2009 07:07:01 -0.2 C 4.25 g/m*3 -0.2 C 0 km/h
2550 30-03-2009 07:19:01 -0.2 C 4.25 g/m*3 -0.2 C 0 km/h
Sensor: Nr:Datum:Temp:Abs-Feuchte:Windchill:Wind:
Aussen-T/F 2551 30-03-2009 07:31:01 -0.2 C 4.25 g/m*3 -0.2 C 0 km/h
2552 30-03-2009 07:43:01 -0.2 C 4.3 g/m*3 -0.2 C 0 km/h
2553 30-03-2009 07:55:01 -0.2 C 4.3 g/m*3 -0.2 C 0 km/h
2554 30-03-2009 08:07:00 0 C 4.36 g/m*3 0 C 0 km/h
2555 30-03-2009 08:19:01 0.3 C 4.45 g/m*3 0.3 C 0 km/h
2556 30-03-2009 08:31:00 0.5 C 4.56 g/m*3 0.5 C 0 km/h
2557 30-03-2009 08:43:00 0.6 C 4.6 g/m*3 0.6 C 0 km/h
2558 30-03-2009 08:55:00 0.9 C 4.69 g/m*3 0.9 C 0 km/h
2559 30-03-2009 09:07:00 1.3 C 4.82 g/m*3 1.3 C 0 km/h
2560 30-03-2009 09:19:00 1.4 C 4.91 g/m*3 1.4 C 0 km/h
2561 30-03-2009 09:31:00 1.5 C 4.89 g/m*3 1.5 C 0 km/h
2562 30-03-2009 09:43:00 1.9 C 5.08 g/m*3 1.9 C 0 km/h
2563 30-03-2009 09:55:00 2.7 C 5.36 g/m*3 2.7 C 0 km/h
2564 30-03-2009 10:07:00 3.1 C 5.51 g/m*3 3.1 C 0 km/h
2565 30-03-2009 10:19:59 3.4 C 5.62 g/m*3 3.4 C 0 km/h
2566 30-03-2009 10:31:59 3.7 C 5.73 g/m*3 3.7 C 0 km/h
2567 30-03-2009 10:43:59 4.1 C 5.89 g/m*3 4.1 C 0 km/h
2568 30-03-2009 10:55:59 4.6 C 6.09 g/m*3 4.6 C 0 km/h
2569 30-03-2009 11:07:59 5.1 C 6.22 g/m*3 5.1 C 0 km/h
2570 30-03-2009 11:19:59 5.7 C 6.48 g/m*3 5.7 C 0 km/h
2571 30-03-2009 11:31:58 6.2 C 6.55 g/m*3 6.2 C 0 km/h
2572 30-03-2009 11:43:58 6.7 C 6.38 g/m*3 6.7 C 0 km/h
2573 30-03-2009 11:55:59 7 C 5.73 g/m*3 7 C 0 km/h
2574 30-03-2009 12:07:58 7.7 C 5.76 g/m*3 7.7 C 0 km/h
2575 30-03-2009 12:19:58 8.2 C 5.28 g/m*3 8.2 C 0 km/h
Sensor: Nr:Datum:Temp:Abs-Feuchte:Windchill:Wind:
Aussen-T/F 2576 30-03-2009 12:31:58 8.5 C 4.95 g/m*3 8.5 C 0 km/h
2577 30-03-2009 12:43:58 9.1 C 4.88 g/m*3 9.1 C 0 km/h
2578 30-03-2009 12:55:58 10.1 C 4.73 g/m*3 10.1 C 0 km/h
2579 30-03-2009 13:07:57 10.4 C 4.34 g/m*3 10.4 C 0 km/h
2580 30-03-2009 13:19:58 10 C 4.13 g/m*3 10 C 0 km/h
2581 30-03-2009 13:31:58 10.1 C 4.26 g/m*3 10.1 C 0 km/h
2582 30-03-2009 13:43:58 10.7 C 4.13 g/m*3 10.7 C 0 km/h
2583 30-03-2009 13:55:57 11.7 C 4.08 g/m*3 11.7 C 0 km/h
2584 30-03-2009 14:07:58 12.9 C 3.94 g/m*3 12.9 C 0 km/h
2585 30-03-2009 14:19:57 12.9 C 3.49 g/m*3 12.9 C 0 km/h
2586 30-03-2009 14:31:57 12.8 C 3.36 g/m*3 12.8 C 0 km/h
2587 30-03-2009 14:43:57 12.7 C 3.34 g/m*3 12.7 C 0 km/h
2588 30-03-2009 14:55:57 13.4 C 2.79 g/m*3 13.4 C 0 km/h
2589 30-03-2009 15:07:57 13.9 C 2.76 g/m*3 13.9 C 0 km/h
2590 30-03-2009 15:19:56 13.2 C 2.87 g/m*3 13.2 C 0 km/h
2591 30-03-2009 15:31:56 12.9 C 3.04 g/m*3 12.9 C 0 km/h
2592 30-03-2009 15:43:56 14.5 C 2.49 g/m*3 14.5 C 0 km/h
2593 30-03-2009 15:55:56 15.8 C 2.69 g/m*3 15.8 C 0 km/h
2594 30-03-2009 16:07:56 16.6 C 2.83 g/m*3 16.6 C 0 km/h
2595 30-03-2009 16:19:55 16.7 C 2.84 g/m*3 16.7 C 0 km/h
2596 30-03-2009 16:31:56 15.2 C 2.6 g/m*3 15.2 C 0 km/h
2597 30-03-2009 16:43:56 15 C 2.56 g/m*3 15 C 0 km/h
2598 30-03-2009 16:55:55 15.6 C 2.66 g/m*3 15.6 C 0 km/h
2599 30-03-2009 17:07:55 14.2 C 2.44 g/m*3 14.2 C 0 km/h
2600 30-03-2009 17:19:56 14.1 C 2.43 g/m*3 14.1 C 0 km/h
Sensor: Nr:Datum:Temp:Abs-Feuchte:Windchill:Wind:
Aussen-T/F 2601 30-03-2009 17:31:55 15.4 C 2.63 g/m*3 15.4 C 0 km/h
2602 30-03-2009 17:43:55 16.3 C 2.77 g/m*3 16.3 C 0 km/h
2603 30-03-2009 17:55:55 14.8 C 2.53 g/m*3 14.8 C 0 km/h
2604 30-03-2009 18:07:55 14.3 C 2.46 g/m*3 14.3 C 0 km/h
2605 30-03-2009 18:19:55 13.5 C 2.46 g/m*3 13.5 C 0 km/h
2606 30-03-2009 18:31:54 13.3 C 3 g/m*3 13.3 C 0 km/h
2607 30-03-2009 18:43:54 13.5 C 3.04 g/m*3 13.5 C 0 km/h
2608 30-03-2009 18:55:55 13.9 C 3.12 g/m*3 13.9 C 0 km/h
2609 30-03-2009 19:07:54 12.9 C 3.38 g/m*3 12.9 C 0 km/h
2610 30-03-2009 19:19:54 12.5 C 3.41 g/m*3 12.5 C 0 km/h
2611 30-03-2009 19:31:54 12.1 C 3.43 g/m*3 12.1 C 0 km/h
2612 30-03-2009 19:43:54 11.5 C 3.82 g/m*3 11.5 C 0 km/h
2613 30-03-2009 19:55:54 10.7 C 4.03 g/m*3 10.7 C 0 km/h
2614 30-03-2009 20:07:54 10.1 C 4.07 g/m*3 10.1 C 0 km/h
2615 30-03-2009 20:19:53 9.8 C 4.27 g/m*3 9.8 C 0 km/h
2616 30-03-2009 20:31:54 9.3 C 4.4 g/m*3 9.3 C 0 km/h
2617 30-03-2009 20:43:54 8.7 C 4.32 g/m*3 8.7 C 0 km/h
2618 30-03-2009 20:55:53 8.3 C 4.3 g/m*3 8.3 C 0 km/h
2619 30-03-2009 21:07:53 8 C 4.3 g/m*3 8 C 0 km/h
2620 30-03-2009 21:19:53 7.7 C 4.38 g/m*3 7.7 C 0 km/h
2621 30-03-2009 21:32:54 7.4 C 4.37 g/m*3 7.4 C 0 km/h
2622 30-03-2009 21:44:54 7.2 C 4.47 g/m*3 7.2 C 0 km/h
2623 30-03-2009 21:56:54 7 C 4.49 g/m*3 7 C 0 km/h
2624 30-03-2009 22:08:54 6.9 C 4.46 g/m*3 6.9 C 0 km/h
2625 30-03-2009 22:20:54 6.5 C 4.5 g/m*3 6.5 C 0 km/h
Sensor: Nr:Datum:Temp:Abs-Feuchte:Windchill:Wind:
Aussen-T/F 2626 30-03-2009 22:32:54 6.3 C 4.52 g/m*3 6.3 C 0 km/h
2627 30-03-2009 22:44:54 6.4 C 4.55 g/m*3 6.4 C 0 km/h
2628 30-03-2009 22:56:54 5.9 C 4.54 g/m*3 5.9 C 0 km/h
2629 30-03-2009 23:08:54 5.5 C 4.42 g/m*3 5.5 C 0 km/h
2630 30-03-2009 23:20:54 5.3 C 4.51 g/m*3 5.3 C 0 km/h
2631 30-03-2009 23:32:54 5.2 C 4.54 g/m*3 5.2 C 0 km/h
2632 30-03-2009 23:44:54 5.1 C 4.58 g/m*3 5.1 C 0 km/h
2633 30-03-2009 23:56:54 4.9 C 4.52 g/m*3 4.9 C 0 km/h
2634 31-03-2009 00:08:54 4.7 C 4.46 g/m*3 4.7 C 0 km/h
2635 31-03-2009 00:20:54 4.5 C 4.47 g/m*3 4.5 C 0 km/h
2636 31-03-2009 00:32:54 4.3 C 4.48 g/m*3 4.3 C 0 km/h
2637 31-03-2009 00:44:54 4 C 4.45 g/m*3 4 C 0 km/h
2638 31-03-2009 00:56:54 3.8 C 4.45 g/m*3 3.8 C 0 km/h
2639 31-03-2009 01:08:54 3.6 C 4.46 g/m*3 3.6 C 0 km/h
2640 31-03-2009 01:20:54 3.5 C 4.43 g/m*3 3.5 C 0 km/h
2641 31-03-2009 01:32:54 3.2 C 4.4 g/m*3 3.2 C 0 km/h
2642 31-03-2009 01:44:55 3.1 C 4.43 g/m*3 3.1 C 0 km/h
2643 31-03-2009 01:56:55 3 C 4.4 g/m*3 3 C 0 km/h
2644 31-03-2009 02:08:55 2.9 C 4.49 g/m*3 2.9 C 0 km/h
2645 31-03-2009 02:20:55 2.7 C 4.37 g/m*3 2.7 C 0 km/h
2646 31-03-2009 02:32:55 2.5 C 4.31 g/m*3 2.5 C 0 km/h
2647 31-03-2009 02:44:55 2.3 C 4.31 g/m*3 2.3 C 0 km/h
2648 31-03-2009 02:56:55 2.1 C 4.25 g/m*3 2.1 C 0 km/h
2649 31-03-2009 03:08:55 2.1 C 4.31 g/m*3 2.1 C 0 km/h
2650 31-03-2009 03:20:55 2 C 4.33 g/m*3 2 C 0 km/h
Sensor: Nr:Datum:Temp:Abs-Feuchte:Windchill:Wind:
Aussen-T/F 2651 31-03-2009 03:32:55 1.8 C 4.33 g/m*3 1.8 C 0 km/h
2652 31-03-2009 03:44:55 1.6 C 4.27 g/m*3 1.6 C 0 km/h
2653 31-03-2009 03:56:55 1.5 C 4.3 g/m*3 1.5 C 0 km/h
2654 31-03-2009 04:08:55 1.3 C 4.29 g/m*3 1.3 C 0 km/h
2655 31-03-2009 04:20:55 1.2 C 4.26 g/m*3 1.2 C 0 km/h
2656 31-03-2009 04:32:55 1 C 4.2 g/m*3 1 C 0 km/h
2657 31-03-2009 04:44:55 1 C 4.2 g/m*3 1 C 0 km/h
2658 31-03-2009 04:56:55 1 C 4.2 g/m*3 1 C 0 km/h
2659 31-03-2009 05:08:55 0.8 C 4.2 g/m*3 0.8 C 0 km/h
2660 31-03-2009 05:20:55 0.6 C 4.14 g/m*3 0.6 C 0 km/h
2661 31-03-2009 05:32:55 0.6 C 4.14 g/m*3 0.6 C 0 km/h
2662 31-03-2009 05:44:56 0.4 C 4.08 g/m*3 0.4 C 0 km/h
2663 31-03-2009 05:56:56 0.3 C 4.06 g/m*3 0.3 C 0 km/h
2664 31-03-2009 06:08:56 0.3 C 4.11 g/m*3 0.3 C 0 km/h
2665 31-03-2009 06:20:56 0.2 C 4.08 g/m*3 0.2 C 0 km/h
2666 31-03-2009 06:32:56 0 C 4.07 g/m*3 0 C 0 km/h
2667 31-03-2009 06:44:56 -0.2 C 3.97 g/m*3 -0.2 C 0 km/h
2668 31-03-2009 06:56:56 -0.3 C 3.94 g/m*3 -0.3 C 0 km/h
2669 31-03-2009 07:08:53 -0.3 C 3.99 g/m*3 -0.3 C 0 km/h
2670 31-03-2009 07:20:54 -0.3 C 3.99 g/m*3 -0.3 C 0 km/h
2671 31-03-2009 07:32:53 -0.5 C 3.93 g/m*3 -0.5 C 0 km/h
2672 31-03-2009 07:44:53 -0.4 C 3.96 g/m*3 -0.4 C 0 km/h
2673 31-03-2009 07:56:53 -0.3 C 3.99 g/m*3 -0.3 C 0 km/h
2674 31-03-2009 08:08:53 -0.1 C 4.09 g/m*3 -0.1 C 0 km/h
2675 31-03-2009 08:20:53 0 C 4.12 g/m*3 0 C 0 km/h
Sensor: Nr:Datum:Temp:Abs-Feuchte:Windchill:Wind:
Aussen-T/F 2676 31-03-2009 08:32:52 0.1 C 4.2 g/m*3 0.1 C 0 km/h
2677 31-03-2009 08:44:53 0.3 C 4.25 g/m*3 0.3 C 0 km/h
2678 31-03-2009 08:56:53 0.4 C 4.28 g/m*3 0.4 C 0 km/h
2679 31-03-2009 09:08:52 0.6 C 4.34 g/m*3 0.6 C 0 km/h
2680 31-03-2009 09:20:52 0.8 C 4.4 g/m*3 0.8 C 0 km/h
2681 31-03-2009 09:32:52 1.1 C 4.49 g/m*3 1.1 C 0 km/h
2682 31-03-2009 09:44:52 1.5 C 4.67 g/m*3 1.5 C 0 km/h
2683 31-03-2009 09:56:52 2.1 C 4.87 g/m*3 2.1 C 0 km/h
2684 31-03-2009 10:08:52 2.8 C 5.04 g/m*3 2.8 C 0 km/h
2685 31-03-2009 10:20:51 3.4 C 5.01 g/m*3 3.4 C 0 km/h
2686 31-03-2009 10:32:52 4.1 C 4.99 g/m*3 4.1 C 0 km/h
2687 31-03-2009 10:44:51 4.6 C 5.03 g/m*3 4.6 C 0 km/h
2688 31-03-2009 10:56:51 5.2 C 4.82 g/m*3 5.2 C 0 km/h
2689 31-03-2009 11:08:52 5.9 C 4.76 g/m*3 5.9 C 0 km/h
2690 31-03-2009 11:20:51 6.5 C 4.57 g/m*3 6.5 C 0 km/h
2691 31-03-2009 11:32:51 7.4 C 4.69 g/m*3 7.4 C 0 km/h
2692 31-03-2009 11:44:51 7.9 C 4.68 g/m*3 7.9 C 0 km/h
2693 31-03-2009 11:56:51 8.5 C 4.61 g/m*3 8.5 C 0 km/h
2694 31-03-2009 12:08:51 9.1 C 4.44 g/m*3 9.1 C 0 km/h
2695 31-03-2009 12:20:50 9.6 C 4.12 g/m*3 9.6 C 0 km/h
2696 31-03-2009 12:32:50 10.6 C 4 g/m*3 10.6 C 0 km/h
2697 31-03-2009 12:44:50 11 C 3.6 g/m*3 11 C 0 km/h
2698 31-03-2009 12:56:50 11.6 C 3.33 g/m*3 11.6 C 0 km/h
2699 31-03-2009 13:08:50 12.1 C 3.32 g/m*3 12.1 C 0 km/h
2700 31-03-2009 13:20:49 12.5 C 2.97 g/m*3 12.5 C 0 km/h
Sensor: Nr:Datum:Temp:Abs-Feuchte:Windchill:Wind:
Aussen-T/F 2701 31-03-2009 13:32:50 13.2 C 2.53 g/m*3 13.2 C 0 km/h
2702 31-03-2009 13:44:49 13.6 C 2.59 g/m*3 13.6 C 0 km/h
2703 31-03-2009 13:56:49 14.2 C 2.44 g/m*3 14.2 C 0 km/h
2704 31-03-2009 14:08:49 14.7 C 2.52 g/m*3 14.7 C 0 km/h
2705 31-03-2009 14:20:50 15.1 C 2.58 g/m*3 15.1 C 0 km/h
2706 31-03-2009 14:32:49 15.9 C 2.71 g/m*3 15.9 C 0 km/h
2707 31-03-2009 14:44:49 16 C 2.72 g/m*3 16 C 0 km/h
2708 31-03-2009 14:56:49 16.8 C 2.86 g/m*3 16.8 C 0 km/h
2709 31-03-2009 15:08:49 17.2 C 2.93 g/m*3 17.2 C 0 km/h
2710 31-03-2009 15:20:49 17.3 C 2.95 g/m*3 17.3 C 0 km/h
2711 31-03-2009 15:32:48 17.8 C 3.04 g/m*3 17.8 C 0 km/h
2712 31-03-2009 15:44:49 18.1 C 3.09 g/m*3 18.1 C 0 km/h
2713 31-03-2009 15:56:49 18.6 C 3.18 g/m*3 18.6 C 0 km/h
2714 31-03-2009 16:08:48 18.3 C 3.13 g/m*3 18.3 C 0 km/h
2715 31-03-2009 16:20:48 19 C 3.26 g/m*3 19 C 0 km/h
2716 31-03-2009 16:32:48 19.6 C 3.38 g/m*3 19.6 C 0 km/h
2717 31-03-2009 16:44:48 20 C 3.46 g/m*3 20 C 0 km/h
2718 31-03-2009 16:56:49 20.3 C 3.52 g/m*3 20.3 C 0 km/h
2719 31-03-2009 17:08:47 20.3 C 3.52 g/m*3 20.3 C 0 km/h
2720 31-03-2009 17:20:48 20.3 C 3.52 g/m*3 20.3 C 0 km/h
2721 31-03-2009 17:32:48 20 C 3.46 g/m*3 20 C 0 km/h
2722 31-03-2009 17:44:47 20.6 C 3.58 g/m*3 20.6 C 0 km/h
2723 31-03-2009 17:56:47 20.1 C 3.48 g/m*3 20.1 C 0 km/h
2724 31-03-2009 18:08:48 20 C 3.46 g/m*3 20 C 0 km/h
2725 31-03-2009 18:20:47 19.8 C 3.42 g/m*3 19.8 C 0 km/h
Sensor: Nr:Datum:Temp:Abs-Feuchte:Windchill:Wind:
Aussen-T/F 2726 31-03-2009 18:32:47 19.3 C 3.32 g/m*3 19.3 C 0 km/h
2727 31-03-2009 18:44:46 19.2 C 3.3 g/m*3 19.2 C 0 km/h
2728 31-03-2009 18:56:46 19 C 3.26 g/m*3 19 C 0 km/h
2729 31-03-2009 19:08:47 18.5 C 3.16 g/m*3 18.5 C 0 km/h
2730 31-03-2009 19:20:46 17.7 C 3.02 g/m*3 17.7 C 0 km/h
2731 31-03-2009 19:32:46 17 C 2.89 g/m*3 17 C 0 km/h
2732 31-03-2009 19:44:46 15.7 C 2.81 g/m*3 15.7 C 0 km/h
2733 31-03-2009 19:56:46 14.4 C 3.09 g/m*3 14.4 C 0 km/h
2734 31-03-2009 20:08:46 13.6 C 3.3 g/m*3 13.6 C 0 km/h
2735 31-03-2009 20:20:46 12.7 C 3.34 g/m*3 12.7 C 0 km/h
2736 31-03-2009 20:32:46 12.3 C 3.26 g/m*3 12.3 C 0 km/h
2737 31-03-2009 20:44:46 11.8 C 3.26 g/m*3 11.8 C 0 km/h
2738 31-03-2009 20:56:46 11.7 C 3.24 g/m*3 11.7 C 0 km/h
2739 31-03-2009 21:08:46 11.5 C 3.1 g/m*3 11.5 C 0 km/h
2740 31-03-2009 21:21:46 11.4 C 3.28 g/m*3 11.4 C 0 km/h
2741 31-03-2009 21:33:46 11.1 C 3.22 g/m*3 11.1 C 0 km/h
2742 31-03-2009 21:45:46 10.9 C 3.48 g/m*3 10.9 C 0 km/h
2743 31-03-2009 21:57:46 10.7 C 3.54 g/m*3 10.7 C 0 km/h
2744 31-03-2009 22:09:46 10.3 C 3.73 g/m*3 10.3 C 0 km/h
2745 31-03-2009 22:21:46 9.8 C 3.9 g/m*3 9.8 C 0 km/h
2746 31-03-2009 22:33:46 9.5 C 3.82 g/m*3 9.5 C 0 km/h
2747 31-03-2009 22:45:46 9.1 C 3.9 g/m*3 9.1 C 0 km/h
2748 31-03-2009 22:57:46 8.9 C 4.03 g/m*3 8.9 C 0 km/h
2749 31-03-2009 23:09:46 8.7 C 4.06 g/m*3 8.7 C 0 km/h
2750 31-03-2009 23:21:46 8.6 C 4.04 g/m*3 8.6 C 0 km/h
Sensor: Nr:Datum:Temp:Abs-Feuchte:Windchill:Wind:
Aussen-T/F 2751 31-03-2009 23:33:46 8.3 C 4.13 g/m*3 8.3 C 0 km/h
2752 31-03-2009 23:45:46 8.1 C 4.08 g/m*3 8.1 C 0 km/h
2753 31-03-2009 23:57:46 8.1 C 4.08 g/m*3 8.1 C 0 km/h
2754 01-04-2009 00:09:46 8 C 3.97 g/m*3 8 C 0 km/h
2755 01-04-2009 00:21:46 7.6 C 4.11 g/m*3 7.6 C 0 km/h
2756 01-04-2009 00:33:46 7.5 C 4.16 g/m*3 7.5 C 0 km/h
2757 01-04-2009 00:45:47 7.3 C 4.19 g/m*3 7.3 C 0 km/h
2758 01-04-2009 00:57:47 7.2 C 4.24 g/m*3 7.2 C 0 km/h
2759 01-04-2009 01:09:47 7 C 4.34 g/m*3 7 C 0 km/h
2760 01-04-2009 01:21:47 6.9 C 4.31 g/m*3 6.9 C 0 km/h
2761 01-04-2009 01:33:47 6.7 C 4.33 g/m*3 6.7 C 0 km/h
2762 01-04-2009 01:45:47 6.6 C 4.38 g/m*3 6.6 C 0 km/h
2763 01-04-2009 01:57:47 6.3 C 4.44 g/m*3 6.3 C 0 km/h
2764 01-04-2009 02:09:47 6.2 C 4.49 g/m*3 6.2 C 0 km/h
2765 01-04-2009 02:21:47 5.8 C 4.44 g/m*3 5.8 C 0 km/h
2766 01-04-2009 02:33:47 5.6 C 4.45 g/m*3 5.6 C 0 km/h
2767 01-04-2009 02:45:47 5.5 C 4.49 g/m*3 5.5 C 0 km/h
2768 01-04-2009 02:57:47 5.2 C 4.41 g/m*3 5.2 C 0 km/h
2769 01-04-2009 03:09:47 4.9 C 4.39 g/m*3 4.9 C 0 km/h
2770 01-04-2009 03:21:47 4.8 C 4.43 g/m*3 4.8 C 0 km/h
2771 01-04-2009 03:33:47 4.7 C 4.46 g/m*3 4.7 C 0 km/h
2772 01-04-2009 03:45:47 4.6 C 4.5 g/m*3 4.6 C 0 km/h
2773 01-04-2009 03:57:47 4.4 C 4.51 g/m*3 4.4 C 0 km/h
2774 01-04-2009 04:09:47 4 C 4.39 g/m*3 4 C 0 km/h
2775 01-04-2009 04:21:47 4.1 C 4.48 g/m*3 4.1 C 0 km/h
Sensor: Nr:Datum:Temp:Abs-Feuchte:Windchill:Wind:
Aussen-T/F 2776 01-04-2009 04:33:47 3.8 C 4.45 g/m*3 3.8 C 0 km/h
2777 01-04-2009 04:45:48 3.9 C 4.55 g/m*3 3.9 C 0 km/h
2778 01-04-2009 04:57:48 3.6 C 4.46 g/m*3 3.6 C 0 km/h
2779 01-04-2009 05:09:48 3.3 C 4.37 g/m*3 3.3 C 0 km/h
2780 01-04-2009 05:21:48 3.4 C 4.52 g/m*3 3.4 C 0 km/h
2781 01-04-2009 05:33:48 3.2 C 4.46 g/m*3 3.2 C 0 km/h
2782 01-04-2009 05:45:48 3.2 C 4.46 g/m*3 3.2 C 0 km/h
2783 01-04-2009 05:57:48 3.1 C 4.43 g/m*3 3.1 C 0 km/h
2784 01-04-2009 06:09:48 3.3 C 4.49 g/m*3 3.3 C 0 km/h
2785 01-04-2009 06:21:48 3.2 C 4.58 g/m*3 3.2 C 0 km/h
2786 01-04-2009 06:33:48 2.9 C 4.49 g/m*3 2.9 C 0 km/h
2787 01-04-2009 06:45:48 2.7 C 4.49 g/m*3 2.7 C 0 km/h
2788 01-04-2009 06:57:48 2.5 C 4.43 g/m*3 2.5 C 0 km/h
2789 01-04-2009 07:09:46 2.5 C 4.48 g/m*3 2.5 C 0 km/h
2790 01-04-2009 07:21:45 2.1 C 4.31 g/m*3 2.1 C 0 km/h
2791 01-04-2009 07:33:45 2.2 C 4.39 g/m*3 2.2 C 0 km/h
2792 01-04-2009 07:45:45 2.3 C 4.48 g/m*3 2.3 C 0 km/h
2793 01-04-2009 07:57:45 2.4 C 4.51 g/m*3 2.4 C 0 km/h
2794 01-04-2009 08:09:45 2.4 C 4.57 g/m*3 2.4 C 0 km/h
2795 01-04-2009 08:21:44 2.5 C 4.6 g/m*3 2.5 C 0 km/h
2796 01-04-2009 08:33:45 2.6 C 4.63 g/m*3 2.6 C 0 km/h
2797 01-04-2009 08:45:45 2.7 C 4.66 g/m*3 2.7 C 0 km/h
2798 01-04-2009 08:57:45 3 C 4.7 g/m*3 3 C 0 km/h
2799 01-04-2009 09:09:44 3.3 C 4.79 g/m*3 3.3 C 0 km/h
2800 01-04-2009 09:21:45 3.7 C 4.92 g/m*3 3.7 C 0 km/h
Sensor: Nr:Datum:Temp:Abs-Feuchte:Windchill:Wind:
Aussen-T/F 2801 01-04-2009 09:33:44 4.1 C 4.99 g/m*3 4.1 C 0 km/h
2802 01-04-2009 09:45:44 4.9 C 5.06 g/m*3 4.9 C 0 km/h
2803 01-04-2009 09:57:44 5.7 C 4.98 g/m*3 5.7 C 0 km/h
2804 01-04-2009 10:09:44 6.7 C 4.94 g/m*3 6.7 C 0 km/h
2805 01-04-2009 10:21:44 7.4 C 4.85 g/m*3 7.4 C 0 km/h
2806 01-04-2009 10:33:44 8.1 C 4.74 g/m*3 8.1 C 0 km/h
2807 01-04-2009 10:45:43 8.8 C 4.7 g/m*3 8.8 C 0 km/h
2808 01-04-2009 10:57:43 9.4 C 4.61 g/m*3 9.4 C 0 km/h
2809 01-04-2009 11:09:44 10.5 C 4.36 g/m*3 10.5 C 0 km/h
2810 01-04-2009 11:21:43 11.2 C 4.16 g/m*3 11.2 C 0 km/h
2811 01-04-2009 11:33:43 11.8 C 3.89 g/m*3 11.8 C 0 km/h
2812 01-04-2009 11:45:43 12.2 C 3.67 g/m*3 12.2 C 0 km/h
2813 01-04-2009 11:57:43 12.7 C 3.45 g/m*3 12.7 C 0 km/h
2814 01-04-2009 12:09:43 12.9 C 3.27 g/m*3 12.9 C 0 km/h
2815 01-04-2009 12:21:42 13.4 C 3.14 g/m*3 13.4 C 0 km/h
2816 01-04-2009 12:33:43 13.7 C 3.32 g/m*3 13.7 C 0 km/h
2817 01-04-2009 12:45:42 14.1 C 3.16 g/m*3 14.1 C 0 km/h
2818 01-04-2009 12:57:42 14.4 C 3.09 g/m*3 14.4 C 0 km/h
2819 01-04-2009 13:09:42 14.8 C 2.91 g/m*3 14.8 C 0 km/h
2820 01-04-2009 13:21:42 14.9 C 3.19 g/m*3 14.9 C 0 km/h
2821 01-04-2009 13:33:42 15.6 C 2.79 g/m*3 15.6 C 0 km/h
2822 01-04-2009 13:45:42 16 C 2.72 g/m*3 16 C 0 km/h
2823 01-04-2009 13:57:42 16.5 C 2.81 g/m*3 16.5 C 0 km/h
2824 01-04-2009 14:09:41 17.2 C 3.08 g/m*3 17.2 C 0 km/h
2825 01-04-2009 14:21:42 17.6 C 3 g/m*3 17.6 C 0 km/h
Sensor: Nr:Datum:Temp:Abs-Feuchte:Windchill:Wind:
Aussen-T/F 2826 01-04-2009 14:33:41 18.3 C 3.13 g/m*3 18.3 C 0 km/h
2827 01-04-2009 14:45:41 18.6 C 3.18 g/m*3 18.6 C 0 km/h
2828 01-04-2009 14:57:42 18.8 C 3.22 g/m*3 18.8 C 0 km/h
2829 01-04-2009 15:09:41 18.8 C 3.22 g/m*3 18.8 C 0 km/h
2830 01-04-2009 15:21:41 19.5 C 3.36 g/m*3 19.5 C 0 km/h
2831 01-04-2009 15:33:41 19.9 C 3.44 g/m*3 19.9 C 0 km/h
2832 01-04-2009 15:45:41 19.7 C 3.4 g/m*3 19.7 C 0 km/h
2833 01-04-2009 15:57:41 20.2 C 3.5 g/m*3 20.2 C 0 km/h
2834 01-04-2009 16:09:41 20.3 C 3.52 g/m*3 20.3 C 0 km/h
2835 01-04-2009 16:21:40 20.5 C 3.56 g/m*3 20.5 C 0 km/h
2836 01-04-2009 16:33:40 20.8 C 3.62 g/m*3 20.8 C 0 km/h
2837 01-04-2009 16:45:40 21.1 C 3.69 g/m*3 21.1 C 0 km/h
2838 01-04-2009 16:57:40 21.4 C 3.75 g/m*3 21.4 C 0 km/h
2839 01-04-2009 17:09:40 21.2 C 3.71 g/m*3 21.2 C 0 km/h
2840 01-04-2009 17:21:39 21.5 C 3.77 g/m*3 21.5 C 0 km/h
2841 01-04-2009 17:33:40 21.5 C 3.77 g/m*3 21.5 C 0 km/h
2842 01-04-2009 17:45:39 21.5 C 3.77 g/m*3 21.5 C 0 km/h
2843 01-04-2009 17:57:39 21.1 C 3.69 g/m*3 21.1 C 0 km/h
2844 01-04-2009 18:09:39 20.8 C 3.62 g/m*3 20.8 C 0 km/h
2845 01-04-2009 18:21:40 20.3 C 3.52 g/m*3 20.3 C 0 km/h
2846 01-04-2009 18:33:39 20.4 C 3.54 g/m*3 20.4 C 0 km/h
2847 01-04-2009 18:45:39 19.7 C 3.4 g/m*3 19.7 C 0 km/h
2848 01-04-2009 18:57:39 19.1 C 3.28 g/m*3 19.1 C 0 km/h
2849 01-04-2009 19:09:39 18.6 C 3.18 g/m*3 18.6 C 0 km/h
2850 01-04-2009 19:21:39 18.2 C 3.11 g/m*3 18.2 C 0 km/h
Sensor: Nr:Datum:Temp:Abs-Feuchte:Windchill:Wind:
Aussen-T/F 2851 01-04-2009 19:33:38 17.5 C 3.13 g/m*3 17.5 C 0 km/h
2852 01-04-2009 19:45:39 16.7 C 3.69 g/m*3 16.7 C 0 km/h
2853 01-04-2009 19:57:39 15.8 C 3.77 g/m*3 15.8 C 0 km/h
2854 01-04-2009 20:09:38 15.1 C 3.74 g/m*3 15.1 C 0 km/h
2855 01-04-2009 20:21:38 14.6 C 3.75 g/m*3 14.6 C 0 km/h
2856 01-04-2009 20:33:38 14.3 C 3.81 g/m*3 14.3 C 0 km/h
2857 01-04-2009 20:45:38 13.8 C 3.93 g/m*3 13.8 C 0 km/h
2858 01-04-2009 20:57:38 13.5 C 3.86 g/m*3 13.5 C 0 km/h
2859 01-04-2009 21:09:37 13.4 C 3.84 g/m*3 13.4 C 0 km/h
2860 01-04-2009 21:21:38 13.1 C 3.77 g/m*3 13.1 C 0 km/h
2861 01-04-2009 21:33:38 13 C 3.86 g/m*3 13 C 0 km/h
2862 01-04-2009 21:45:37 12.8 C 3.92 g/m*3 12.8 C 0 km/h
2863 01-04-2009 21:57:37 12.5 C 3.96 g/m*3 12.5 C 0 km/h
2864 01-04-2009 22:10:38 12.5 C 3.96 g/m*3 12.5 C 0 km/h
2865 01-04-2009 22:22:38 12.2 C 3.99 g/m*3 12.2 C 0 km/h
2866 01-04-2009 22:34:38 12.2 C 3.99 g/m*3 12.2 C 0 km/h
2867 01-04-2009 22:46:38 11.9 C 4.13 g/m*3 11.9 C 0 km/h
2868 01-04-2009 22:58:38 11.8 C 4.21 g/m*3 11.8 C 0 km/h
2869 01-04-2009 23:10:39 11.7 C 4.18 g/m*3 11.7 C 0 km/h
2870 01-04-2009 23:22:39 11.7 C 4.29 g/m*3 11.7 C 0 km/h
2871 01-04-2009 23:34:39 12 C 4.26 g/m*3 12 C 0 km/h
2872 01-04-2009 23:46:39 12.2 C 4.21 g/m*3 12.2 C 0 km/h
2873 01-04-2009 23:58:39 12.4 C 4.15 g/m*3 12.4 C 0 km/h
2874 02-04-2009 00:10:39 12.5 C 4.18 g/m*3 12.5 C 0 km/h
2875 02-04-2009 00:22:39 12.6 C 4.2 g/m*3 12.6 C 0 km/h
Sensor: Nr:Datum:Temp:Abs-Feuchte:Windchill:Wind:
Aussen-T/F 2876 02-04-2009 00:34:39 12.5 C 4.29 g/m*3 12.5 C 0 km/h
2877 02-04-2009 00:46:39 12.4 C 4.37 g/m*3 12.4 C 0 km/h
2878 02-04-2009 00:58:39 12.4 C 4.26 g/m*3 12.4 C 0 km/h
2879 02-04-2009 01:10:39 12 C 4.26 g/m*3 12 C 0 km/h
2880 02-04-2009 01:22:39 11.8 C 4.32 g/m*3 11.8 C 0 km/h
2881 02-04-2009 01:34:39 11.5 C 4.34 g/m*3 11.5 C 0 km/h
2882 02-04-2009 01:46:39 11.4 C 4.31 g/m*3 11.4 C 0 km/h
2883 02-04-2009 01:58:39 11.5 C 4.44 g/m*3 11.5 C 0 km/h
2884 02-04-2009 02:10:39 11.5 C 4.44 g/m*3 11.5 C 0 km/h
2885 02-04-2009 02:22:39 11.3 C 4.39 g/m*3 11.3 C 0 km/h
2886 02-04-2009 02:34:39 10.8 C 4.45 g/m*3 10.8 C 0 km/h
2887 02-04-2009 02:46:39 10.6 C 4.39 g/m*3 10.6 C 0 km/h
2888 02-04-2009 02:58:40 10.5 C 4.36 g/m*3 10.5 C 0 km/h
2889 02-04-2009 03:10:40 10.3 C 4.41 g/m*3 10.3 C 0 km/h
2890 02-04-2009 03:22:40 10.2 C 4.38 g/m*3 10.2 C 0 km/h
2891 02-04-2009 03:34:40 10.2 C 4.38 g/m*3 10.2 C 0 km/h
2892 02-04-2009 03:46:40 10.1 C 4.35 g/m*3 10.1 C 0 km/h
2893 02-04-2009 03:58:40 10 C 4.32 g/m*3 10 C 0 km/h
2894 02-04-2009 04:10:40 10 C 4.32 g/m*3 10 C 0 km/h
2895 02-04-2009 04:22:40 10 C 4.32 g/m*3 10 C 0 km/h
2896 02-04-2009 04:34:40 9.9 C 4.39 g/m*3 9.9 C 0 km/h
2897 02-04-2009 04:46:40 9.8 C 4.36 g/m*3 9.8 C 0 km/h
2898 02-04-2009 04:58:40 9.7 C 4.33 g/m*3 9.7 C 0 km/h
2899 02-04-2009 05:10:40 9.6 C 4.31 g/m*3 9.6 C 0 km/h
2900 02-04-2009 05:22:40 9.5 C 4.37 g/m*3 9.5 C 0 km/h
Sensor: Nr:Datum:Temp:Abs-Feuchte:Windchill:Wind:
Aussen-T/F 2901 02-04-2009 05:34:40 9.3 C 4.4 g/m*3 9.3 C 0 km/h
2902 02-04-2009 05:46:40 9.2 C 4.46 g/m*3 9.2 C 0 km/h
2903 02-04-2009 05:58:40 9.3 C 4.49 g/m*3 9.3 C 0 km/h
2904 02-04-2009 06:10:40 9.2 C 4.46 g/m*3 9.2 C 0 km/h
2905 02-04-2009 06:22:40 8.9 C 4.56 g/m*3 8.9 C 0 km/h
2906 02-04-2009 06:34:40 8.7 C 4.58 g/m*3 8.7 C 0 km/h
2907 02-04-2009 06:46:41 8.5 C 4.61 g/m*3 8.5 C 0 km/h
2908 02-04-2009 06:58:41 8.5 C 4.61 g/m*3 8.5 C 0 km/h
2909 02-04-2009 07:10:38 8.5 C 4.61 g/m*3 8.5 C 0 km/h
2910 02-04-2009 07:22:38 8.4 C 4.67 g/m*3 8.4 C 0 km/h
2911 02-04-2009 07:34:38 8.3 C 4.72 g/m*3 8.3 C 0 km/h
2912 02-04-2009 07:46:38 8.2 C 4.77 g/m*3 8.2 C 0 km/h
2913 02-04-2009 07:58:38 8.2 C 4.77 g/m*3 8.2 C 0 km/h
2914 02-04-2009 08:10:38 8.1 C 4.74 g/m*3 8.1 C 0 km/h
2915 02-04-2009 08:22:37 8.2 C 4.77 g/m*3 8.2 C 0 km/h
2916 02-04-2009 08:34:38 8.3 C 4.8 g/m*3 8.3 C 0 km/h
2917 02-04-2009 08:46:37 8.5 C 4.87 g/m*3 8.5 C 0 km/h
2918 02-04-2009 08:58:37 8.9 C 4.99 g/m*3 8.9 C 0 km/h
2919 02-04-2009 09:10:37 9.1 C 4.97 g/m*3 9.1 C 0 km/h
2920 02-04-2009 09:22:37 9.5 C 4.92 g/m*3 9.5 C 0 km/h
2921 02-04-2009 09:34:37 10.1 C 4.92 g/m*3 10.1 C 0 km/h
2922 02-04-2009 09:46:36 10.7 C 4.91 g/m*3 10.7 C 0 km/h
2923 02-04-2009 09:58:36 11.1 C 4.94 g/m*3 11.1 C 0 km/h
2924 02-04-2009 10:10:37 11.6 C 4.89 g/m*3 11.6 C 0 km/h
2925 02-04-2009 10:22:36 12.1 C 5.04 g/m*3 12.1 C 0 km/h
Sensor: Nr:Datum:Temp:Abs-Feuchte:Windchill:Wind:
Aussen-T/F 2926 02-04-2009 10:34:36 12.6 C 5.09 g/m*3 12.6 C 0 km/h
2927 02-04-2009 10:46:37 13.1 C 5.02 g/m*3 13.1 C 0 km/h
2928 02-04-2009 10:58:37 13.5 C 5.03 g/m*3 13.5 C 0 km/h
2929 02-04-2009 11:10:36 14 C 4.95 g/m*3 14 C 0 km/h
2930 02-04-2009 11:22:36 14.3 C 5.04 g/m*3 14.3 C 0 km/h
2931 02-04-2009 11:34:35 14.6 C 5.01 g/m*3 14.6 C 0 km/h
2932 02-04-2009 11:46:36 15.1 C 5.03 g/m*3 15.1 C 0 km/h
2933 02-04-2009 11:58:36 15.4 C 4.99 g/m*3 15.4 C 0 km/h
2934 02-04-2009 12:10:35 15.8 C 5.12 g/m*3 15.8 C 0 km/h
2935 02-04-2009 12:22:35 16.4 C 5.3 g/m*3 16.4 C 0 km/h
2936 02-04-2009 12:34:35 16.6 C 5.23 g/m*3 16.6 C 0 km/h
2937 02-04-2009 12:46:35 17 C 5.21 g/m*3 17 C 0 km/h
2938 02-04-2009 12:58:35 17.4 C 5.19 g/m*3 17.4 C 0 km/h
2939 02-04-2009 13:10:34 17.8 C 5.31 g/m*3 17.8 C 0 km/h
2940 02-04-2009 13:22:35 18.2 C 5.44 g/m*3 18.2 C 0 km/h
2941 02-04-2009 13:34:35 18.7 C 5.12 g/m*3 18.7 C 0 km/h
2942 02-04-2009 13:46:34 19.4 C 5.34 g/m*3 19.4 C 0 km/h
2943 02-04-2009 13:58:34 19.6 C 5.06 g/m*3 19.6 C 0 km/h
2944 02-04-2009 14:10:35 20 C 5.18 g/m*3 20 C 0 km/h
2945 02-04-2009 14:22:34 20.3 C 5.1 g/m*3 20.3 C 0 km/h
2946 02-04-2009 14:34:34 20.8 C 5.07 g/m*3 20.8 C 0 km/h
2947 02-04-2009 14:46:34 21.6 C 4.93 g/m*3 21.6 C 0 km/h
2948 02-04-2009 14:58:34 22.2 C 5.1 g/m*3 22.2 C 0 km/h
2949 02-04-2009 15:10:34 22.6 C 4.82 g/m*3 22.6 C 0 km/h
2950 02-04-2009 15:22:33 23 C 4.52 g/m*3 23 C 0 km/h
Sensor: Nr:Datum:Temp:Abs-Feuchte:Windchill:Wind:
Aussen-T/F 2951 02-04-2009 15:34:33 23.5 C 4.86 g/m*3 23.5 C 0 km/h
2952 02-04-2009 15:46:33 23.6 C 4.47 g/m*3 23.6 C 0 km/h
2953 02-04-2009 15:58:33 24.4 C 4.67 g/m*3 24.4 C 0 km/h
2954 02-04-2009 16:10:33 24.1 C 4.38 g/m*3 24.1 C 0 km/h
2955 02-04-2009 16:22:33 24.1 C 4.59 g/m*3 24.1 C 0 km/h
2956 02-04-2009 16:34:33 25.3 C 4.68 g/m*3 25.3 C 0 km/h
2957 02-04-2009 16:46:33 25.1 C 4.63 g/m*3 25.1 C 0 km/h
2958 02-04-2009 16:58:33 25.4 C 4.71 g/m*3 25.4 C 0 km/h
2959 02-04-2009 17:10:32 25.5 C 4.73 g/m*3 25.5 C 0 km/h
2960 02-04-2009 17:22:33 25.7 C 4.79 g/m*3 25.7 C 0 km/h
2961 02-04-2009 17:34:32 25.6 C 4.76 g/m*3 25.6 C 0 km/h
2962 02-04-2009 17:46:32 25.8 C 4.82 g/m*3 25.8 C 0 km/h
2963 02-04-2009 17:58:32 25.4 C 4.71 g/m*3 25.4 C 0 km/h
2964 02-04-2009 18:10:32 25.3 C 4.68 g/m*3 25.3 C 0 km/h
2965 02-04-2009 18:22:32 25.1 C 4.63 g/m*3 25.1 C 0 km/h
2966 02-04-2009 18:34:32 24.9 C 4.81 g/m*3 24.9 C 0 km/h
2967 02-04-2009 18:46:31 24.7 C 4.75 g/m*3 24.7 C 0 km/h
2968 02-04-2009 18:58:31 24.1 C 4.81 g/m*3 24.1 C 0 km/h
2969 02-04-2009 19:10:32 22.9 C 5.11 g/m*3 22.9 C 0 km/h
2970 02-04-2009 19:22:31 22.5 C 5.19 g/m*3 22.5 C 0 km/h
2971 02-04-2009 19:34:31 21.6 C 5.31 g/m*3 21.6 C 0 km/h
2972 02-04-2009 19:46:31 20.7 C 5.58 g/m*3 20.7 C 0 km/h
2973 02-04-2009 19:58:31 19.8 C 5.98 g/m*3 19.8 C 0 km/h
2974 02-04-2009 20:10:31 19.2 C 5.77 g/m*3 19.2 C 0 km/h
2975 02-04-2009 20:22:30 18.7 C 5.92 g/m*3 18.7 C 0 km/h
Sensor: Nr:Datum:Temp:Abs-Feuchte:Windchill:Wind:
Aussen-T/F 2976 02-04-2009 20:34:31 18.2 C 5.75 g/m*3 18.2 C 0 km/h
2977 02-04-2009 20:46:30 17.6 C 6 g/m*3 17.6 C 0 km/h
2978 02-04-2009 20:58:30 17.1 C 5.82 g/m*3 17.1 C 0 km/h
2979 02-04-2009 21:10:30 16.8 C 5.72 g/m*3 16.8 C 0 km/h
2980 02-04-2009 21:22:31 16.8 C 5.86 g/m*3 16.8 C 0 km/h
2981 02-04-2009 21:34:30 16.6 C 5.79 g/m*3 16.6 C 0 km/h
2982 02-04-2009 21:46:30 16.5 C 5.76 g/m*3 16.5 C 0 km/h
2983 02-04-2009 21:58:30 16.1 C 5.76 g/m*3 16.1 C 0 km/h
2984 02-04-2009 22:11:32 15.8 C 5.79 g/m*3 15.8 C 0 km/h
2985 02-04-2009 22:23:32 15.6 C 5.72 g/m*3 15.6 C 0 km/h
2986 02-04-2009 22:35:32 15.4 C 5.78 g/m*3 15.4 C 0 km/h
2987 02-04-2009 22:47:32 15.1 C 5.81 g/m*3 15.1 C 0 km/h
2988 02-04-2009 22:59:32 14.8 C 5.83 g/m*3 14.8 C 0 km/h
2989 02-04-2009 23:11:32 14.5 C 5.85 g/m*3 14.5 C 0 km/h
2990 02-04-2009 23:23:32 14.4 C 5.81 g/m*3 14.4 C 0 km/h
2991 02-04-2009 23:35:32 14 C 5.91 g/m*3 14 C 0 km/h
2992 02-04-2009 23:47:32 14 C 5.79 g/m*3 14 C 0 km/h
2993 02-04-2009 23:59:32 13.9 C 5.99 g/m*3 13.9 C 0 km/h
2994 03-04-2009 00:11:32 13.6 C 5.88 g/m*3 13.6 C 0 km/h
2995 03-04-2009 00:23:32 13.8 C 5.96 g/m*3 13.8 C 0 km/h
2996 03-04-2009 00:35:32 13.6 C 5.88 g/m*3 13.6 C 0 km/h
2997 03-04-2009 00:47:32 13.4 C 5.93 g/m*3 13.4 C 0 km/h
2998 03-04-2009 00:59:32 13.2 C 5.86 g/m*3 13.2 C 0 km/h
2999 03-04-2009 01:11:32 13.1 C 5.82 g/m*3 13.1 C 0 km/h
3000 03-04-2009 01:23:32 12.8 C 6.05 g/m*3 12.8 C 0 km/h
Sensor: Nr:Datum:Temp:Abs-Feuchte:Windchill:Wind:
Aussen-T/F 3001 03-04-2009 01:35:32 12.6 C 5.97 g/m*3 12.6 C 0 km/h
3002 03-04-2009 01:47:32 12.6 C 6.08 g/m*3 12.6 C 0 km/h
3003 03-04-2009 01:59:33 12.4 C 6.01 g/m*3 12.4 C 0 km/h
3004 03-04-2009 02:11:33 12.2 C 6.04 g/m*3 12.2 C 0 km/h
3005 03-04-2009 02:23:33 12 C 5.97 g/m*3 12 C 0 km/h
3006 03-04-2009 02:35:33 11.6 C 6.13 g/m*3 11.6 C 0 km/h
3007 03-04-2009 02:47:33 11.4 C 6.16 g/m*3 11.4 C 0 km/h
3008 03-04-2009 02:59:33 11.1 C 6.14 g/m*3 11.1 C 0 km/h
3009 03-04-2009 03:11:33 10.7 C 6.09 g/m*3 10.7 C 0 km/h
3010 03-04-2009 03:23:33 10.4 C 6.07 g/m*3 10.4 C 0 km/h
3011 03-04-2009 03:35:33 10.2 C 6.19 g/m*3 10.2 C 0 km/h
3012 03-04-2009 03:47:33 10.1 C 6.15 g/m*3 10.1 C 0 km/h
3013 03-04-2009 03:59:33 9.8 C 6.12 g/m*3 9.8 C 0 km/h
3014 03-04-2009 04:11:33 9.6 C 6.14 g/m*3 9.6 C 0 km/h
3015 03-04-2009 04:23:33 9.5 C 6.19 g/m*3 9.5 C 0 km/h
3016 03-04-2009 04:35:33 9.2 C 6.16 g/m*3 9.2 C 0 km/h
3017 03-04-2009 04:47:33 9 C 6.17 g/m*3 9 C 0 km/h
3018 03-04-2009 04:59:33 8.9 C 6.22 g/m*3 8.9 C 0 km/h
3019 03-04-2009 05:11:33 8.9 C 6.13 g/m*3 8.9 C 0 km/h
3020 03-04-2009 05:23:33 8.7 C 6.23 g/m*3 8.7 C 0 km/h
3021 03-04-2009 05:35:33 8.6 C 6.19 g/m*3 8.6 C 0 km/h
3022 03-04-2009 05:47:34 8.4 C 6.19 g/m*3 8.4 C 0 km/h
3023 03-04-2009 05:59:34 8.2 C 6.11 g/m*3 8.2 C 0 km/h
3024 03-04-2009 06:11:34 8 C 6.12 g/m*3 8 C 0 km/h
3025 03-04-2009 06:23:34 7.8 C 6.2 g/m*3 7.8 C 0 km/h
Sensor: Nr:Datum:Temp:Abs-Feuchte:Windchill:Wind:
Aussen-T/F 3026 03-04-2009 06:35:34 7.8 C 6.28 g/m*3 7.8 C 0 km/h
3027 03-04-2009 06:47:34 7.7 C 6.16 g/m*3 7.7 C 0 km/h
3028 03-04-2009 06:59:34 7.6 C 6.12 g/m*3 7.6 C 0 km/h
3029 03-04-2009 07:11:31 7.6 C 6.12 g/m*3 7.6 C 0 km/h
3030 03-04-2009 07:23:31 7.5 C 6.08 g/m*3 7.5 C 0 km/h
3031 03-04-2009 07:35:31 7.4 C 6.04 g/m*3 7.4 C 0 km/h
3032 03-04-2009 07:47:31 7.3 C 6 g/m*3 7.3 C 0 km/h
3033 03-04-2009 07:59:31 7.4 C 6.12 g/m*3 7.4 C 0 km/h
3034 03-04-2009 08:11:30 7.4 C 6.12 g/m*3 7.4 C 0 km/h
3035 03-04-2009 08:23:31 7.5 C 6.16 g/m*3 7.5 C 0 km/h
3036 03-04-2009 08:35:30 7.6 C 6.2 g/m*3 7.6 C 0 km/h
3037 03-04-2009 08:47:30 7.7 C 6.32 g/m*3 7.7 C 0 km/h
3038 03-04-2009 08:59:30 8 C 6.37 g/m*3 8 C 0 km/h
3039 03-04-2009 09:11:30 8.3 C 6.49 g/m*3 8.3 C 0 km/h
3040 03-04-2009 09:23:30 8.7 C 6.57 g/m*3 8.7 C 0 km/h
3041 03-04-2009 09:35:30 9.1 C 6.57 g/m*3 9.1 C 0 km/h
3042 03-04-2009 09:47:30 9.7 C 6.73 g/m*3 9.7 C 0 km/h
3043 03-04-2009 09:59:30 10.5 C 6.69 g/m*3 10.5 C 0 km/h
3044 03-04-2009 10:11:29 11.2 C 6.79 g/m*3 11.2 C 0 km/h
3045 03-04-2009 10:23:29 11.7 C 6.59 g/m*3 11.7 C 0 km/h
3046 03-04-2009 10:35:29 12.4 C 6.45 g/m*3 12.4 C 0 km/h
3047 03-04-2009 10:47:29 13 C 6.58 g/m*3 13 C 0 km/h
3048 03-04-2009 10:59:29 13.6 C 6.71 g/m*3 13.6 C 0 km/h
3049 03-04-2009 11:11:29 14.3 C 6.63 g/m*3 14.3 C 0 km/h
3050 03-04-2009 11:23:28 14.9 C 6.63 g/m*3 14.9 C 0 km/h
Sensor: Nr:Datum:Temp:Abs-Feuchte:Windchill:Wind:
Aussen-T/F 3051 03-04-2009 11:35:29 15.5 C 6.34 g/m*3 15.5 C 0 km/h
3052 03-04-2009 11:47:28 16.1 C 6.17 g/m*3 16.1 C 0 km/h
3053 03-04-2009 11:59:28 17 C 6.08 g/m*3 17 C 0 km/h
3054 03-04-2009 12:11:28 17.6 C 6 g/m*3 17.6 C 0 km/h
3055 03-04-2009 12:23:29 18.1 C 6.03 g/m*3 18.1 C 0 km/h
3056 03-04-2009 12:35:28 18.4 C 5.98 g/m*3 18.4 C 0 km/h
3057 03-04-2009 12:47:28 18.8 C 6.12 g/m*3 18.8 C 0 km/h
3058 03-04-2009 12:59:28 19 C 5.87 g/m*3 19 C 0 km/h
3059 03-04-2009 13:11:28 19.5 C 6.04 g/m*3 19.5 C 0 km/h
3060 03-04-2009 13:23:28 20.2 C 6.12 g/m*3 20.2 C 0 km/h
3061 03-04-2009 13:35:27 20.6 C 5.73 g/m*3 20.6 C 0 km/h
3062 03-04-2009 13:47:27 20.7 C 5.76 g/m*3 20.7 C 0 km/h
3063 03-04-2009 13:59:27 21.2 C 5.56 g/m*3 21.2 C 0 km/h
3064 03-04-2009 14:11:27 21.7 C 5.72 g/m*3 21.7 C 0 km/h
3065 03-04-2009 14:23:27 22.9 C 6.13 g/m*3 22.9 C 0 km/h
3066 03-04-2009 14:35:27 23.3 C 5.44 g/m*3 23.3 C 0 km/h
3067 03-04-2009 14:47:27 23.9 C 5.41 g/m*3 23.9 C 0 km/h
3068 03-04-2009 14:59:27 24 C 5.44 g/m*3 24 C 0 km/h
3069 03-04-2009 15:11:27 23.8 C 5.38 g/m*3 23.8 C 0 km/h
3070 03-04-2009 15:23:27 24.3 C 5.09 g/m*3 24.3 C 0 km/h
3071 03-04-2009 15:35:26 25.1 C 5.09 g/m*3 25.1 C 0 km/h
3072 03-04-2009 15:47:26 25.5 C 5.21 g/m*3 25.5 C 0 km/h
3073 03-04-2009 15:59:26 23.4 C 5.26 g/m*3 23.4 C 0 km/h
3074 03-04-2009 16:11:26 24.6 C 5.4 g/m*3 24.6 C 0 km/h
3075 03-04-2009 16:23:25 23.7 C 5.35 g/m*3 23.7 C 0 km/h
Sensor: Nr:Datum:Temp:Abs-Feuchte:Windchill:Wind:
Aussen-T/F 3076 03-04-2009 16:35:26 24.5 C 5.6 g/m*3 24.5 C 0 km/h
3077 03-04-2009 16:47:25 24.5 C 5.6 g/m*3 24.5 C 0 km/h
3078 03-04-2009 16:59:25 24.4 C 5.56 g/m*3 24.4 C 0 km/h
3079 03-04-2009 17:11:26 26 C 5.11 g/m*3 26 C 0 km/h
3080 03-04-2009 17:23:25 24.8 C 5.69 g/m*3 24.8 C 0 km/h
3081 03-04-2009 17:35:25 25.8 C 5.54 g/m*3 25.8 C 0 km/h
3082 03-04-2009 17:47:25 25.8 C 5.54 g/m*3 25.8 C 0 km/h
3083 03-04-2009 17:59:25 26.5 C 5.26 g/m*3 26.5 C 0 km/h
3084 03-04-2009 18:11:25 26.8 C 5.35 g/m*3 26.8 C 0 km/h
3085 03-04-2009 18:23:25 26.1 C 5.39 g/m*3 26.1 C 0 km/h
3086 03-04-2009 18:35:24 25.6 C 5.48 g/m*3 25.6 C 0 km/h
3087 03-04-2009 18:47:25 25.3 C 5.62 g/m*3 25.3 C 0 km/h
3088 03-04-2009 18:59:25 24.7 C 5.88 g/m*3 24.7 C 0 km/h
3089 03-04-2009 19:11:24 24.3 C 5.97 g/m*3 24.3 C 0 km/h
3090 03-04-2009 19:23:24 23.5 C 6.34 g/m*3 23.5 C 0 km/h
3091 03-04-2009 19:35:24 22.4 C 6.55 g/m*3 22.4 C 0 km/h
3092 03-04-2009 19:47:24 21.5 C 6.6 g/m*3 21.5 C 0 km/h
3093 03-04-2009 19:59:24 20.8 C 6.88 g/m*3 20.8 C 0 km/h
3094 03-04-2009 20:11:23 20.2 C 6.82 g/m*3 20.2 C 0 km/h
3095 03-04-2009 20:23:24 19.5 C 6.88 g/m*3 19.5 C 0 km/h
3096 03-04-2009 20:35:24 19.1 C 6.88 g/m*3 19.1 C 0 km/h
3097 03-04-2009 20:47:23 18.8 C 6.76 g/m*3 18.8 C 0 km/h
3098 03-04-2009 20:59:24 18.9 C 6.8 g/m*3 18.9 C 0 km/h
3099 03-04-2009 21:11:23 18.6 C 6.84 g/m*3 18.6 C 0 km/h
3100 03-04-2009 21:23:23 18.3 C 6.72 g/m*3 18.3 C 0 km/h
Sensor: Nr:Datum:Temp:Abs-Feuchte:Windchill:Wind:
Aussen-T/F 3101 03-04-2009 21:35:23 18.1 C 6.95 g/m*3 18.1 C 0 km/h
3102 03-04-2009 21:47:23 17.7 C 6.94 g/m*3 17.7 C 0 km/h
3103 03-04-2009 21:59:23 17.4 C 6.97 g/m*3 17.4 C 0 km/h
3104 03-04-2009 22:11:22 17.2 C 7.03 g/m*3 17.2 C 0 km/h
3105 03-04-2009 22:23:22 17.2 C 7.03 g/m*3 17.2 C 0 km/h
3106 03-04-2009 22:36:24 17 C 6.95 g/m*3 17 C 0 km/h
3107 03-04-2009 22:48:24 16.7 C 7.11 g/m*3 16.7 C 0 km/h
3108 03-04-2009 23:00:24 16.4 C 7.12 g/m*3 16.4 C 0 km/h
3109 03-04-2009 23:12:24 16.3 C 7.08 g/m*3 16.3 C 0 km/h
3110 03-04-2009 23:24:24 16.1 C 7.13 g/m*3 16.1 C 0 km/h
3111 03-04-2009 23:36:24 15.9 C 7.31 g/m*3 15.9 C 0 km/h
3112 03-04-2009 23:48:24 15.8 C 7.27 g/m*3 15.8 C 0 km/h
3113 04-04-2009 00:00:24 15.6 C 7.31 g/m*3 15.6 C 0 km/h
3114 04-04-2009 00:12:24 15.4 C 7.36 g/m*3 15.4 C 0 km/h
3115 04-04-2009 00:24:24 15.4 C 7.23 g/m*3 15.4 C 0 km/h
3116 04-04-2009 00:36:24 15.6 C 7.31 g/m*3 15.6 C 0 km/h
3117 04-04-2009 00:48:24 15.5 C 7.27 g/m*3 15.5 C 0 km/h
3118 04-04-2009 01:00:24 15.3 C 7.31 g/m*3 15.3 C 0 km/h
3119 04-04-2009 01:12:24 15.2 C 7.4 g/m*3 15.2 C 0 km/h
3120 04-04-2009 01:24:24 15.1 C 7.35 g/m*3 15.1 C 0 km/h
3121 04-04-2009 01:36:24 15.1 C 7.35 g/m*3 15.1 C 0 km/h
3122 04-04-2009 01:48:24 15 C 7.44 g/m*3 15 C 0 km/h
3123 04-04-2009 02:00:24 14.9 C 7.52 g/m*3 14.9 C 0 km/h
3124 04-04-2009 02:12:25 14.8 C 7.47 g/m*3 14.8 C 0 km/h
3125 04-04-2009 02:24:25 14.7 C 7.43 g/m*3 14.7 C 0 km/h
Sensor: Nr:Datum:Temp:Abs-Feuchte:Windchill:Wind:
Aussen-T/F 3126 04-04-2009 02:36:25 14.5 C 7.46 g/m*3 14.5 C 0 km/h
3127 04-04-2009 02:48:25 14.2 C 7.45 g/m*3 14.2 C 0 km/h
3128 04-04-2009 03:00:25 14.1 C 7.52 g/m*3 14.1 C 0 km/h
3129 04-04-2009 03:12:25 14 C 7.6 g/m*3 14 C 0 km/h
3130 04-04-2009 03:24:25 13.6 C 7.65 g/m*3 13.6 C 0 km/h
3131 04-04-2009 03:36:25 13.6 C 7.65 g/m*3 13.6 C 0 km/h
3132 04-04-2009 03:48:25 13.7 C 7.7 g/m*3 13.7 C 0 km/h
3133 04-04-2009 04:00:25 13.6 C 7.65 g/m*3 13.6 C 0 km/h
3134 04-04-2009 04:12:25 13.6 C 7.65 g/m*3 13.6 C 0 km/h
3135 04-04-2009 04:24:25 13.6 C 7.65 g/m*3 13.6 C 0 km/h
3136 04-04-2009 04:36:25 13.7 C 7.7 g/m*3 13.7 C 0 km/h
3137 04-04-2009 04:48:25 13.7 C 7.58 g/m*3 13.7 C 0 km/h
3138 04-04-2009 05:00:25 13.8 C 7.63 g/m*3 13.8 C 0 km/h
3139 04-04-2009 05:12:25 13.9 C 7.55 g/m*3 13.9 C 0 km/h
3140 04-04-2009 05:24:25 13.9 C 7.55 g/m*3 13.9 C 0 km/h
3141 04-04-2009 05:36:25 13.9 C 7.55 g/m*3 13.9 C 0 km/h
3142 04-04-2009 05:48:25 14 C 7.48 g/m*3 14 C 0 km/h
3143 04-04-2009 06:00:26 14.2 C 7.57 g/m*3 14.2 C 0 km/h
3144 04-04-2009 06:12:26 13.8 C 7.51 g/m*3 13.8 C 0 km/h
3145 04-04-2009 06:24:26 13.7 C 7.58 g/m*3 13.7 C 0 km/h
3146 04-04-2009 06:36:26 13.7 C 7.58 g/m*3 13.7 C 0 km/h
3147 04-04-2009 06:48:26 13.6 C 7.53 g/m*3 13.6 C 0 km/h
3148 04-04-2009 07:00:26 13.7 C 7.58 g/m*3 13.7 C 0 km/h
3149 04-04-2009 07:12:26 13.6 C 7.53 g/m*3 13.6 C 0 km/h
3150 04-04-2009 07:24:26 13.5 C 7.49 g/m*3 13.5 C 0 km/h
Sensor: Nr:Datum:Temp:Abs-Feuchte:Windchill:Wind:
Aussen-T/F 3151 04-04-2009 07:36:26 13.7 C 7.46 g/m*3 13.7 C 0 km/h
3152 04-04-2009 07:48:26 13.6 C 7.41 g/m*3 13.6 C 0 km/h
3153 04-04-2009 08:00:26 13.5 C 7.49 g/m*3 13.5 C 0 km/h
3154 04-04-2009 08:12:26 13.5 C 7.49 g/m*3 13.5 C 0 km/h
3155 04-04-2009 08:24:26 13.7 C 7.58 g/m*3 13.7 C 0 km/h
3156 04-04-2009 08:36:24 13.9 C 7.55 g/m*3 13.9 C 0 km/h
3157 04-04-2009 08:48:24 14.1 C 7.4 g/m*3 14.1 C 0 km/h
3158 04-04-2009 09:00:24 14.2 C 7.33 g/m*3 14.2 C 0 km/h
3159 04-04-2009 09:12:24 14.4 C 7.42 g/m*3 14.4 C 0 km/h
3160 04-04-2009 09:24:23 14.4 C 7.42 g/m*3 14.4 C 0 km/h
3161 04-04-2009 09:36:24 14.5 C 7.34 g/m*3 14.5 C 0 km/h
3162 04-04-2009 09:48:23 14.6 C 7.38 g/m*3 14.6 C 0 km/h
3163 04-04-2009 10:00:23 14.9 C 7.39 g/m*3 14.9 C 0 km/h
3164 04-04-2009 10:12:23 15.3 C 7.44 g/m*3 15.3 C 0 km/h
3165 04-04-2009 10:24:23 15.5 C 7.4 g/m*3 15.5 C 0 km/h
3166 04-04-2009 10:36:23 15.7 C 7.36 g/m*3 15.7 C 0 km/h
3167 04-04-2009 10:48:23 16 C 7.22 g/m*3 16 C 0 km/h
3168 04-04-2009 11:00:23 16.4 C 7.4 g/m*3 16.4 C 0 km/h
3169 04-04-2009 11:12:23 16.7 C 7.25 g/m*3 16.7 C 0 km/h
3170 04-04-2009 11:24:22 17.6 C 7.2 g/m*3 17.6 C 0 km/h
3171 04-04-2009 11:36:23 17.7 C 6.94 g/m*3 17.7 C 0 km/h
3172 04-04-2009 11:48:22 18 C 6.91 g/m*3 18 C 0 km/h
3173 04-04-2009 12:00:22 18.4 C 6.76 g/m*3 18.4 C 0 km/h
3174 04-04-2009 12:12:22 18.5 C 6.8 g/m*3 18.5 C 0 km/h
3175 04-04-2009 12:24:21 18.7 C 6.72 g/m*3 18.7 C 0 km/h
Sensor: Nr:Datum:Temp:Abs-Feuchte:Windchill:Wind:
Aussen-T/F 3176 04-04-2009 12:36:22 18.7 C 6.56 g/m*3 18.7 C 0 km/h
3177 04-04-2009 12:48:22 19.1 C 6.56 g/m*3 19.1 C 0 km/h
3178 04-04-2009 13:00:21 19.5 C 6.55 g/m*3 19.5 C 0 km/h
3179 04-04-2009 13:12:21 19.5 C 6.38 g/m*3 19.5 C 0 km/h
3180 04-04-2009 13:24:22 19.4 C 6.17 g/m*3 19.4 C 0 km/h
3181 04-04-2009 13:36:21 19.3 C 6.14 g/m*3 19.3 C 0 km/h
3182 04-04-2009 13:48:21 19.9 C 6.19 g/m*3 19.9 C 0 km/h
3183 04-04-2009 14:00:21 20.1 C 6.08 g/m*3 20.1 C 0 km/h
3184 04-04-2009 14:12:21 20.3 C 6.16 g/m*3 20.3 C 0 km/h
3185 04-04-2009 14:24:21 20.7 C 6.3 g/m*3 20.7 C 0 km/h
3186 04-04-2009 14:36:20 20.9 C 6.19 g/m*3 20.9 C 0 km/h
3187 04-04-2009 14:48:20 21.1 C 6.08 g/m*3 21.1 C 0 km/h
3188 04-04-2009 15:00:21 21.6 C 6.07 g/m*3 21.6 C 0 km/h
3189 04-04-2009 15:12:21 21.6 C 5.88 g/m*3 21.6 C 0 km/h
3190 04-04-2009 15:24:20 21.9 C 5.79 g/m*3 21.9 C 0 km/h
3191 04-04-2009 15:36:21 22.1 C 5.86 g/m*3 22.1 C 0 km/h
3192 04-04-2009 15:48:20 22.1 C 5.86 g/m*3 22.1 C 0 km/h
3193 04-04-2009 16:00:20 22.1 C 5.86 g/m*3 22.1 C 0 km/h
3194 04-04-2009 16:12:20 21.7 C 6.68 g/m*3 21.7 C 0 km/h
3195 04-04-2009 16:24:20 20.3 C 7.03 g/m*3 20.3 C 0 km/h
3196 04-04-2009 16:36:20 20.9 C 6.92 g/m*3 20.9 C 0 km/h
3197 04-04-2009 16:48:19 20.8 C 6.88 g/m*3 20.8 C 0 km/h
3198 04-04-2009 17:00:20 21.8 C 7.1 g/m*3 21.8 C 0 km/h
3199 04-04-2009 17:12:20 22.2 C 6.87 g/m*3 22.2 C 0 km/h
3200 04-04-2009 17:24:19 21.9 C 7.14 g/m*3 21.9 C 0 km/h
Sensor: Nr:Datum:Temp:Abs-Feuchte:Windchill:Wind:
Aussen-T/F 3201 04-04-2009 17:36:19 21.6 C 7.02 g/m*3 21.6 C 0 km/h
3202 04-04-2009 17:48:19 20.7 C 7.02 g/m*3 20.7 C 0 km/h
3203 04-04-2009 18:00:19 21.6 C 7.02 g/m*3 21.6 C 0 km/h
3204 04-04-2009 18:12:19 21.4 C 6.75 g/m*3 21.4 C 0 km/h
3205 04-04-2009 18:24:18 20.1 C 6.95 g/m*3 20.1 C 0 km/h
3206 04-04-2009 18:36:18 19.7 C 6.96 g/m*3 19.7 C 0 km/h
3207 04-04-2009 18:48:19 19.2 C 6.76 g/m*3 19.2 C 0 km/h
3208 04-04-2009 19:00:18 18.8 C 6.76 g/m*3 18.8 C 0 km/h
3209 04-04-2009 19:12:18 18.7 C 6.72 g/m*3 18.7 C 0 km/h
3210 04-04-2009 19:24:18 18.2 C 6.68 g/m*3 18.2 C 0 km/h
3211 04-04-2009 19:36:18 17.9 C 7.02 g/m*3 17.9 C 0 km/h
3212 04-04-2009 19:48:18 17.6 C 7.05 g/m*3 17.6 C 0 km/h
3213 04-04-2009 20:00:17 17.4 C 7.11 g/m*3 17.4 C 0 km/h
3214 04-04-2009 20:12:17 17.2 C 7.03 g/m*3 17.2 C 0 km/h
3215 04-04-2009 20:24:18 17.1 C 7.13 g/m*3 17.1 C 0 km/h
3216 04-04-2009 20:36:17 17 C 7.23 g/m*3 17 C 0 km/h
3217 04-04-2009 20:48:17 16.9 C 7.34 g/m*3 16.9 C 0 km/h
3218 04-04-2009 21:00:17 16.8 C 7.29 g/m*3 16.8 C 0 km/h
3219 04-04-2009 21:12:17 16.8 C 7.43 g/m*3 16.8 C 0 km/h
3220 04-04-2009 21:24:17 16.5 C 7.3 g/m*3 16.5 C 0 km/h
3221 04-04-2009 21:36:17 16.3 C 7.35 g/m*3 16.3 C 0 km/h
3222 04-04-2009 21:48:16 16.2 C 7.31 g/m*3 16.2 C 0 km/h
3223 04-04-2009 22:00:17 15.9 C 7.45 g/m*3 15.9 C 0 km/h
3224 04-04-2009 22:12:17 15.6 C 7.45 g/m*3 15.6 C 0 km/h
3225 04-04-2009 22:24:16 15.2 C 7.4 g/m*3 15.2 C 0 km/h
Sensor: Nr:Datum:Temp:Abs-Feuchte:Windchill:Wind:
Aussen-T/F 3226 04-04-2009 22:37:17 15.1 C 7.35 g/m*3 15.1 C 0 km/h
3227 04-04-2009 22:49:17 14.9 C 7.52 g/m*3 14.9 C 0 km/h
3228 04-04-2009 23:01:17 14.5 C 7.46 g/m*3 14.5 C 0 km/h
3229 04-04-2009 23:13:17 14.3 C 7.62 g/m*3 14.3 C 0 km/h
3230 04-04-2009 23:25:17 14.2 C 7.57 g/m*3 14.2 C 0 km/h
3231 04-04-2009 23:37:17 14.4 C 7.54 g/m*3 14.4 C 0 km/h
3232 04-04-2009 23:49:17 14.4 C 7.54 g/m*3 14.4 C 0 km/h
3233 05-04-2009 00:01:17 14.4 C 7.42 g/m*3 14.4 C 0 km/h
3234 05-04-2009 00:13:17 14.2 C 7.45 g/m*3 14.2 C 0 km/h
3235 05-04-2009 00:25:17 14 C 7.36 g/m*3 14 C 0 km/h
3236 05-04-2009 00:37:17 13.7 C 7.34 g/m*3 13.7 C 0 km/h
3237 05-04-2009 00:49:17 13.7 C 7.46 g/m*3 13.7 C 0 km/h
3238 05-04-2009 01:01:17 13.9 C 7.43 g/m*3 13.9 C 0 km/h
3239 05-04-2009 01:13:18 14.1 C 7.4 g/m*3 14.1 C 0 km/h
3240 05-04-2009 01:25:18 13.8 C 7.51 g/m*3 13.8 C 0 km/h
3241 05-04-2009 01:37:18 13.5 C 7.25 g/m*3 13.5 C 0 km/h
3242 05-04-2009 01:49:18 13.1 C 7.19 g/m*3 13.1 C 0 km/h
3243 05-04-2009 02:01:18 13 C 7.26 g/m*3 13 C 0 km/h
3244 05-04-2009 02:13:18 12.8 C 7.39 g/m*3 12.8 C 0 km/h
3245 05-04-2009 02:25:18 12.7 C 7.35 g/m*3 12.7 C 0 km/h
3246 05-04-2009 02:37:18 12.5 C 7.26 g/m*3 1